Providing info to the public and those not-l33t-enough sceners ;)

PRE DATA

Datetime Release
2019-08-25 00:00:22 Rutete.Ninja.2019.NORWEGIAN.BDRip.x264-WASTE
2019-08-25 00:01:37 Firbcologi.S07E21.O.Vafljih.Krompircku.In.Decku.Ki.Lula.SI.HDTV.x264-RADiOACTiVE
2019-08-25 00:01:38 Firbcologi.S07E21.O.Vafljih.Krompircku.In.Decku.Ki.Lula.SI.720p.HDTV.x264-RADiOACTiVE
2019-08-25 00:05:03 WW2.The.True.Cost.of.War.S01E03.WW2.The.Battle.of.Stalingrad.HDTV.x264-UNDERBELLY
2019-08-25 00:05:57 Salt_Cathedral-Tus_Ojos-SINGLE-WEB-2019-KLIN
2019-08-25 00:09:27 One.Piece.Vol177.Multi.Dvdrip.X264-MANGACiTY
2019-08-25 00:10:22 Makossa_and_Sugar_B_and_Oliver_Koletzki-Live_at_Pratersauna_Vienna-SAT-08-14-2019-PTC
2019-08-25 00:10:32 Greys.Anatomy.S15E23.GERMAN.DL.720p.WEB.H264-idTV
2019-08-25 00:11:07 Greys.Anatomy.S15E23.GERMAN.WEB.H264-idTV
2019-08-25 00:18:29 Greys.Anatomy.S15E23.GERMAN.DL.1080p.WEB.H264-VoDTv
2019-08-25 00:22:03 Riverdale.US.S03E01.720p.BluRay.x264-YELLOWBiRD
2019-08-25 00:22:36 Riverdale.US.S03E02.720p.BluRay.x264-YELLOWBiRD
2019-08-25 00:23:33 Riverdale.US.S03E03.720p.BluRay.x264-YELLOWBiRD
2019-08-25 00:24:04 Fungist-Spectacular_Machine-WEB-2019-KLIN
2019-08-25 00:24:20 Riverdale.US.S03E04.720p.BluRay.x264-YELLOWBiRD
2019-08-25 00:25:03 Riverdale.US.S03E05.720p.BluRay.x264-YELLOWBiRD
2019-08-25 00:25:59 Riverdale.US.S03E06.720p.BluRay.x264-YELLOWBiRD
2019-08-25 00:27:20 Riverdale.US.S03E07.720p.BluRay.x264-YELLOWBiRD
2019-08-25 00:28:31 Riverdale.US.S03E08.720p.BluRay.x264-YELLOWBiRD
2019-08-25 00:29:08 Fire.Masters.S01E08.WEB.x264-KOMPOST
2019-08-25 00:29:19 Riverdale.US.S03E09.720p.BluRay.x264-YELLOWBiRD
2019-08-25 00:30:06 Riverdale.US.S03E10.720p.BluRay.x264-YELLOWBiRD
2019-08-25 00:30:14 Fire.Masters.S01E08.720p.WEB.x264-KOMPOST
2019-08-25 00:31:16 Riverdale.US.S03E11.720p.BluRay.x264-YELLOWBiRD
2019-08-25 00:31:18 Fire.Masters.S01E08.1080p.WEB.x264-KOMPOST
2019-08-25 00:31:25 Lost.Land.of.the.Volcano.S01E03.1080p.HDTV.H264-UNDERBELLY
2019-08-25 00:32:23 Riverdale.US.S03E12.720p.BluRay.x264-YELLOWBiRD
2019-08-25 00:32:29 Drenchill-Never_Never-SINGLE-WEB-2019-KLIN
2019-08-25 00:33:12 Riverdale.US.S03E13.720p.BluRay.x264-YELLOWBiRD
2019-08-25 00:34:02 Riverdale.US.S03E14.720p.BluRay.x264-YELLOWBiRD
2019-08-25 00:35:57 Riverdale.US.S03E15.720p.BluRay.x264-YELLOWBiRD
2019-08-25 00:37:28 Riverdale.US.S03E16.720p.BluRay.x264-YELLOWBiRD
2019-08-25 00:38:28 Mike_Patton_Jean-Claude_Vannier-Chansons_DAmour-SINGLE-WEB-2019-ENTiTLED
2019-08-25 00:38:39 Riverdale.US.S03E17.720p.BluRay.x264-YELLOWBiRD
2019-08-25 00:38:44 Mike_Patton_Jean-Claude_Vannier-On_Top_Of_The_World-SINGLE-WEB-2019-ENTiTLED
2019-08-25 00:39:40 Riverdale.US.S03E18.720p.BluRay.x264-YELLOWBiRD
2019-08-25 00:40:03 Blackbear-Hot_Girl_Bummer-SINGLE-WEB-2019-KLIN
2019-08-25 00:40:43 Riverdale.US.S03E19.720p.BluRay.x264-YELLOWBiRD
2019-08-25 00:40:52 All.Together.Now.S02E02.DANiSH.720p.HDTV.x264-DiViSiON
2019-08-25 00:41:44 Riverdale.US.S03E20.720p.BluRay.x264-YELLOWBiRD
2019-08-25 00:43:07 Riverdale.US.S03E22.720p.BluRay.x264-YELLOWBiRD
2019-08-25 00:44:02 Riverdale.US.S03E21.720p.BluRay.x264-YELLOWBiRD
2019-08-25 00:44:14 The.Zoo-San.Diego.S01E04.A.Lions.Tale.720p.WEBRip.x264-CAFFEiNE
2019-08-25 00:44:51 Fraank-Moskva-SINGLE-WEB-2019-KLIN
2019-08-25 00:45:45 The.Zoo-San.Diego.S01E04.A.Lions.Tale.WEBRip.x264-CAFFEiNE
2019-08-25 00:46:11 Lil_West-Hot_Sauce-SINGLE-WEB-2019-KLIN
2019-08-25 00:47:15 The.Vet.Life.S05E03.This.Little.Piggy.Has.Mites.720p.WEBRip.x264-CAFFEiNE
2019-08-25 00:48:19 Mike_Patton-Berio_Laborintus_II-WEB-2012-ENRiCH
2019-08-25 00:48:43 The.Vet.Life.S05E03.This.Little.Piggy.Has.Mites.WEBRip.x264-CAFFEiNE
2019-08-25 00:49:21 Payy-Mehr_Bargeld-SINGLE-WEB-2019-KLIN
2019-08-25 00:50:14 The.Case.That.Haunts.Me.S02E01.The.Long.Walk.Home.720p.WEBRip.x264-CAFFEiNE
2019-08-25 00:51:43 The.Case.That.Haunts.Me.S02E01.The.Long.Walk.Home.WEBRip.x264-CAFFEiNE
2019-08-25 00:51:50 Fairy.Tail.E323.SUBFRENCH.1080p.WEB.x264-AMB3R
2019-08-25 00:52:16 The.Private.Life.of.S01E01.Cows.1080p.HDTV.H264-UNDERBELLY
2019-08-25 00:52:23 JPEGMAFIA-EP_II-EP-WEB-2016-ENRAGED
2019-08-25 00:52:40 JPEGMAFIA-The_2nd_Amendment-WEB-2016-ENRAGED
2019-08-25 00:53:17 Say.Yes.to.the.Dress.S18E06.Love.At.First.Flight.720p.WEBRip.x264-CAFFEiNE
2019-08-25 00:53:24 Airdice-Sputnik_Club-SAT-08-24-2019-PTC
2019-08-25 00:53:37 Bibi_Bourelly-Wet-SINGLE-WEB-2019-KLIN
2019-08-25 00:54:12 Ostblockschlampen-Sputnik_Club-SAT-08-24-2019-PTC
2019-08-25 00:54:26 Riverdale.US.S03E01.1080p.BluRay.x264-YELLOWBiRD
2019-08-25 00:54:43 Say.Yes.to.the.Dress.S18E06.Love.At.First.Flight.WEBRip.x264-CAFFEiNE
2019-08-25 00:55:06 Kraak_and_Smaak-Selektor-SAT-08-24-2019-PTC
2019-08-25 00:56:02 Riverdale.US.S03E02.1080p.BluRay.x264-YELLOWBiRD
2019-08-25 00:56:07 Lua_Preta-Selektor-SAT-08-24-2019-PTC
2019-08-25 00:57:18 Riverdale.US.S03E03.1080p.BluRay.x264-YELLOWBiRD
2019-08-25 00:58:28 Riverdale.US.S03E04.1080p.BluRay.x264-YELLOWBiRD
2019-08-25 00:59:31 Galactic.Crew.Update.43-PLAZA
2019-08-25 00:59:36 Riverdale.US.S03E05.1080p.BluRay.x264-YELLOWBiRD
2019-08-25 01:00:02 Arida.Backlands.Awakening.Update.v1.0.2-PLAZA
2019-08-25 01:00:58 Rampue-1LIVE_DJ_Session-SAT-25-08-2019-1KING
2019-08-25 01:01:01 Riverdale.US.S03E06.1080p.BluRay.x264-YELLOWBiRD
2019-08-25 01:01:03 Time.Break.2121.Update.v1.1-PLAZA
2019-08-25 01:01:53 Space.Engineers.Economy.Update.v1.192.020-CODEX
2019-08-25 01:02:05 Riverdale.US.S03E07.1080p.BluRay.x264-YELLOWBiRD
2019-08-25 01:02:11 Rebel.Galaxy.Outlaw.Update.v1.14-CODEX
2019-08-25 01:03:27 Riverdale.US.S03E08.1080p.BluRay.x264-YELLOWBiRD
2019-08-25 01:04:47 Riverdale.US.S03E09.1080p.BluRay.x264-YELLOWBiRD
2019-08-25 01:06:07 Riverdale.US.S03E10.1080p.BluRay.x264-YELLOWBiRD
2019-08-25 01:08:07 Riverdale.US.S03E11.1080p.BluRay.x264-YELLOWBiRD
2019-08-25 01:09:19 Riverdale.US.S03E12.1080p.BluRay.x264-YELLOWBiRD
2019-08-25 01:09:24 Promi.Big.Brother.S07E15.Finale.GERMAN.HDTVRiP.x264-iNFOTv
2019-08-25 01:10:07 Men.in.Black.International.2019.FRENCH.720p.BluRay.x264-NTK
2019-08-25 01:10:42 Riverdale.US.S03E13.1080p.BluRay.x264-YELLOWBiRD
2019-08-25 01:10:53 Tune_Brothers-Housesession-SAT-08-25-2019-PTC
2019-08-25 01:11:11 Men.in.Black.International.2019.FRENCH.BDRip.x264-NTK
2019-08-25 01:11:36 Men.in.Black.International.2019.COMPLETE.BLURAY-DiSRUPTION
2019-08-25 01:11:53 Riverdale.US.S03E14.1080p.BluRay.x264-YELLOWBiRD
2019-08-25 01:13:09 Riverdale.US.S03E15.1080p.BluRay.x264-YELLOWBiRD
2019-08-25 01:14:24 Riverdale.US.S03E16.1080p.BluRay.x264-YELLOWBiRD
2019-08-25 01:15:34 Riverdale.US.S03E17.1080p.BluRay.x264-YELLOWBiRD
2019-08-25 01:16:52 Riverdale.US.S03E18.1080p.BluRay.x264-YELLOWBiRD
2019-08-25 01:17:36 Episodes.S01E02.GERMAN.720p.WEB.H264-idTV
2019-08-25 01:17:45 Episodes.S01E03.GERMAN.720p.WEB.H264-idTV
2019-08-25 01:17:59 Riverdale.US.S03E19.1080p.BluRay.x264-YELLOWBiRD
2019-08-25 01:18:29 Episodes.S01E04.GERMAN.720p.WEB.H264-idTV
2019-08-25 01:19:23 Episodes.S01E05.GERMAN.720p.WEB.H264-idTV
2019-08-25 01:19:27 Riverdale.US.S03E20.1080p.BluRay.x264-YELLOWBiRD
2019-08-25 01:19:31 Episodes.S01E06.GERMAN.720p.WEB.H264-idTV
2019-08-25 01:19:36 Episodes.S01E07.GERMAN.720p.WEB.H264-idTV
2019-08-25 01:20:51 Episodes.S01E02.GERMAN.1080p.WEB.H264-VoDTv
2019-08-25 01:20:52 Riverdale.US.S03E21.1080p.BluRay.x264-YELLOWBiRD
2019-08-25 01:21:44 Episodes.S01E03.GERMAN.1080p.WEB.H264-VoDTv
2019-08-25 01:21:56 Episodes.S01E04.GERMAN.1080p.WEB.H264-VoDTv
2019-08-25 01:22:04 Riverdale.US.S03E22.1080p.BluRay.x264-YELLOWBiRD
2019-08-25 01:22:35 NRL.2019.Round.23.Eels.vs.Bulldogs.PDTV.x264-WiNNiNG
2019-08-25 01:24:07 NRL.2019.Round.23.Eels.vs.Bulldogs.HR.PDTV.x264-WiNNiNG
2019-08-25 01:26:35 Episodes.S01E05.GERMAN.1080p.WEB.H264-VoDTv
2019-08-25 01:26:45 Episodes.S01E06.GERMAN.1080p.WEB.H264-VoDTv
2019-08-25 01:27:22 Match.Of.The.Day.2019.08.24.720p.HDTV.x264-ACES
2019-08-25 01:32:19 Match.Of.The.Day.2019.08.24.HDTV.x264-ACES
2019-08-25 01:32:37 Episodes.S01E07.GERMAN.1080p.WEB.H264-VoDTv
2019-08-25 01:36:35 Blac_Kolor-Nephi-(ACT376)-WEB-2019-CBR
2019-08-25 01:37:43 Halou-Brutalism_For_Lovers-WEB-2019-CBR
2019-08-25 01:38:02 Dag_Rosenqvist-Vowels-WEB-2015-CBR
2019-08-25 01:38:23 Muur-Bod-(143rd_Cycle)-WEB-2019-CBR
2019-08-25 01:38:41 ojeRum-Without_Blood_The_Sun_Darkens-(135th_Cycle)-WEB-2019-CBR
2019-08-25 01:39:10 Gliss-In_Utopia-WEB-2019-CBR
2019-08-25 01:39:23 Singapore_Sling-Killer_Classics-WEB-2019-CBR
2019-08-25 02:00:33 The.Rap.Game.UK.S01E01.1080p.HDTV.H264-LiNKLE
2019-08-25 02:02:28 Harry.Potter.and.the.Goblet.of.Fire.NORDiC.SUBPACK.UHD.BluRay-TTD
2019-08-25 02:04:10 Eelke_Kleijn-Days_Like_Nights_Radio_094-SAT-25-08-2019-1KING
2019-08-25 02:05:00 The.Rap.Game.UK.S01E01.720p.HDTV.x264-LiNKLE
2019-08-25 02:05:02 Ma.2019.1080p.BluRay.x264-AAA
2019-08-25 02:05:43 Ma.2019.720p.BluRay.x264-AAA
2019-08-25 02:06:30 Ma.2019.BDRip.x264-AAA
2019-08-25 02:06:54 The.Rap.Game.UK.S01E01.HDTV.x264-LiNKLE
2019-08-25 02:10:19 The.Bachelor.AU.S07E08.HDTV.x264-CBFM
2019-08-25 02:10:24 The.Bachelor.AU.S07E08.720p.HDTV.x264-CBFM
2019-08-25 02:10:50 The.Bachelor.AU.S07E08.1080p.HDTV.H264-CBFM
2019-08-25 02:11:32 International.Basketball.Series.2019.Game.2.USA.vs.Australia.1080p.HDTV.x264-WiNNiNG
2019-08-25 02:12:59 International.Basketball.Series.2019.Game.2.USA.vs.Australia.720p.HDTV.x264-WiNNiNG
2019-08-25 02:14:26 International.Basketball.Series.2019.Game.2.USA.vs.Australia.HDTV.x264-WiNNiNG
2019-08-25 02:27:47 Shakedown.German.2002.DVDRiP.x264.iNTERNAL-CiA
2019-08-25 02:28:08 Deadly.Blaze.Heisser.als.die.Hoelle.German.2001.COMPLETE.PAL.DVDR.iNTERNAL-CiA
2019-08-25 02:28:23 Home.Movies.Wie.du.mir.so.ich.dir.German.1979.DVDRiP.x264.iNTERNAL-CiA
2019-08-25 02:28:42 I.Love.You.Baby.German.2000.COMPLETE.PAL.DVDR.iNTERNAL-CiA
2019-08-25 02:29:00 I.Love.You.Baby.German.2000.DVDRiP.x264.iNTERNAL-CiA
2019-08-25 02:29:18 Shadow.of.Murder.German.1991.DVDRiP.x264.iNTERNAL-CiA
2019-08-25 02:31:40 Promi.Big.Brother.S07E13.GERMAN.HDTVRiP.x264-iNFOTv
2019-08-25 02:32:52 Gardening.Australia.S30E30.1080p.HDTV.x264-PLUTONiUM
2019-08-25 02:33:39 Gardening.Australia.S30E30.720p.HDTV.x264-PLUTONiUM
2019-08-25 02:34:25 Gardening.Australia.S30E30.HDTV.x264-PLUTONiUM
2019-08-25 02:36:21 Rugby.League.Challenge.Cup.2019.Semi.Finals.Warrington.Wolves.vs.Hull.FC.WEB.H264-LEViTATE
2019-08-25 02:37:44 Rugby.League.Challenge.Cup.2019.Semi.Finals.Warrington.Wolves.vs.Hull.FC.720p.WEB.H264-LEViTATE
2019-08-25 02:38:29 Promi.Big.Brother.Die.Late.Night.Show.S05E05.GERMAN.HDTV.1080p.x264-iNFOTv
2019-08-25 02:39:19 Promi.Big.Brother.Die.Late.Night.Show.S05E07.GERMAN.HDTV.1080p.x264-iNFOTv
2019-08-25 02:40:08 Rugby.League.Challenge.Cup.2019.Semi.Finals.St.Helens.RFC.vs.Halifax.RLFC.WEB.H264-LEViTATE
2019-08-25 02:42:20 Rugby.League.Challenge.Cup.2019.Semi.Finals.St.Helens.RFC.vs.Halifax.RLFC.720p.WEB.H264-LEViTATE
2019-08-25 02:47:06 Rugby.League.Challenge.Cup.2019.Finals.Warrington.Wolves.vs.St.Helens.RFC.WEB.H264-LEViTATE
2019-08-25 02:48:13 Rugby.League.Challenge.Cup.2019.Finals.Warrington.Wolves.vs.St.Helens.RFC.720p.WEB.H264-LEViTATE
2019-08-25 03:05:07 Orange.Is.The.New.Black.S07E07.SPANiSH.1080p.HDTV.x264-4FiRE
2019-08-25 03:05:27 Orange.Is.The.New.Black.S07E07.SPANiSH.720p.HDTV.x264-4FiRE
2019-08-25 03:05:50 Orange.Is.The.New.Black.S07E07.SPANiSH.HDTV.x264-4FiRE
2019-08-25 03:14:10 Rugby.League.Challenge.Cup.2019.Final.Warrington.vs.St.Helens.HDTV.x264-WiNNiNG
2019-08-25 03:19:37 Rugby.League.Challenge.Cup.2019.Final.Warrington.vs.St.Helens.720p.HDTV.x264-WiNNiNG
2019-08-25 03:25:40 Suncorp.Super.Netball.2019.Round.14.Giants.vs.Fever.HDTV.x264-WiNNiNG
2019-08-25 03:41:13 Ma.2019.FRENCH.720p.BluRay.x264-NTK
2019-08-25 03:41:39 Ma.2019.FRENCH.BDRip.x264-NTK
2019-08-25 03:45:02 Dansebobla.S01E01.NORWEGiAN.720p.WEB.h264-BAKFYLLA
2019-08-25 03:45:33 Ma.2019.MULTi.1080p.BluRay.x264-NTK
2019-08-25 03:50:08 Gutta.Paa.Tur.S10E01.NORWEGiAN.720p.WEB.h264-BAKFYLLA
2019-08-25 03:55:13 Gutta.Paa.Tur.S10E02.NORWEGiAN.720p.WEB.h264-BAKFYLLA
2019-08-25 03:57:05 Hjerteslag.S01E12.NORWEGiAN.720p.WEB.h264-BAKFYLLA
2019-08-25 04:06:12 AFL.2019.Round.23.Eagles.vs.Hawks.HDTV.x264-WiNNiNG
2019-08-25 04:13:48 AFL.2019.Round.23.Eagles.vs.Hawks.720p.HDTV.x264-WiNNiNG
2019-08-25 04:19:09 International.Basketball.Series.2019.Game.2.Canada.vs.New.Zealand.HDTV.x264-WiNNiNG
2019-08-25 04:20:25 International.Basketball.Series.2019.Game.2.Canada.vs.New.Zealand.720p.HDTV.x264-WiNNiNG
2019-08-25 04:21:39 International.Basketball.Series.2019.Game.2.Canada.vs.New.Zealand.1080p.HDTV.x264-WiNNiNG
2019-08-25 04:27:11 Stephan_Hinz-Plattenleger-SAT-25-08-2019-1KING
2019-08-25 04:28:53 Secret_Cinema-Gem_FM_120-SAT-25-08-2019-1KING
2019-08-25 04:30:56 Jochem_Hamerling-Slam_A.M._307-SAT-25-08-2019-1KING
2019-08-25 04:53:58 Orange.Is.The.New.Black.S07E08.SPANiSH.1080p.HDTV.x264-4FiRE
2019-08-25 04:54:19 Orange.Is.The.New.Black.S07E08.SPANiSH.720p.HDTV.x264-4FiRE
2019-08-25 04:54:41 Orange.Is.The.New.Black.S07E08.SPANiSH.HDTV.x264-4FiRE
2019-08-25 05:01:21 Franky_Rizardo-Flow_308-SAT-25-08-2019-1KING
2019-08-25 05:11:00 Black.Love.S03E03.Emerging.from.Darkness.HDTV.x264-CRiMSON
2019-08-25 05:11:16 Black.Love.S03E03.Emerging.from.Darkness.720p.HDTV.x264-CRiMSON
2019-08-25 05:17:28 Rugby.League.Challenge.Cup.2019.Final.Warrington.vs.St.Helens.1080p.HDTV.x264-WiNNiNG
2019-08-25 05:19:28 AFL.2019.Round.23.Eagles.vs.Hawks.1080p.HDTV.x264-WiNNiNG
2019-08-25 05:21:56 Mens.EuroHockey.Championships.2019.Pool.C.England.vs.Scotland.WEB.H264-LEViTATE
2019-08-25 05:23:41 Mens.EuroHockey.Championships.2019.Pool.C.England.vs.Scotland.720p.WEB.H264-LEViTATE
2019-08-25 05:25:37 Men.in.Black.International.2019.MULTi.1080p.BluRay.x264-NTK
2019-08-25 05:28:13 Mens.EuroHockey.Championships.2019.Pool.C.Ireland.vs.Wales.WEB.H264-LEViTATE
2019-08-25 05:30:15 VA-Sad_About_the_Times-(ARC064)-WEB-2019-MOHAWK
2019-08-25 05:31:48 Mens.EuroHockey.Championships.2019.Pool.C.Ireland.vs.Wales.720p.WEB.H264-LEViTATE
2019-08-25 05:33:17 Mens.EuroHockey.Championships.2019.Third-Place.Match.Netherlands.vs.Germany.WEB.H264-LEViTATE
2019-08-25 05:34:32 Mens.EuroHockey.Championships.2019.Third-Place.Match.Netherlands.vs.Germany.720p.WEB.H264-LEViTATE
2019-08-25 05:36:56 Mens.EuroHockey.Championships.2019.Final.Belgium.vs.Spain.WEB.H264-LEViTATE
2019-08-25 05:38:05 Mens.EuroHockey.Championships.2019.Final.Belgium.vs.Spain.720p.WEB.H264-LEViTATE
2019-08-25 06:02:30 Olivier_Weiter-Weiter_Radio-SAT-25-08-2019-1KING
2019-08-25 06:11:03 Ma.2019.COMPLETE.BLURAY-DiSRUPTION
2019-08-25 06:11:26 Black.Women.OWN.the.Conversation.S01E01.Beauty.HDTV.x264-CRiMSON
2019-08-25 06:11:42 Black.Women.OWN.the.Conversation.S01E01.Beauty.720p.HDTV.x264-CRiMSON
2019-08-25 06:13:55 Alaskan.Bush.People.S10E03.Clear.and.Pheasant.Danger.720p.HDTV.x264-W4F
2019-08-25 06:13:59 Alaskan.Bush.People.S10E03.Clear.and.Pheasant.Danger.HDTV.x264-W4F
2019-08-25 06:14:25 Beat.Bobby.Flay.S21E09.Funny.or.Fried.720p.HDTV.x264-W4F
2019-08-25 06:14:29 Beat.Bobby.Flay.S21E09.Funny.or.Fried.HDTV.x264-W4F
2019-08-25 06:27:13 Reading_and_Leeds_Festival-Dillon_Francis_Live-CABLE-23-08-2019-1KING
2019-08-25 06:27:31 Reading_and_Leeds_Festival-Camelphat_Live-CABLE-23-08-2019-1KING
2019-08-25 06:27:42 BrazzersExxtra.19.08.25.Cali.Carter.And.Karma.RX.If.You.Grow.It.They.Will.Cum.XXX.1080p.MP4-KTR
2019-08-25 06:28:49 RealWifeStories.19.08.25.Madelyn.Monroe.Pussy.For.The.Private.Chef.XXX.1080p.MP4-KTR
2019-08-25 06:31:04 Kirill.Serebrennikov.L.Art.Et.Le.Pouvoir.En.Russie.2018.DOC.FRENCH.720p.WEB.h264-LaoZi
2019-08-25 06:31:33 L.Etat.Contre.Mandela.Et.Les.Autres.2018.DOC.FRENCH.720p.WEB.h264-LaoZi
2019-08-25 06:32:02 La.Grande.Histoire.Des.Peuples.D.Amerique.Part.3.Les.Cites.Du.Ciel.2018.DOC.FRENCH.720p.WEB.h264-LaoZi
2019-08-25 06:32:31 La.Grande.Histoire.Des.Peuples.D.Amerique.Part.4.Resistances.FiNAL.2018.DOC.FRENCH.720p.WEB.h264-LaoZi
2019-08-25 06:32:58 Les.Iles.Australiennes.Un.Paradis.A.Decouvrir.2019.DOC.FRENCH.720p.WEB.h264-LaoZi
2019-08-25 06:33:17 LittleAsians.19.08.25.Katana.Clocks.And.Cock.XXX.1080p.MP4-KTR
2019-08-25 06:35:52 International.Rugby.Union.Friendly.2019.08.24.England.vs.Ireland.Highlights.WEB.H264-LEViTATE
2019-08-25 06:37:03 International.Rugby.Union.Friendly.2019.08.24.England.vs.Ireland.Highlights.720p.WEB.H264-LEViTATE
2019-08-25 06:41:36 MomsBangTeens.19.08.25.Kendra.Lust.And.Kendra.Spade.Dont.Wait.Up.XXX.1080p.MP4-KTR
2019-08-25 06:44:21 DDFBusty.19.08.25.Cherie.Deville.From.Butt.Probing.To.Ass.Fucking.XXX.1080p.MP4-KTR
2019-08-25 06:46:22 Rugby.League.2019.1895.Cup.Final.Widnes.Vikings.vs.Sheffield.Eagles.WEB.H264-LEViTATE
2019-08-25 06:47:06 DDFBusty.19.08.25.Cherie.Deville.From.Butt.Probing.To.Ass.Fucking.XXX.2160p.MP4-KTR
2019-08-25 06:47:33 Rugby.League.2019.1895.Cup.Final.Widnes.Vikings.vs.Sheffield.Eagles.720p.WEB.H264-LEViTATE
2019-08-25 06:48:19 Suncorp.Super.Netball.2019.Round.14.Giants.vs.Fever.720p.HDTV.x264-WiNNiNG
2019-08-25 06:51:59 International.Rugby.Union.Friendly.2019.08.24.England.vs.Ireland.Highlights.HDTV.x264-WiNNiNG
2019-08-25 06:52:12 International.Rugby.Union.Friendly.2019.08.24.England.vs.Ireland.Highlights.720p.HDTV.x264-WiNNiNG
2019-08-25 06:52:20 Lesbea.19.08.25.Angel.Emily.And.Adel.Morel.XXX.1080p.MP4-KTR
2019-08-25 06:53:26 International.Rugby.Union.Friendly.2019.08.24.England.vs.Ireland.Highlights.1080p.HDTV.x264-WiNNiNG
2019-08-25 06:53:37 ThirdMovies.19.08.25.Riley.Reid.The.Sweet.Honeymoon.XXX.1080p.MP4-KTR
2019-08-25 06:55:14 FakeTaxi.19.08.25.Princess.Jasmine.XXX.1080p.MP4-KTR
2019-08-25 06:58:06 FrolicMe.19.01.02.Luna.Corazon.Ding.Dong.XXX.1080p.MP4-KTR
2019-08-25 06:59:52 FrolicMe.19.01.05.Cherry.Kiss.What.A.View.XXX.1080p.MP4-KTR
2019-08-25 07:01:42 FrolicMe.19.01.12.Penelope.Cum.Finger.Me.Part.2.XXX.1080p.MP4-KTR
2019-08-25 07:03:46 FrolicMe.19.02.06.Tina.Kay.Fucking.Listen.XXX.1080p.MP4-KTR
2019-08-25 07:05:32 FrolicMe.19.02.14.No.Models.Assigned.Silky.Soft.XXX.1080p.MP4-KTR
2019-08-25 07:07:51 FrolicMe.19.02.28.Luna.Corazon.Over.And.Over.Again.XXX.1080p.MP4-KTR
2019-08-25 07:09:33 FrolicMe.19.03.08.Cherry.Kiss.See.You.Fight.XXX.1080p.MP4-KTR
2019-08-25 07:11:32 FrolicMe.19.03.23.Daisy.Steel.Bound.To.Fuck.XXX.1080p.MP4-KTR
2019-08-25 07:11:50 Restaurant.Impossible.S15E06.Saving.a.Familys.Legacy.720p.WEBRip.x264-CAFFEiNE
2019-08-25 07:12:08 Il.Corriere.Della.Sera.08.25.2019.iTALiAN.RETAiL.eBook-DiVER
2019-08-25 07:13:20 Restaurant.Impossible.S15E06.Saving.a.Familys.Legacy.WEBRip.x264-CAFFEiNE
2019-08-25 07:14:16 MonstersOfCock.19.08.25.Kali.Roses.XXX.1080p.MP4-KTR
2019-08-25 07:14:50 Restaurant.Impossible.S15E00.Revisited-All.in.the.Family.720p.WEBRip.x264-CAFFEiNE
2019-08-25 07:16:20 Restaurant.Impossible.S15E00.Revisited-All.in.the.Family.WEBRip.x264-CAFFEiNE
2019-08-25 07:17:47 MonstersOfCock.19.08.25.Kali.Roses.XXX.2160p.MP4-KTR
2019-08-25 07:21:19 Power.S06E601.1080p.WEB.H264-iNSiDiOUS
2019-08-25 07:21:31 Power.S06E601.720p.WEB.H264-iNSiDiOUS
2019-08-25 07:21:40 Power.S06E601.WEB.H264-iNSiDiOUS
2019-08-25 07:24:19 FrolicMe.19.04.05.Miriam.Prado.Natural.Vibes.XXX.1080p.MP4-KTR
2019-08-25 07:26:12 FrolicMe.19.04.13.Miriam.Prado.End.Of.Day.Sex.XXX.1080p.MP4-KTR
2019-08-25 07:28:28 European.Equestrian.Championships.2019.Dressage.Freestyle.WEB.H264-LEViTATE
2019-08-25 07:28:30 FrolicMe.19.04.27.Georgie.Lyall.A.Good.Cock.XXX.1080p.MP4-KTR
2019-08-25 07:29:43 European.Equestrian.Championships.2019.Dressage.Freestyle.720p.WEB.H264-LEViTATE
2019-08-25 07:30:07 FrolicMe.19.05.18.Alyssa.Reece.City.Break.XXX.1080p.MP4-KTR
2019-08-25 07:32:27 FrolicMe.19.06.02.Cherry.Kiss.Got.The.Vibe.XXX.1080p.MP4-KTR
2019-08-25 07:34:32 FrolicMe.19.06.23.Alexis.Crystal.And.Emylia.Argan.Kinky.Girls.XXX.1080p.MP4-KTR
2019-08-25 07:36:22 FrolicMe.19.07.06.Katana.Daybed.XXX.1080p.MP4-KTR
2019-08-25 07:37:00 Power.2014.S06E01.1080p.WEB.H264.DiRFiX-iNSiDiOUS
2019-08-25 07:37:13 Power.2014.S06E01.720p.WEB.H264.DiRFiX-iNSiDiOUS
2019-08-25 07:37:39 Power.2014.S06E01.WEB.H264.DiRFiX-iNSiDiOUS
2019-08-25 07:38:13 FrolicMe.19.07.21.Lola.Myluv.See.You.XXX.1080p.MP4-KTR
2019-08-25 07:39:47 FrolicMe.19.08.10.Lola.Myluv.Watch.Lola.Ride.XXX.1080p.MP4-KTR
2019-08-25 07:42:22 La.Gazzetta.Dello.Sport.08.25.2019.iTALiAN.RETAiL.eBook-DiVER
2019-08-25 07:44:51 Killergram.19.08.24.Rachele.Richey.A.Hot.Bitch.DP.XXX.720p.MP4-KTR
2019-08-25 07:47:03 PornMegaLoad.19.08.24.Allie.Addison.Little.Lover.XXX.1080p.MP4-KTR
2019-08-25 07:47:31 CreativeLive.Scratch.DJ.Academy.presents.Using.Serato.Intermediate.with.DJ.Hapa.TUTORiAL-ADSR
2019-08-25 07:48:51 PornMegaLoad.19.08.24.Sigal.Acon.Tits.In.Tight.Tops.XXX.1080p.MP4-KTR
2019-08-25 07:51:34 Mylfwood.19.08.25.Natasha.James.A.Mighty.Fine.Mannequin.XXX.1080p.MP4-KTR
2019-08-25 07:56:38 Saturday.Night.Rove.S01E01.720p.HDTV.x264-CBFM
2019-08-25 07:56:59 Saturday.Night.Rove.S01E01.HDTV.x264-FQM
2019-08-25 07:57:42 CasualTeenSex.19.08.25.Molly.Brown.XXX.1080p.MP4-KTR
2019-08-25 08:01:32 CasualTeenSex.19.08.25.Molly.Brown.XXX.2160p.MP4-KTR
2019-08-25 08:06:44 EvilAngel.19.08.25.Cherry.Kiss.Gangbang.Angel.XXX.1080p.MP4-KTR
2019-08-25 08:07:37 CreativeLive.Serato.Advanced.Techniques.with.DJ.Hapa.TUTORiAL-ADSR
2019-08-25 08:07:45 A.Champion.Heart.Freunde.fuers.Leben.German.2018.AC3.BDRip.x264-PL3X
2019-08-25 08:10:11 A.Champion.Heart.Freunde.fuers.Leben.2018.German.720p.BluRay.x264-PL3X
2019-08-25 08:11:38 The.Affair.S05E01.1080p.WEB.H264-iNSiDiOUS
2019-08-25 08:12:12 The.Affair.S05E01.720p.WEB.H264-iNSiDiOUS
2019-08-25 08:12:37 The.Affair.S05E01.WEB.H264-iNSiDiOUS
2019-08-25 08:13:48 A.Champion.Heart.Freunde.fuers.Leben.2018.German.DL.1080p.BluRay.x264-PL3X
2019-08-25 08:15:27 Juvenile-U_Understand-Promo_VLS-2000-GCP
2019-08-25 08:20:53 A.Champion.Heart.Freunde.fuers.Leben.2018.German.DL.1080p.BluRay.MPEG2-PL3X
2019-08-25 08:21:56 Watch4Beauty.19.08.25.Agatha.Vega.Stairway.To.Heaven.XXX.1080p.MP4-KTR
2019-08-25 08:24:03 Boxing.2019.08.24.Sergey.Kovalev.Vs.Anthony.Yarde.1080p.HDTV.x264-ACES
2019-08-25 08:24:04 Watch4Beauty.19.08.25.Agatha.Vega.Stairway.To.Heaven.XXX.2160p.MP4-KTR
2019-08-25 08:27:08 AnalTeenAngels.19.08.25.Zazie.Skymm.Everything.For.Daddys.Girl.XXX.1080p.MP4-KTR
2019-08-25 08:29:01 ATKGirlfriends.19.08.25.Chloe.Temple.XXX.1080p.MP4-KTR
2019-08-25 08:30:20 EFL.on.Quest.S02E05.HDTV.x264-WiNNiNG
2019-08-25 08:30:26 EFL.on.Quest.S02E05.720p.HDTV.x264-WiNNiNG
2019-08-25 08:31:02 ATKGirlfriends.19.08.25.Chloe.Temple.XXX.2160p.MP4-KTR
2019-08-25 08:31:34 EFL.on.Quest.S02E05.1080p.HDTV.x264-WiNNiNG
2019-08-25 08:32:52 DesperateAmateurs.19.08.25.Elena.XXX.720p.MP4-KTR
2019-08-25 08:34:36 Boxing.2019.08.24.Sergey.Kovalev.Vs.Anthony.Yarde.720p.HDTV.x264-ACES
2019-08-25 08:34:54 DogHouseDigital.19.08.25.Lovita.Fate.And.Barbie.Sins.XXX.1080p.MP4-KTR
2019-08-25 08:36:38 Match.Of.The.Day.2019.08.24.1080p.HDTV.x264-ACES
2019-08-25 08:36:42 Demon.Slayer.Kimetsu.No.Yaiba.E21.1080p.WEB.x264-URANiME
2019-08-25 08:36:52 GirlsTryAnal.19.08.25.Kira.Noir.And.Jade.Baker.Just.Like.Her.Boyfriend.Used.To.XXX.1080p.MP4-KTR
2019-08-25 08:37:29 Demon.Slayer.Kimetsu.No.Yaiba.E21.720p.WEB.x264-URANiME
2019-08-25 08:38:13 Demon.Slayer.Kimetsu.No.Yaiba.E21.WEB.x264-URANiME
2019-08-25 08:38:26 Jorn_-_Live_On_Death_Road-(FR_CDVD_954)-DELUXE_EDITION-2CD-2019-FERiCE
2019-08-25 08:38:38 Moto2.2019.Great.Britain.Practice.Three.1080p.HDTV.x264-ACES
2019-08-25 08:39:00 Gegege.No.Kitaro.E70.1080p.WEB.x264-URANiME
2019-08-25 08:39:32 Majestica_-_Above_The_Sky-(27361_47251)-2LP-2019-FERiCE
2019-08-25 08:39:46 Gegege.No.Kitaro.E70.720p.WEB.x264-URANiME
2019-08-25 08:40:21 AnalTeenAngels.19.08.25.Zazie.Skymm.Everything.For.Daddys.Girl.XXX.2160p.MP4-KTR
2019-08-25 08:40:33 Gegege.No.Kitaro.E70.WEB.x264-URANiME
2019-08-25 08:40:44 Moto2.2019.Great.Britain.Practice.Three.720p.HDTV.x264-ACES
2019-08-25 08:41:19 Lord.El.Melloi.Rail.Zeppelin.Grace.Note.E08.1080p.WEB.x264-URANiME
2019-08-25 08:42:07 Lord.El.Melloi.Rail.Zeppelin.Grace.Note.E08.720p.WEB.x264-URANiME
2019-08-25 08:42:36 Mirakler.Paa.Riget.E01.DANISH.720p.WEB.h264-FFD
2019-08-25 08:42:44 Moto2.2019.Great.Britain.Practice.Three.HDTV.x264-ACES
2019-08-25 08:42:53 Lord.El.Melloi.Rail.Zeppelin.Grace.Note.E08.WEB.x264-URANiME
2019-08-25 08:43:04 ClubSeventeen.19.08.25.Abby.Cross.Hardcore.XXX.INTERNAL.1080p.MP4-KTR
2019-08-25 08:43:41 Symphogear.XV.E08.1080p.WEB.x264-URANiME
2019-08-25 08:44:14 Koden.Til.Kaerlighed.S02E01.DANISH.720p.WEB.h264-FFD
2019-08-25 08:44:25 Symphogear.XV.E08.720p.WEB.x264-URANiME
2019-08-25 08:44:46 Moto3.2019.Great.Britain.Practice.Three.1080p.HDTV.x264-ACES
2019-08-25 08:45:12 Symphogear.XV.E08.WEB.x264-URANiME
2019-08-25 08:46:09 DogHouseDigital.19.08.25.Lovita.Fate.And.Barbie.Sins.XXX.2160p.MP4-KTR
2019-08-25 08:46:30 Secrets.of.a.Psychopath.S01E01.PDTV.x264-UNDERBELLY
2019-08-25 08:46:47 Moto3.2019.Great.Britain.Practice.Three.720p.HDTV.x264-ACES
2019-08-25 08:48:47 Moto3.2019.Great.Britain.Practice.Three.HDTV.x264-ACES
2019-08-25 08:49:22 GirlsTryAnal.19.08.25.Kira.Noir.And.Jade.Baker.Just.Like.Her.Boyfriend.Used.To.XXX.2160p.MP4-KTR
2019-08-25 08:50:48 MotoGP.2019.Great.Britain.Practice.Four.1080p.HDTV.x264-ACES
2019-08-25 08:52:50 MotoGP.2019.Great.Britain.Practice.Four.720p.HDTV.x264-ACES
2019-08-25 08:53:46 Jada.Lillebitte.Kaempestor.E01.DANISH.720p.WEB.h264-FFD
2019-08-25 08:54:15 EPL.2019.08.24.Norwich.City.vs.Chelsea.720p.WEB.h264-VERUM
2019-08-25 08:54:52 MotoGP.2019.Great.Britain.Practice.Four.HDTV.x264-ACES
2019-08-25 08:54:54 ClearMajeure_-_All_Miracles_Can_Happen-(AF251)-SINGLE-WEB-2019-ZzZz
2019-08-25 08:55:10 Bzars_-_NEVERMORE-(018736513657)-SINGLE-WEB-2019-ZzZz
2019-08-25 08:55:22 Jada.Lillebitte.Kaempestor.E02.DANISH.720p.WEB.h264-FFD
2019-08-25 08:55:29 Argon_Shey_-_Love_Me_(Extended_Dub_Mix)-(ML076)-SINGLE-WEB-2019-ZzZz
2019-08-25 08:55:52 Argon_Shey_-_Love_Me_(Club_Vission_Remix)-(ML078)-SINGLE-WEB-2019-ZzZz
2019-08-25 08:56:11 Argon_Shey_-_Love_Me_(Ant_Shumak_Remix)-(ML077)-SINGLE-WEB-2019-ZzZz
2019-08-25 08:56:29 Ant_Shumak_-_Tropesin_Edition-(SHR243)-SINGLE-WEB-2019-ZzZz
2019-08-25 08:56:57 MotoGP.2019.Great.Britain.Practice.Three.1080p.HDTV.x264-ACES
2019-08-25 08:56:58 Jada.Lillebitte.Kaempestor.E03.DANISH.720p.WEB.h264-FFD
2019-08-25 08:58:34 Jada.Lillebitte.Kaempestor.E04.DANISH.720p.WEB.h264-FFD
2019-08-25 08:58:59 MotoGP.2019.Great.Britain.Practice.Three.720p.HDTV.x264-ACES
2019-08-25 08:59:19 Dezibel_-_Going_Crazy-(4871234567784)-WEB-2019-ZzZz
2019-08-25 08:59:20 EPL.2019.08.24.Norwich.City.vs.Chelsea.1080p.WEB.h264-VERUM
2019-08-25 09:00:01 Swinging.Summer.Willkommen.in.den.70ern.2018.GERMAN.DL.1080p.BluRay.x264-UNiVERSUM
2019-08-25 09:00:09 Swinging.Summer.Willkommen.in.den.70ern.2018.GERMAN.720p.BluRay.x264-UNiVERSUM
2019-08-25 09:00:32 Swinging.Summer.Willkommen.in.den.70ern.GERMAN.2018.AC3.BDRip.x264-UNiVERSUM
2019-08-25 09:00:59 MotoGP.2019.Great.Britain.Practice.Three.HDTV.x264-ACES
2019-08-25 09:01:48 Nubiles.19.08.25.Ole.Nina.Busty.Petite.XXX.1080p.MP4-KTR
2019-08-25 09:01:57 EPL.2019.08.24.Liverpool.vs.Arsenal.720p.WEB.h264-VERUM
2019-08-25 09:02:14 All.Together.Now.Danmark.S02E03.DANISH.720p.WEB.x264-FFD
2019-08-25 09:02:45 Sharkwater.Extinction.2018.LiMiTED.DVDRip.x264-CADAVER
2019-08-25 09:03:09 Nubiles.19.08.25.Virginia.Sexy.Sweet.XXX.1080p.MP4-KTR
2019-08-25 09:04:11 MetArt.19.08.25.Angelina.Socho.From.France.With.Love.XXX.1080p.MP4-KTR
2019-08-25 09:04:46 Argon_Shey_-_Love_Me-WEB-2019-ZzZz
2019-08-25 09:05:27 MetArtX.19.08.25.Maria.Rubio.Perfect.Girlfriend.2.XXX.1080p.MP4-KTR
2019-08-25 09:05:28 EPL.2019.08.24.Liverpool.vs.Arsenal.1080p.WEB.h264-VERUM
2019-08-25 09:06:23 PetiteHDPorn.19.08.25.Elza.A.And.Lesya.The.Way.You.Taste.XXX.1080p.MP4-KTR
2019-08-25 09:06:58 MetArt.com_19.08.25.Harley.New.Perception.XXX.iMAGESET-YAPG
2019-08-25 09:07:56 EPL.2019.08.24.Manchester.United.vs.Crystal.Palace.720p.WEB.h264-VERUM
2019-08-25 09:08:24 TheLifeErotic.19.08.25.Josephine.Jackson.Latex.Love.2.XXX.1080p.MP4-KTR
2019-08-25 09:09:31 SexArt.19.08.25.Sarah.Key.On.The.Right.Way.XXX.1080p.MP4-KTR
2019-08-25 09:09:57 All.Together.Now.Danmark.S02E03.DANISH.1080p.WEB.x264-FFD
2019-08-25 09:11:17 Deadline.2019.08.24.DANISH.720p.WEB.h264-FFD
2019-08-25 09:11:21 EPL.2019.08.24.Manchester.United.vs.Crystal.Palace.1080p.WEB.h264-VERUM
2019-08-25 09:11:53 MetArt.com_19.08.25.Aleksandrina.Upstream.XXX.iMAGESET-YAPG
2019-08-25 09:12:54 Jada.Lillebitte.Kaempestor.E01.DANISH.1080p.WEB.h264-FFD
2019-08-25 09:12:56 Anilos.19.08.25.Chelsea.Carter.Take.Me.There.XXX.1080p.MP4-KTR
2019-08-25 09:14:31 NubileFilms.19.08.25.Lucy.Heart.On.Her.Mind.XXX.1080p.MP4-KTR
2019-08-25 09:14:33 Jada.Lillebitte.Kaempestor.E02.DANISH.1080p.WEB.h264-FFD
2019-08-25 09:16:08 Jada.Lillebitte.Kaempestor.E03.DANISH.1080p.WEB.h264-FFD
2019-08-25 09:16:50 MetArt.19.08.25.Angelina.Socho.From.France.With.Love.XXX.2160p.MP4-KTR
2019-08-25 09:17:11 MetArt.com_19.08.25.Ginger.Frost.La.Artista.XXX.iMAGESET-YAPG
2019-08-25 09:17:45 Jada.Lillebitte.Kaempestor.E04.DANISH.1080p.WEB.h264-FFD
2019-08-25 09:19:36 SexArt.19.08.25.Sarah.Key.On.The.Right.Way.XXX.2160p.MP4-KTR
2019-08-25 09:21:19 MYRNE_ft._Lost_Boy-Higher-(UL00772)-SINGLE-WEB-2019-AOV
2019-08-25 09:26:21 CuckoldSessions.19.08.25.Chanel.Grey.XXX.1080p.MP4-KTR
2019-08-25 09:27:58 GloryHole-Initiations.19.08.25.Cecilia.Lion.XXX.1080p.MP4-KTR
2019-08-25 09:29:52 ALSScan.19.08.25.Gianna.Gem.Sanctuary.XXX.1080p.MP4-KTR
2019-08-25 09:31:17 Under.The.Ground-PLAZA
2019-08-25 09:31:54 MyFirstSexTeacher.19.08.25.Sheridan.Love.XXX.1080p.MP4-KTR
2019-08-25 09:32:51 VA_-_Planet_Hardstyle_Vol_1_(Summer_Edition)-(NRC001)-WEB-2010-ZzZz
2019-08-25 09:35:00 ALSScan.19.08.25.Gianna.Gem.Sanctuary.XXX.2160p.MP4-KTR
2019-08-25 09:37:46 MyFirstSexTeacher.19.08.25.Sheridan.Love.XXX.2160p.MP4-KTR
2019-08-25 09:39:36 VA_-_Play_Vol_1_(Summer_Edition)-(NRC002)-WEB-2010-ZzZz
2019-08-25 09:41:48 Hardwell_-_On_Air_430-SAT-08-20-2019-TALiON
2019-08-25 09:42:49 Hardwell_-_On_Air_431-CABLE-08-25-2019-TALiON
2019-08-25 09:43:48 Fedde_le_Grand_-_Dark_Light_Sessions_366-CABLE-08-24-2019-TALiON
2019-08-25 09:44:50 Sister_Bliss_-_In_Session-CABLE-08-24-2019-TALiON
2019-08-25 09:45:47 Dimitri_Vegas_and_Like_Mike_-_Smash_The_House-CABLE-08-23-2019-TALiON
2019-08-25 09:46:17 DJ_Texx_-_I_Cant_Stop-WEB-2009-ZzZz_iNT
2019-08-25 09:46:48 Robin_Schulz_-_Sugar_Radio-CABLE-08-23-2019-TALiON
2019-08-25 09:46:49 ATKGirlfriends.19.08.25.Paris.White.XXX.1080p.MP4-KTR
2019-08-25 09:47:30 Inseminoid.1981.COMPLETE.BLURAY-VEXHD
2019-08-25 09:47:48 Martin_Jensen_-_The_Martin_Jensen_Radio_Show-CABLE-08-23-2019-TALiON
2019-08-25 09:48:29 Uninvited.1988.BDRiP.x264-GUACAMOLE
2019-08-25 09:48:47 DJ_Obscene_-_Ultra_Music_Radio__Incl_Desmeon_Guestmix-CABLE-08-22-2019-TALiON
2019-08-25 09:49:40 ATKGirlfriends.19.08.25.Paris.White.XXX.2160p.MP4-KTR
2019-08-25 09:49:47 Sam_Feldt_-_Heartfeldt_Radio_189-CABLE-08-22-2019-TALiON
2019-08-25 09:50:47 Danny_Howard_-_Nothing_Else_Matters-SAT-08-24-2019-TALiON
2019-08-25 09:51:39 MLS.2019.08.24.New.York.FC.vs.New.York.Red.Bulls.PDTV.x264-WiNNiNG
2019-08-25 09:51:48 Vice_-_Vice_Airwaves-SAT-08-24-2019-TALiON
2019-08-25 09:52:44 MLS.2019.08.24.San.Jose.Earthquakes.vs.Vancouver.Whitecaps.PDTV.x264-WiNNiNG
2019-08-25 09:52:46 David_Guetta_-_Live_at_Ultra_Music_Festival_(Croatia)-SAT-07-12-2019-TALiON
2019-08-25 09:53:48 MOS_-_The_Deep_Editon_266-SAT-08-24-2019-TALiON
2019-08-25 09:54:53 Nora_En_Pure_-_Purified_157-SAT-08-24-2019-TALiON
2019-08-25 09:55:37 Afrojack_-_Jacked_Radio_409-SAT-08-23-2019-TALiON
2019-08-25 09:58:51 VA_-_Neptun_Summer_Edits_(Hardstyle_for_Festivals_2013)-(NRC005)-WEB-2013-ZzZz
2019-08-25 10:01:40 Martin_Eyerer-Kling_Klong-SAT-25-08-2019-1KING
2019-08-25 10:02:47 Queen.Of.The.South.S03E02.NLSUBBED.720p.HDTV.x264-DTODx
2019-08-25 10:04:13 Queen.Of.The.South.S03E03.NLSUBBED.720p.HDTV.x264-DTODx
2019-08-25 10:05:12 Men.in.Black.International.2019.COMPLETE.UHD.BLURAY-TERMiNAL
2019-08-25 10:05:34 How.Do.Animals.Do.That.S01E09.720p.WEB.x264-57CHAN
2019-08-25 10:06:32 GirlsOutWest.19.08.25.Dodi.Pussy.Parlour.XXX.1080p.MP4-TRASHBIN
2019-08-25 10:07:06 Cykling.La.Vuelta.Stage.1.DANISH.720p.WEB.h264-INDKAST
2019-08-25 10:07:14 How.Do.Animals.Do.That.S01E09.1080p.WEB.x264-57CHAN
2019-08-25 10:07:41 GirlsOutWest.19.08.25.Dodi.Pussy.Parlour.XXX.2160p.MP4-TRASHBIN
2019-08-25 10:08:42 Hustler.19.08.25.September.Reign.XXX.1080p.MP4-TRASHBIN
2019-08-25 10:08:51 How.Do.Animals.Do.That.S01E10.720p.WEB.x264-57CHAN
2019-08-25 10:09:04 Uninvited.1988.720p.BluRay.x264-GUACAMOLE
2019-08-25 10:10:29 How.Do.Animals.Do.That.S01E10.1080p.WEB.x264-57CHAN
2019-08-25 10:11:59 Sorjonen.S02E01.FiNNiSH.1080p.BluRay.x264-NordCup
2019-08-25 10:12:47 Serie.A.2019.08.24.Fiorentina.vs.Napoli.WEB.H264-LEViTATE
2019-08-25 10:13:05 Sorjonen.S02E01.FiNNiSH.720p.BluRay.x264-NordCup
2019-08-25 10:13:06 VA_-_Best_of_2013_(Neptun_Records)-(NRC006)-WEB-2013-ZzZz
2019-08-25 10:13:35 Parkitect.v1.4b.x64-CaviaR
2019-08-25 10:14:08 Sorjonen.S02E01.FiNNiSH.BDRip.x264-NordCup
2019-08-25 10:14:56 Serie.A.2019.08.24.Fiorentina.vs.Napoli.720p.WEB.H264-LEViTATE
2019-08-25 10:15:11 Sorjonen.S02E02.FiNNiSH.1080p.BluRay.x264-NordCup
2019-08-25 10:15:15 Mr.Mercedes.S02E08.FRENCH.720p.HDTV.x264-DEAL
2019-08-25 10:16:06 Eredivisie.2019.08.24.Heerenveen.vs.Twente.WEB.H264-LEViTATE
2019-08-25 10:16:14 Sorjonen.S02E02.FiNNiSH.720p.BluRay.x264-NordCup
2019-08-25 10:17:17 Eredivisie.2019.08.24.Heerenveen.vs.Twente.720p.WEB.H264-LEViTATE
2019-08-25 10:17:19 Sorjonen.S02E02.FiNNiSH.BDRip.x264-NordCup
2019-08-25 10:18:18 VA_-_The_EP-WEB-2008-ZzZz
2019-08-25 10:18:21 Sorjonen.S02E03.FiNNiSH.1080p.BluRay.x264-NordCup
2019-08-25 10:18:28 USL.Championship.2019.08.24.Hartford.Athletic.vs.Atlanta.United.FC.2.WEB.H264-LEViTATE
2019-08-25 10:19:24 Sorjonen.S02E03.FiNNiSH.720p.BluRay.x264-NordCup
2019-08-25 10:19:39 USL.Championship.2019.08.24.Hartford.Athletic.vs.Atlanta.United.FC.2.720p.WEB.H264-LEViTATE
2019-08-25 10:20:17 Postnord.Danmark.Rundt.2019.3.Etape.DANISH.720p.WEB.h264-INDKAST
2019-08-25 10:20:27 Sorjonen.S02E03.FiNNiSH.BDRip.x264-NordCup
2019-08-25 10:20:51 USL.Championship.2019.08.24.Louisville.City.FC.vs.North.Carolina.FC.WEB.H264-LEViTATE
2019-08-25 10:21:15 Accdb.Password.Get.v5.5-PH
2019-08-25 10:21:29 King.Of.The.Hammers.Ultra4.Saga.S01E02.HDR.2160p.UHDTV.H265-CBFM
2019-08-25 10:21:31 Sorjonen.S02E04.FiNNiSH.1080p.BluRay.x264-NordCup
2019-08-25 10:22:02 USL.Championship.2019.08.24.Louisville.City.FC.vs.North.Carolina.FC.720p.WEB.H264-LEViTATE
2019-08-25 10:22:36 Sorjonen.S02E04.FiNNiSH.720p.BluRay.x264-NordCup
2019-08-25 10:23:11 USL.Championship.2019.08.24.Ottawa.Fury.FC.vs.Saint.Louis.FC.WEB.H264-LEViTATE
2019-08-25 10:23:38 Sorjonen.S02E04.FiNNiSH.BDRip.x264-NordCup
2019-08-25 10:24:23 USL.Championship.2019.08.24.Ottawa.Fury.FC.vs.Saint.Louis.FC.720p.WEB.H264-LEViTATE
2019-08-25 10:24:43 Sorjonen.S02E05.FiNNiSH.1080p.BluRay.x264-NordCup
2019-08-25 10:24:56 Accdb.Password.Get.Idiot.Version.v5.9-PH
2019-08-25 10:25:34 NCAAW.Soccer.2019.08.22.UAB.Blazers.vs.Samford.Bulldogs.WEB.H264-LEViTATE
2019-08-25 10:25:45 Sorjonen.S02E05.FiNNiSH.720p.BluRay.x264-NordCup
2019-08-25 10:26:27 Thomas_Dutronc_Et_Les_Esprits_Manouches-Live_Is_Love_(Juan_Les_Pins)-FR-DVBS-2019-JUST
2019-08-25 10:26:45 NCAAW.Soccer.2019.08.22.UAB.Blazers.vs.Samford.Bulldogs.720p.WEB.H264-LEViTATE
2019-08-25 10:26:50 Sorjonen.S02E05.FiNNiSH.BDRip.x264-NordCup
2019-08-25 10:27:42 Postnord.Danmark.Rundt.2019.4.Etape.DANISH.720p.WEB.h264-INDKAST
2019-08-25 10:27:54 Sorjonen.S02E06.FiNNiSH.1080p.BluRay.x264-NordCup
2019-08-25 10:27:56 NCAAW.Soccer.2019.08.23.Green.Bay.Phoenix.vs.Valparaiso.Crusaders.WEB.H264-LEViTATE
2019-08-25 10:28:56 Sorjonen.S02E06.FiNNiSH.720p.BluRay.x264-NordCup
2019-08-25 10:29:08 NCAAW.Soccer.2019.08.23.Green.Bay.Phoenix.vs.Valparaiso.Crusaders.720p.WEB.H264-LEViTATE
2019-08-25 10:30:02 Sorjonen.S02E06.FiNNiSH.BDRip.x264-NordCup
2019-08-25 10:30:20 NCAAW.Soccer.2019.08.23.Purdue.Fort.Wayne.Mastodons.vs.Youngstown.State.Penguins.WEB.H264-LEViTATE
2019-08-25 10:30:41 AFL.2019.Round.23.Eagles.vs.Hawks.REPACK.1080p.HDTV.x264-WiNNiNG
2019-08-25 10:31:07 Sorjonen.S02E07.FiNNiSH.1080p.BluRay.x264-NordCup
2019-08-25 10:31:31 NCAAW.Soccer.2019.08.23.Purdue.Fort.Wayne.Mastodons.vs.Youngstown.State.Penguins.720p.WEB.H264-LEViTATE
2019-08-25 10:32:11 Sorjonen.S02E07.FiNNiSH.720p.BluRay.x264-NordCup
2019-08-25 10:32:47 DJ_Snapy_-_Keep_Lovin_You-WEB-2010-ZzZz
2019-08-25 10:33:13 Sorjonen.S02E07.FiNNiSH.BDRip.x264-NordCup
2019-08-25 10:33:38 Maal.Maal.Maal.2019.08.22.DANISH.720p.WEB.h264-INDKAST
2019-08-25 10:34:16 Sorjonen.S02E08.FiNNiSH.1080p.BluRay.x264-NordCup
2019-08-25 10:34:36 Uninvited.1988.1080p.BluRay.x264-GUACAMOLE
2019-08-25 10:35:10 Cykling.La.Vuelta.2019.Stage.1.DIRFIX.DANISH.720p.WEB.h264-INDKAST
2019-08-25 10:35:19 E.M.J_-_Youre_My_Light-(GMA004)-WEB-2010-ZzZz
2019-08-25 10:35:20 Sorjonen.S02E08.FiNNiSH.720p.BluRay.x264-NordCup
2019-08-25 10:36:24 Sorjonen.S02E08.FiNNiSH.BDRip.x264-NordCup
2019-08-25 10:37:28 Sorjonen.S02E09.FiNNiSH.1080p.BluRay.x264-NordCup
2019-08-25 10:38:03 Mindblast_feat_Aco-B_-_This_Is_Our_Summer-(NR025)-WEB-2010-ZzZz_iNT
2019-08-25 10:38:18 Brazen_Hussy-Not_All_Men-EP-WEB-2019-ENTiTLED
2019-08-25 10:38:31 Sorjonen.S02E09.FiNNiSH.720p.BluRay.x264-NordCup
2019-08-25 10:38:51 Drawings-Seven_Deadly_Sins-WEB-2019-ENTiTLED
2019-08-25 10:39:22 Glitterbomb-Creature_of_Judgement-EP-WEB-2019-ENTiTLED
2019-08-25 10:39:34 Sorjonen.S02E09.FiNNiSH.BDRip.x264-NordCup
2019-08-25 10:39:53 Milhouse_Van_Halen-1-EP-WEB-2019-ENTiTLED
2019-08-25 10:40:25 Milhouse_Van_Halen-2-EP-WEB-2019-ENTiTLED
2019-08-25 10:40:30 The.Rookie.S01E07.NLSUBBED.720p.HDTV.x264-DTODx
2019-08-25 10:40:37 Sorjonen.S02E10.FiNNiSH.1080p.BluRay.x264-NordCup
2019-08-25 10:41:25 Mr_Delirious_-_Last_Dimension-(ONR13)-WEB-2009-ZzZz_iNT
2019-08-25 10:41:43 Sorjonen.S02E10.FiNNiSH.720p.BluRay.x264-NordCup
2019-08-25 10:42:09 The.Rookie.S01E08.NLSUBBED.720p.HDTV.x264-DTODx
2019-08-25 10:42:45 Sorjonen.S02E10.FiNNiSH.BDRip.x264-NordCup
2019-08-25 10:45:56 Blutgericht.1964.German.DL.720p.HDTV.x264-NORETAiL
2019-08-25 10:47:02 Blutgericht.1964.German.HDTVRip.x264-NORETAiL
2019-08-25 10:48:08 Das.Millionending.1968.German.DL.720p.HDTV.x264-NORETAiL
2019-08-25 10:49:12 Das.Millionending.1968.German.HDTVRip.x264-NORETAiL
2019-08-25 10:50:17 Die.fuenf.Gefuerchteten.1969.German.DL.1080p.HDTV.x264-NORETAiL
2019-08-25 10:51:22 Die.fuenf.Gefuerchteten.1969.German.DL.720p.HDTV.x264.iNTERNAL-NORETAiL
2019-08-25 10:52:27 Die.fuenf.Gefuerchteten.1969.German.HDTVRip.x264-NORETAiL
2019-08-25 10:53:32 Schnee.in.Rio.2014.German.1080p.HDTV.x264-NORETAiL
2019-08-25 10:54:38 Schnee.in.Rio.2014.German.720p.HDTV.x264-NORETAiL
2019-08-25 10:55:43 Schnee.in.Rio.2014.German.HDTVRip.x264-NORETAiL
2019-08-25 10:55:49 SMP_-_Jump_and_Touch-(ONR001X)-WEB-2008-ZzZz_iNT
2019-08-25 10:56:49 Schoene.Isabella.1967.German.DL.720p.HDTV.x264-NORETAiL
2019-08-25 10:56:50 Elizabeth_Cook-This_Side_Of_The_Moon-2004-ERP
2019-08-25 10:57:54 Schoene.Isabella.1967.German.HDTVRip.x264-NORETAiL
2019-08-25 10:58:22 Suncorp.Super.Netball.2019.Round.14.Giants.vs.Fever.1080p.HDTV.x264-WiNNiNG
2019-08-25 10:58:46 Jungfrau.Unter.Kannibalen.1980.REMASTERED.GERMAN.BDRiP.x264-GOREHOUNDS
2019-08-25 10:58:59 The.Road.Ahead.2016.German.1080p.HDTV.x264-NORETAiL
2019-08-25 11:00:08 The.Road.Ahead.2016.German.720p.HDTV.x264-NORETAiL
2019-08-25 11:01:13 The.Road.Ahead.2016.German.HDTVRip.x264-NORETAiL
2019-08-25 11:02:02 Erik_Ray_-_Dont_be_a_fool-(ONR003X)-WEB-2008-ZzZz_iNT
2019-08-25 11:02:21 Wenn.das.Blut.kocht.1959.German.DL.1080p.HDTV.x264-NORETAiL
2019-08-25 11:03:29 Wenn.das.Blut.kocht.1959.German.DL.720p.HDTV.x264-NORETAiL
2019-08-25 11:04:49 Heyy.Babyy.2007.German.1080p.HDTV.x264-BRUiNS
2019-08-25 11:05:54 Heyy.Babyy.2007.German.720p.HDTV.x264-BRUiNS
2019-08-25 11:07:00 Heyy.Babyy.2007.German.HDTVRip.x264-BRUiNS
2019-08-25 11:07:44 Jungfrau.Unter.Kannibalen.1980.GERMAN.720p.BluRay.x264-GOREHOUNDS
2019-08-25 11:08:06 Partner.2007.German.1080p.HDTV.x264-BRUiNS
2019-08-25 11:09:13 Partner.2007.German.720p.HDTV.x264-BRUiNS
2019-08-25 11:09:47 Jungfrau.Unter.Kannibalen.1980.GERMAN.1080p.BluRay.x264-GOREHOUNDS
2019-08-25 11:09:55 Kimura_feat_Christi_-_Stand_Up_and_Believe-(ONR004X)-WEB-2009-ZzZz_iNT
2019-08-25 11:10:18 Partner.2007.German.HDTVRip.x264-BRUiNS
2019-08-25 11:11:40 El.Canibal.1980.DUAL.COMPLETE.BLURAY-GOREHOUNDS
2019-08-25 11:13:41 The.Mean.Season.1985.720p.BluRay.x264-GUACAMOLE
2019-08-25 11:14:46 Mr.Mercedes.S02E07.FRENCH.720p.HDTV.x264-DEAL
2019-08-25 11:15:26 Jamie.and.Jimmys.Food.Fight.Club.S07E08.Veganes.Leibgericht.mit.Jessica.Chastain.GERMAN.DL.DOKU.1080p.HDTV.x264-EUROPIPE
2019-08-25 11:15:43 Stonebridge_-_BPM_Mix-SAT-08-25-2019-TALiON
2019-08-25 11:16:16 10-Sekunden-Haushaltsbuch.v6.16.German-LAXiTY
2019-08-25 11:16:21 DA-Software.FormMaker.v4.8.2.Multilanguage.incl.Keygen-LAXiTY
2019-08-25 11:16:23 DA-Software.MarkdownEditor.Pro.v1.4.2.Bilanguage.incl.Keygen-LAXiTY
2019-08-25 11:16:25 Close.Proximity.S01E10.HDR.2160p.UHDTV.H265-CBFM
2019-08-25 11:16:30 Dr.Hardware.2019.v19.5.1.German-LAXiTY
2019-08-25 11:16:33 Fotowerkzeuge.x64.v3.0.German-LAXiTY
2019-08-25 11:16:35 Gila-tools.Urlaubsplaner.v2.24.German-LAXiTY
2019-08-25 11:16:37 GiliSoft.File.Lock.Pro.v11.4.0.Multilanguage-LAXiTY
2019-08-25 11:16:43 Gillmeister.Batch.Text.Replacer.v2.13.1.Bilanguage-LAXiTY
2019-08-25 11:16:53 Hastasoft.PC-Database.Enterprise.x64.v4.05.German.incl.Keygen-LAXiTY
2019-08-25 11:16:55 IN.MEDIA.KG.FotoWorks.XL.2019.v19.0.5.Multilanguage-LAXiTY
2019-08-25 11:16:56 Hastasoft.TimOnize.v8.06.German.incl.Keygen-LAXiTY
2019-08-25 11:17:06 Keseling.Gym-O-Fizz.Pro.v3.4.German-LAXiTY
2019-08-25 11:17:07 NCH.Debut.Pro.v5.54.Keygen.only-LAXiTY
2019-08-25 11:17:10 Langmeier.Backup.v10.0.315.German-LAXiTY
2019-08-25 11:17:12 NCH.Express.Scribe.Pro.v8.14.incl.Keygen-LAXiTY
2019-08-25 11:17:15 NCH.VideoPad.Pro.v7.24.incl.Keygen-LAXiTY
2019-08-25 11:17:17 RIGOTECH.Pre-Cut.Optimizer.v2.5.8.0.Bilanguage-LAXiTY
2019-08-25 11:17:20 RecoveryRobot.Hard.Drive.Recovery.v1.3.1-LAXiTY
2019-08-25 11:17:23 RecoveryRobot.Pro.v1.3.1-LAXiTY
2019-08-25 11:17:42 Teorex.PhotoStitcher.v2.1.x64-LAXiTY
2019-08-25 11:17:45 WinNc.v9.0.0.0.Multilanguage-LAXiTY
2019-08-25 11:18:00 RoGaSoft.Fahrzeug.Plus.x64.v6.1.1.Corporate.German-LAXiTY
2019-08-25 11:18:01 RoGaSoft.HerzCheck.Pro.v1.3.German-LAXiTY
2019-08-25 11:18:02 RoGaSoft.HerzCheck.Pro.v1.3.x64.German-LAXiTY
2019-08-25 11:18:04 SVO.Lizenzomat.v8.0.1.0.German-LAXiTY
2019-08-25 11:18:46 G-Nerro-Dim_World-WEB-2019-ESG
2019-08-25 11:19:29 Southside_Teezy-Balance-(EP)-WEB-2019-ESG
2019-08-25 11:19:34 Polona.Ga.Zge.S02E01.Smucarska.SI.HDTV.x264-RADiOACTiVE
2019-08-25 11:19:35 Polona.Ga.Zge.S02E01.Smucarska.SI.720p.HDTV.x264-RADiOACTiVE
2019-08-25 11:19:37 Polona.Ga.Zge.S02E01.Smucarska.SI.1080p.HDTV.H264-RADiOACTiVE
2019-08-25 11:20:03 Thonio-Simple-(EP)-WEB-2019-ESG
2019-08-25 11:21:00 JETFIRE_feat_Gilad_Vital_-_Heavens_Door_(Extended_Mix)-(190295373603)-SINGLE-WEB-2019-ZzZz
2019-08-25 11:21:27 Quintino_-_Make_Believe_(Extended_Mix)-(190295370572)-SINGLE-WEB-2019-ZzZz
2019-08-25 11:21:45 Tiesto_and_Jonas_Blue_feat_Rita_Ora_-_Ritual_(Remixes)-(00602508175008)-WEB-2019-ZzZz
2019-08-25 11:26:02 Diplo_-_Records_on_Records-SAT-08-24-2019-TALiON
2019-08-25 11:27:35 Polona.Ga.Zge.S02E02.Sama.Jajca.SI.HDTV.x264-RADiOACTiVE
2019-08-25 11:27:36 Polona.Ga.Zge.S02E02.Sama.Jajca.SI.720p.HDTV.x264-RADiOACTiVE
2019-08-25 11:27:37 Polona.Ga.Zge.S02E02.Sama.Jajca.SI.1080p.HDTV.H264-RADiOACTiVE
2019-08-25 11:31:14 New_Pants-Disco_Girl-CPOP-2000-CaHeSo
2019-08-25 11:31:47 New_Pants-Dragon_Tiger_Panacea-CPOP-2006-CaHeSo
2019-08-25 11:32:20 New_Pants-Equal_Love-CPOP-2008-CaHeSo
2019-08-25 11:35:27 The.Mean.Season.1985.1080p.BluRay.x264-GUACAMOLE
2019-08-25 11:37:39 DTM.Lausitzring.1.Rennen.2019.GERMAN.1080p.HDTV.x264-SKYHD
2019-08-25 11:38:40 DTM.Lausitzring.1.Rennen.2019.GERMAN.720p.HDTV.x264-SKYHD
2019-08-25 11:39:20 FemJoy.com_19.08.25.Lola.Krit.Frolicsome.XXX.iMAGESET-YAPG
2019-08-25 11:39:27 NRL.2019.Round.23.Dragons.vs.Roosters.PDTV.x264-WiNNiNG
2019-08-25 11:39:38 Apocalypse.Now.1979.Final.Cut.2160p.UHD.BluRay.x265-TERMiNAL
2019-08-25 11:39:39 DTM.Lausitzring.1.Rennen.2019.GERMAN.HDTVRiP.x264-SKYHD
2019-08-25 11:39:53 Da_Chamber-The_Uninvited-WEB-1998-ESG_INT
2019-08-25 11:40:09 Da_Click-Southern_Prayerz-WEB-2001-ESG_INT
2019-08-25 11:40:29 Promise-Tell_Me_What_You_See-WEB-2000-ESG_INT
2019-08-25 11:40:41 Moto3.Qualifying.Grossbritannien.2019.GERMAN.1080p.HDTV.x264-SKYHD
2019-08-25 11:41:43 Moto3.Qualifying.Grossbritannien.2019.GERMAN.720p.HDTV.x264-SKYHD
2019-08-25 11:42:09 12378.km.Australien.-.Sven.Furrer.auf.Abwegen.E01.GERMAN.DOKU.WS.HDTVRip.x264-Pumuck
2019-08-25 11:42:44 Moto3.Qualifying.Grossbritannien.2019.GERMAN.HDTVRiP.x264-SKYHD
2019-08-25 11:43:46 MotoGP.4.Freies.Training.Grossbritannien.2019.GERMAN.1080p.HDTV.x264-SKYHD
2019-08-25 11:44:12 12378.km.Australien.-.Sven.Furrer.auf.Abwegen.E02.GERMAN.DOKU.WS.HDTVRip.x264-Pumuck
2019-08-25 11:44:31 Vetenskapens.Varld.S32E02.SWEDiSH.720p.WEB.h264-NORUSH
2019-08-25 11:44:46 MotoGP.4.Freies.Training.Grossbritannien.2019.GERMAN.720p.HDTV.x264-SKYHD
2019-08-25 11:45:47 MotoGP.4.Freies.Training.Grossbritannien.2019.GERMAN.HDTVRiP.x264-SKYHD
2019-08-25 11:46:15 12378.km.Australien.-.Sven.Furrer.auf.Abwegen.E03.GERMAN.DOKU.WS.HDTVRip.x264-Pumuck
2019-08-25 11:46:32 ATKHairy.19.08.23.Ellie.Toys.XXX.1080p.MP4-oRo
2019-08-25 11:47:02 Tender-Fear_Of_Falling_Asleep-PROMO-CD-FLAC-2019-CALiFLAC
2019-08-25 11:47:09 ATKHairy.19.08.24.Apricott.Pitts.Masturbation.XXX.1080p.MP4-oRo
2019-08-25 11:48:29 12378.km.Australien.-.Sven.Furrer.auf.Abwegen.E04.GERMAN.DOKU.WS.HDTVRip.x264-Pumuck
2019-08-25 11:49:13 The.Gunfighter.1950.720p.BluRay.x264-GUACAMOLE
2019-08-25 11:50:17 12378.km.Australien.-.Sven.Furrer.auf.Abwegen.E05.GERMAN.DOKU.WS.HDTVRip.x264-Pumuck
2019-08-25 11:52:10 12378.km.Australien.-.Sven.Furrer.auf.Abwegen.E06.GERMAN.DOKU.WS.HDTVRip.x264-Pumuck
2019-08-25 11:52:31 Formula.1.Drive.To.Survive.S01E01.DOC.FRENCH.1080p.WEB.x265-METALLIKA
2019-08-25 11:52:42 Kerri_Chandler_and_Jerome_Sydenham_ft_Troy_Denari-Youre_In_My_System_(Dennis_Quin_Remixes)-(IRC143)-WEB-2019-DWM
2019-08-25 11:53:33 Apocalypse.Now.1979.Final.Cut.COMPLETE.UHD.BLURAY-TERMiNAL
2019-08-25 11:58:18 VA_-_DJ_Networx_EP_Vol_5-WEB-2006-iDC
2019-08-25 11:59:53 Sebb_Junior_and_Sammy_Deuce-Throw_the_Dice_EP_(Extended)-(DPLMSN010)-WEB-2019-DWM
2019-08-25 12:06:08 Ellis-The_Fuzz-PROMO-CDEP-FLAC-2019-CALiFLAC
2019-08-25 12:06:53 KLLO-Backwater-PROMO-CD-FLAC-2017-CALiFLAC
2019-08-25 12:07:17 Sugarmen-Local_Freaks-PROMO-CD-FLAC-2017-CALiFLAC
2019-08-25 12:07:47 Swearin-Fall_Into_The_Sun-PROMO-CD-FLAC-2018-CALiFLAC
2019-08-25 12:08:26 We_Were_Promised_Jetpacks-The_More_I_Sleep_The_Less_I_Dream-PROMO-CD-FLAC-2018-CALiFLAC
2019-08-25 12:09:16 Ex.and.the.City.S01E21.SWEDiSH.720p.WEB.x264-NORUSH
2019-08-25 12:10:08 Der.Aequator.Breitengrad.der.Extreme.E01.Party.Untergang.und.Seeloewen.GERMAN.DOKU.WS.HDTVRip.x264-Pumuck
2019-08-25 12:10:10 Ex.and.the.City.S01E21.SWEDiSH.1080p.WEB.x264-NORUSH
2019-08-25 12:12:14 Der.Aequator.Breitengrad.der.Extreme.E02.Gott.Botox.und.Urtiere.GERMAN.DOKU.WS.HDTVRip.x264-Pumuck
2019-08-25 12:12:20 The.Gunfighter.1950.1080p.BluRay.x264-GUACAMOLE
2019-08-25 12:14:24 Der.Aequator.Breitengrad.der.Extreme.E03.Loewen.Haie.und.ein.Staatspraesident.GERMAN.DOKU.WS.HDTVRip.x264-Pumuck
2019-08-25 12:16:19 Der.Aequator.Breitengrad.der.Extreme.E04.Schlangen.Schweine.Schoenheitswahn.GERMAN.DOKU.WS.HDTVRip.x264-Pumuck
2019-08-25 12:18:34 Der.Aequator.Breitengrad.der.Extreme.E05.Hoffnung.Trauer.und.grosse.Ziele.GERMAN.DOKU.WS.HDTVRip.x264-Pumuck
2019-08-25 12:20:03 Addiction.Unplugged.S01E03.720p.WEB.h264-KOMPOST
2019-08-25 12:21:28 Addiction.Unplugged.S01E03.WEB.h264-KOMPOST
2019-08-25 12:21:34 BloodBruthaz-Bloodwork-WEB-2005-ESG_INT
2019-08-25 12:21:47 New_Pants-Disco_Girl-CN-CD-FLAC-2000-CHS
2019-08-25 12:21:48 Gods_New_Perfection-Thy_Will_Be_Done_(Volume_II)_Double_Portion-WEB-2002-ESG_INT
2019-08-25 12:22:12 O-Dawg-Real_Talk_Vol_2_Weapon_Of_Wisdom-WEB-2011-ESG_INT
2019-08-25 12:22:13 New_Pants-Dragon_Tiger_Panacea-CN-CD-FLAC-2006-CHS
2019-08-25 12:22:35 Barbara_Wood-Rote_Sonne_Schwarzes_Land_(Gekuerzte_Fassung)-AUDIOBOOK-DE-WEB-2012-FLUiD
2019-08-25 12:22:45 New_Pants-Equal_Love-CN-CD-FLAC-2008-CHS
2019-08-25 12:22:57 Addiction.Unplugged.S01E04.720p.WEB.h264-KOMPOST
2019-08-25 12:24:28 Addiction.Unplugged.S01E04.WEB.h264-KOMPOST
2019-08-25 12:25:59 Ghost.Hunters.2019.S01E00.Ghost.Hunters-Back.on.the.Hunt.720p.WEB.h264-KOMPOST
2019-08-25 12:27:28 Ghost.Hunters.2019.S01E00.Ghost.Hunters-Back.on.the.Hunt.WEB.h264-KOMPOST
2019-08-25 12:28:56 Stefan_Zweig_Julian_Luebbers-Vergessene_Traeume-AUDIOBOOK-DE-WEB-2019-FLUiD
2019-08-25 12:29:00 Marrying.Millions.S01E07.720p.WEB.h264-KOMPOST
2019-08-25 12:30:29 Marrying.Millions.S01E07.WEB.h264-KOMPOST
2019-08-25 12:31:58 Say.Yes.to.the.Dress.Northern.Edition.S03E11.1080p.WEB.x264-KOMPOST
2019-08-25 12:33:24 Bohn-Strapped_For_The_Season-REMASTERED-CD-FLAC-2007-CALiFLAC
2019-08-25 12:33:28 Say.Yes.to.the.Dress.Northern.Edition.S03E11.720p.WEB.x264-KOMPOST
2019-08-25 12:34:04 Deco-D-The_Soul_Taker-REMASTERED-CD-FLAC-2007-CALiFLAC
2019-08-25 12:34:58 Say.Yes.to.the.Dress.Northern.Edition.S03E11.WEB.x264-KOMPOST
2019-08-25 12:36:30 Say.Yes.to.the.Dress.Northern.Edition.S03E12.1080p.WEB.x264-KOMPOST
2019-08-25 12:37:59 Say.Yes.to.the.Dress.Northern.Edition.S03E12.720p.WEB.x264-KOMPOST
2019-08-25 12:39:29 Say.Yes.to.the.Dress.Northern.Edition.S03E12.WEB.x264-KOMPOST
2019-08-25 12:40:35 Ciril.Zlobec-Hommage.Cloveku.2019.SI.HDTV.x264-RADiOACTiVE
2019-08-25 12:40:36 Ciril.Zlobec-Hommage.Cloveku.2019.SI.720p.HDTV.x264-RADiOACTiVE
2019-08-25 12:40:59 Web.of.Dreams.2019.720p.WEB.h264-KOMPOST
2019-08-25 12:42:11 Indycar.2019.R14.SWEDiSH.720p.HDTV.x264-sweHD
2019-08-25 12:42:28 Web.of.Dreams.2019.WEB.h264-KOMPOST
2019-08-25 12:49:46 Sikker.Og.Soen.S02E01.DANISH.720p.WEB.h264-LSDK
2019-08-25 12:56:05 Sikker.Og.Soen.S02E02.DANISH.720p.WEB.h264-LSDK
2019-08-25 13:00:37 Sikker.Og.Soen.S02E03.DANISH.720p.WEB.h264-LSDK
2019-08-25 13:05:32 Sikker.Og.Soen.S02E04.DANISH.720p.WEB.h264-LSDK
2019-08-25 13:07:01 Harry.Potter.and.the.Prisoner.of.Azkaban.NORDiC.SUBPACK.UHD.BluRay-TTD
2019-08-25 13:09:08 Kdyz.se.certi.rojili.1966.CZECH.PDTV.x264-I_KnoW
2019-08-25 13:09:46 Secrets.Of.The.Brain.S02E05.Genius.HDR.2160p.UHDTV.H265-CBFM
2019-08-25 13:14:46 Queen.Of.The.South.S03E02.NLSUBBED.1080p.HDTV.x264-DTODx
2019-08-25 13:15:26 Graeme_Revell-The_Crow-OST-CD-FLAC-1994-CRUELTY
2019-08-25 13:17:34 Queen.Of.The.South.S03E03.NLSUBBED.1080p.HDTV.x264-DTODx
2019-08-25 13:18:46 Vorhang.auf.fuer.Cyrano.German.2018.DL.PAL.DVDR-SAViOUR
2019-08-25 13:20:09 Sikker.Og.Soen.S02E05.DANISH.720p.WEB.h264-LSDK
2019-08-25 13:20:15 Graeme_Revell-The_Crow-OST-CD-1994-CRUELTYx_iNT
2019-08-25 13:21:18 The.Rookie.S01E07.NLSUBBED.1080p.HDTV.x264-DTODx
2019-08-25 13:23:10 Sikker.Og.Soen.S02E06.DANISH.720p.WEB.h264-LSDK
2019-08-25 13:24:13 The.Rookie.S01E08.NLSUBBED.1080p.HDTV.x264-DTODx
2019-08-25 13:25:08 Sikker.Og.Soen.S02E07.DANISH.720p.WEB.h264-LSDK
2019-08-25 13:26:18 Leben.im.All.E01.Planetenjaeger.GERMAN.DOKU.WS.HDTVRip.x264-Pumuck
2019-08-25 13:28:09 Ellis-The_Fuzz-PROMO-CDEP-2019-DGN
2019-08-25 13:28:14 Leben.im.All.E02.Unterwegs.zu.einem.neuen.Planeten.GERMAN.DOKU.WS.HDTVRip.x264-Pumuck
2019-08-25 13:29:14 Sikker.Og.Soen.S02E08.DANISH.720p.WEB.h264-LSDK
2019-08-25 13:30:15 Leben.im.All.E03.Auf.der.Suche.nach.Ausserirdischem.GERMAN.DOKU.WS.HDTVRip.x264-Pumuck
2019-08-25 13:30:33 Adoriany.Learn.How.to.Produce.a.Song.for.Video.TUTORiAL-DYNAMiCS
2019-08-25 13:31:43 Sikker.Og.Soen.S02E09.DANISH.720p.WEB.h264-LSDK
2019-08-25 13:32:08 Leben.im.All.E04.Der.erste.Kontakt.GERMAN.DOKU.WS.HDTVRip.x264-Pumuck
2019-08-25 13:32:25 Ask.Video.Bitwig.Studio.302.The.Grid.Explained.and.Explored.TUTORiAL-DYNAMiCS
2019-08-25 13:32:34 Power.And.Martial.Arts.S01E04.HDR.2160p.UHDTV.H265-CBFM
2019-08-25 13:33:54 Ask.Video.Logic.Pro.X.402.EDM.Production.Tips.TUTORiAL-DYNAMiCS
2019-08-25 13:34:23 Ask.Video.Teenage.Engineering.104.The.OP-Z.Explored.TUTORiAL-DYNAMiCS
2019-08-25 13:35:09 Sikker.Og.Soen.S02E10.DANISH.720p.WEB.h264-LSDK
2019-08-25 13:35:55 MacProVideo.Logic.Pro.X.204.The.Modulation.Plugins.TUTORiAL-DYNAMiCS
2019-08-25 13:36:05 Aimoon_-_Skyfox-(FO140R061)-WEB-2019-JUSTiFY
2019-08-25 13:36:50 Matt_Farmer_-_Pure-(VAU071)-WEB-2019-JUSTiFY
2019-08-25 13:37:24 MacProVideo.Reason.10.203.Layers.TUTORiAL-DYNAMiCS
2019-08-25 13:38:00 Zone_2_-_Bring_The_Bass-(SSM_027)-WEB-2019-ZzZz
2019-08-25 13:39:22 Udemy.How.to.Make.A.Music.Video.Go.Viral.On.Youtube.And.Get.Famous.TUTORiAL-DYNAMiCS
2019-08-25 13:41:26 Moto3.2019.Great.Britain.Grand.Prix.720p.HDTV.x264-ACES
2019-08-25 13:41:58 Psy-Sun_-_Mr._Black-(BHM0037)-WEB-2019-JUSTiFY
2019-08-25 13:42:41 Sandro_Mireno_and_Genio_ft._Elle_-_Ave_Maria-(AASC017)-WEB-2019-JUSTiFY
2019-08-25 13:43:26 Moto3.2019.Great.Britain.Grand.Prix.HDTV.x264-ACES
2019-08-25 13:44:32 Cymatics.FX.Essentials.WAV-DYNAMiCS
2019-08-25 13:44:55 VA_-_Studio_2645_(Mixed_By_Abdullah_Ozdogan)-(3616400776925)-SINGLE-WEB-2019-JUSTiFY
2019-08-25 13:45:34 We_Were_Promised_Jetpacks-The_More_I_Sleep_The_Less_I_Dream-PROMO-CD-2018-DGN
2019-08-25 13:45:41 WavSupply.Nick.Mira.Ocelot.Melody.Pack.WAV-DYNAMiCS
2019-08-25 13:45:54 Tender-Fear_Of_Falling_Asleep-PROMO-CD-2019-DGN
2019-08-25 13:46:21 Wilson_Kentura_-_Burn_The_Floor-(AR_00024)-WEB-2019-ZzZz
2019-08-25 13:46:28 Swearin-Fall_Into_The_Sun-PROMO-CD-2018-DGN
2019-08-25 13:46:49 Sugarmen-Local_Freaks-CD-2017-DGN
2019-08-25 13:47:10 KLLO-Backwater-PROMO-CD-2017-DGN
2019-08-25 13:47:41 Longmire.S06E05.German.DL.DUBBED.1080p.BluRay.x264-AIDA
2019-08-25 13:48:00 INE.Designing.Data.Solutions.With.The.Azure.Data.Platform-iLST
2019-08-25 13:50:54 Rivic_Jazz_-_African_Knight-(ARM296)-SINGLE-WEB-2019-ZzZz
2019-08-25 13:51:09 Hard.Powder.GERMAN.2019.DL.PAL.DVDR-OldsMan
2019-08-25 13:52:26 Assylum.19.08.18.Mistress.Margot.Domme.Destruction.Remastered.XXX.1080p.MP4-BIUK
2019-08-25 13:53:58 PremiumBukkake.19.08.14.Alyssa.Reece.Bukkake.Behind.The.Scenes.XXX.1080p.MP4-BIUK
2019-08-25 13:54:56 Bilmuri-Pasteurized_Milk-(WEB)-2019-RUMBLE
2019-08-25 13:55:15 Bilmuri-Wet_Milk-(WEB)-2019-RUMBLE
2019-08-25 13:55:32 PremiumBukkake.19.08.15.Daisy.Lee.Gloryhole.XXX.1080p.MP4-BIUK
2019-08-25 13:55:40 The_Seafloor_Cinema-A_Metaphor_For_Honesty-(WEB)-2019-RUMBLE
2019-08-25 13:55:52 Longmire.S06E05.German.DL.DUBBED.720p.BluRay.x264-AIDA
2019-08-25 13:56:09 Longmire.S06E05.German.DUBBED.BDRip.x264-AIDA
2019-08-25 13:56:11 Vanish-Familiar_Faces-(WEB)-2019-RUMBLE
2019-08-25 13:56:25 Tote.Maedchen.luegen.nicht.S03E01.German.DL.1080p.WebHD.x264-AIDA
2019-08-25 13:56:37 WVNDER-Nothing_Stays-(WEB)-2019-RUMBLE
2019-08-25 13:56:42 Tote.Maedchen.luegen.nicht.S03E01.German.DL.720p.WebHD.x264-AIDA
2019-08-25 13:56:57 Tote.Maedchen.luegen.nicht.S03E01.German.WebRip.x264-AIDA
2019-08-25 13:57:02 PremiumBukkake.19.08.21.Daisy.Lee.Gloryhole.Behind.The.Scenes.XXX.1080p.MP4-BIUK
2019-08-25 13:57:15 NRL.2019.Round.23.Dragons.vs.Roosters.HR.PDTV.x264-WiNNiNG
2019-08-25 13:57:17 Tote.Maedchen.luegen.nicht.S03E02.German.DL.1080p.WebHD.x264-AIDA
2019-08-25 13:57:45 Tote.Maedchen.luegen.nicht.S03E02.German.DL.720p.WebHD.x264-AIDA
2019-08-25 13:58:04 Tote.Maedchen.luegen.nicht.S03E02.German.WebRip.x264-AIDA
2019-08-25 13:58:25 Tote.Maedchen.luegen.nicht.S03E03.German.DL.1080p.WebHD.x264-AIDA
2019-08-25 13:58:28 Suncorp.Super.Netball.2019.Round.14.Magpies.vs.Vixens.HDTV.x264-WiNNiNG
2019-08-25 13:58:35 PremiumBukkake.19.08.22.Nikki.Hill.Bukkake.XXX.1080p.MP4-BIUK
2019-08-25 13:58:46 Tote.Maedchen.luegen.nicht.S03E03.German.DL.720p.WebHD.x264-AIDA
2019-08-25 13:59:06 Tote.Maedchen.luegen.nicht.S03E03.German.WebRip.x264-AIDA
2019-08-25 13:59:28 Tote.Maedchen.luegen.nicht.S03E04.German.DL.1080p.WebHD.x264-AIDA
2019-08-25 13:59:44 Tote.Maedchen.luegen.nicht.S03E04.German.DL.720p.WebHD.x264-AIDA
2019-08-25 13:59:47 Last.Rampage.Der.Ausbruch.des.Gary.Tison.GERMAN.2017.DL.PAL.DVDR-OldsMan
2019-08-25 14:00:08 Tote.Maedchen.luegen.nicht.S03E04.German.WebRip.x264-AIDA
2019-08-25 14:00:36 M.I.K.E._Push-Intersection-(FSOE398A)-WEB-2019-AFO
2019-08-25 14:00:42 Allende-Simpler_Times-(PURETRANCE158)-SINGLE-WEB-2019-AFO
2019-08-25 14:00:46 Tommy_Glasses-Do_You_Realize-(SBK163)-SINGLE-WEB-2019-DWM
2019-08-25 14:00:51 Bobby_DAmbrosio-Elevate_Me_(Joey_Youngman_Remix)-(GMD556)-WEB-2019-DWM
2019-08-25 14:00:55 Paul_Kardos-Downpour-(ST221)-WEB-2019-AFO
2019-08-25 14:00:57 3lanko_and_Jack_Vath-Cardano-(RDXRED140)-WEB-2019-AFO
2019-08-25 14:01:13 Christopher_FaFa-Time_Slot-(SFR367)-WEB-2019-AFO
2019-08-25 14:01:14 Terra_V-Every_Heart_You_Take-(RDXM064)-WEB-2019-AFO
2019-08-25 14:01:23 Record_Playerz-Hi_NRG-(MIDRIOTD204)-WEB-2019-DWM
2019-08-25 14:01:27 Nuestro_and_Josa-Olympus-(INFRAP177)-WEB-2019-AFO
2019-08-25 14:01:29 Hotmood-DW010-(DW010)-WEB-2019-DWM
2019-08-25 14:01:32 Tote.Maedchen.luegen.nicht.S03E05.German.DL.1080p.WebHD.x264-AIDA
2019-08-25 14:01:36 MXV-Cant_Forget_You-(BALKAN0576)-WEB-2019-AFO
2019-08-25 14:01:44 Andrew_Mirt-Maze_Of_Soul-(BASE071A)-WEB-2019-AFO
2019-08-25 14:01:47 Michael_A-Guava-(HMR062)-SINGLE-WEB-2019-AFO
2019-08-25 14:01:49 Tote.Maedchen.luegen.nicht.S03E05.German.DL.720p.WebHD.x264-AIDA
2019-08-25 14:01:53 Ricardo_Piedra-Baloon-(SUPER193)-WEB-2019-AFO
2019-08-25 14:01:56 Tycoos-Sun_Flares-(TRUE111A)-WEB-2019-AFO
2019-08-25 14:02:05 Iago_Caetano-Atelophobia-(BC2270)-WEB-2019-AFO
2019-08-25 14:02:26 Scott_Rotton-Acid_Souls-(BP8682019)-WEB-2019-AFO
2019-08-25 14:02:29 Stormerz_-_Be_The_One-(LCM048)-WEB-2019-SRG
2019-08-25 14:02:41 Tote.Maedchen.luegen.nicht.S03E05.German.WebRip.x264-AIDA
2019-08-25 14:02:44 VA-Blue_Soho_Summer_Sampler_(One)-(BLS343)-WEB-2019-AFO
2019-08-25 14:02:51 Guy_Mantzur_and_Khen-Where_Is_Home_EP-(BEDDIGI147)-WEB-2019-AFO
2019-08-25 14:03:02 Tote.Maedchen.luegen.nicht.S03E06.German.DL.1080p.WebHD.x264-AIDA
2019-08-25 14:03:04 Stan_Chetverikov-Julia_EP-(WHS102)-WEB-2019-AFO
2019-08-25 14:03:06 Mindsoundscapes-Inner_Peace-(TAR138074)-WEB-2019-AFO
2019-08-25 14:03:10 Polli_Ji-Meant_To_Be_EP-(SUARA367)-WEB-2019-AFO
2019-08-25 14:03:15 Le.Dessous.Des.Cartes.Turquie.La.Puissance.Selon.Erdogan.2018.DOC.FRENCH.720p.WEB.h264-LaoZi
2019-08-25 14:03:20 Tote.Maedchen.luegen.nicht.S03E06.German.DL.720p.WebHD.x264-AIDA
2019-08-25 14:03:23 Sholan-Irish_Eyes-SINGLE-WEB-2019-AFO
2019-08-25 14:03:26 Anton_Borin_(RU)-Packman-(SM037)-WEB-2019-AFO
2019-08-25 14:03:36 Tote.Maedchen.luegen.nicht.S03E06.German.WebRip.x264-AIDA
2019-08-25 14:03:38 Dynacom_(ARG)-Night_Witcher_(Nishan_Lee_Remix)-(YIN111)-SINGLE-WEB-2019-AFO
2019-08-25 14:03:53 VA-Remixed-(LSM020)-WEB-2019-AFO
2019-08-25 14:03:54 Tote.Maedchen.luegen.nicht.S03E07.German.DL.1080p.WebHD.x264-AIDA
2019-08-25 14:03:59 Dynacom_(ARG)-Night_Witcher_(Kamilo_Sanclemente_Remix)-(YANG111)-SINGLE-WEB-2019-AFO
2019-08-25 14:04:04 Up___Forward_ft_Eugene_Sender-Believe_In_Yourself-(LEV107)-WEB-2019-AFO
2019-08-25 14:04:11 Tote.Maedchen.luegen.nicht.S03E07.German.DL.720p.WebHD.x264-AIDA
2019-08-25 14:04:14 Neo_Gartner-Kingdom-(MSBKR162)-SINGLE-WEB-2019-AFO
2019-08-25 14:04:19 HydeClip-Try_Every_Time-(AHD137)-WEB-2019-AFO
2019-08-25 14:04:22 Kamil_Brandt-RiseandShine-(SUBMISSION141)-SINGLE-WEB-2019-AFO
2019-08-25 14:04:29 Tote.Maedchen.luegen.nicht.S03E07.German.WebRip.x264-AIDA
2019-08-25 14:04:30 Simos_Tagias-Fatalism-(DPM098)-WEB-2019-AFO
2019-08-25 14:04:34 Rezwan_Khan-Remembering-(SCR281)-SINGLE-WEB-2019-AFO
2019-08-25 14:04:36 J_Lannutti-Lacadivas-(AW130)-WEB-2019-AFO
2019-08-25 14:04:44 Tote.Maedchen.luegen.nicht.S03E08.German.DL.1080p.WebHD.x264-AIDA
2019-08-25 14:04:53 Gaston_Ponte-Airport-(LBR224)-WEB-2019-AFO
2019-08-25 14:04:59 Made_Of_Light-Another_Day-(TR122)-WEB-2019-AFO
2019-08-25 14:05:01 Tote.Maedchen.luegen.nicht.S03E08.German.DL.720p.WebHD.x264-AIDA
2019-08-25 14:05:10 Dnial-Escuchame-(BMD008)-WEB-2019-AFO
2019-08-25 14:05:18 Yudi_Watanabe-Storm-(MHR330)-WEB-2019-AFO
2019-08-25 14:05:19 Tote.Maedchen.luegen.nicht.S03E08.German.WebRip.x264-AIDA
2019-08-25 14:05:24 Robert_Nickson_and_Ellie_Lawson-The_Way_That_U_R-(AMSTR290)-WEB-2019-AFO
2019-08-25 14:05:30 Berni_Turletti_and_Matias_Chilano-Alumine-(JBM034)-WEB-2019-AFO
2019-08-25 14:05:36 Tote.Maedchen.luegen.nicht.S03E09.German.DL.1080p.WebHD.x264-AIDA
2019-08-25 14:05:37 Albert_Klein-Air_Horizon-(GDR029)-WEB-2019-AFO
2019-08-25 14:05:43 Beatsole_and_Kimberly_Hale-Only_A_Dream-(RNMR160)-WEB-2019-AFO
2019-08-25 14:05:53 Tote.Maedchen.luegen.nicht.S03E09.German.DL.720p.WebHD.x264-AIDA
2019-08-25 14:05:54 F.G._Noise-Delphi_(XiJaro_and_Pitch_Remix)-(UPLFT027)-WEB-2019-AFO
2019-08-25 14:06:00 SparroX-All_Falls_Down-(CH192)-WEB-2019-AFO
2019-08-25 14:06:09 Tote.Maedchen.luegen.nicht.S03E09.German.WebRip.x264-AIDA
2019-08-25 14:06:14 Trance_Atlantic-Book_Of_The_Dead__Trance_Generator-(ESR380)-WEB-2019-AFO
2019-08-25 14:06:17 Moti_Brothers-Chordy-(ITR133)-WEB-2019-AFO
2019-08-25 14:06:24 Tote.Maedchen.luegen.nicht.S03E10.German.DL.1080p.WebHD.x264-AIDA
2019-08-25 14:06:29 Torrnado_and_Epidemika_and_Odell-Hold_On-(MASANA026)-WEB-2019-AFO
2019-08-25 14:06:34 Cyantist-Nebula-(CLR319)-WEB-2019-AFO
2019-08-25 14:06:51 Paul_Pollux_ft_Nana-Stay_With_Me-(ENTRM159)-WEB-2019-AFO
2019-08-25 14:06:53 Libranine-Mugshots-(SPR272)-WEB-2019-AFO
2019-08-25 14:07:00 Tote.Maedchen.luegen.nicht.S03E10.German.DL.720p.WebHD.x264-AIDA
2019-08-25 14:07:09 Rezwan_Khan-Wish_Upon_a_Star-(ESK072)-SINGLE-WEB-2019-AFO
2019-08-25 14:07:17 Mark_Digital-Eternal_Sun-(ECT121)-WEB-2019-AFO
2019-08-25 14:07:21 Cryptic_Realms-Mirage-(GNSYS076)-WEB-2019-AFO
2019-08-25 14:07:26 Hicky_and_Kalo-Moving_Auras_EP-(PSR020)-WEB-2019-AFO
2019-08-25 14:07:32 Andrey_Plavinskiy-2019-(MIST743)-WEB-2019-AFO
2019-08-25 14:07:44 Richard_Durand-Legends_of_the_Moon-WEB-2019-AFO
2019-08-25 14:07:48 Activa-Tidal-SINGLE-WEB-2019-AFO
2019-08-25 14:07:53 Maezbi-Pangea__Panthalassa-(MGN043)-WEB-2019-AFO
2019-08-25 14:07:57 Francesco_Pico-Bea-(MNL170)-WEB-2019-AFO
2019-08-25 14:08:21 Sahale-Roads_to_Shambhala-(SM014)-WEB-2019-AFO
2019-08-25 14:08:25 Andrew_Lang-All_I_Want__Hypnosis-(PHW365)-WEB-2019-AFO
2019-08-25 14:08:45 Nasser_Tawfik-Sine_Die-(EJU212)-WEB-2019-AFO
2019-08-25 14:08:47 Edvard_Hunger-In_the_Light_of_Darkness-(SOL080)-WEB-2019-AFO
2019-08-25 14:09:05 Perceptual-Blackshape-(D9R041)-WEB-2019-AFO
2019-08-25 14:09:27 Mha_Iri-Movin-(LUM075)-WEB-2019-AFO
2019-08-25 14:09:32 Teologen-Stay_The_Course_(AKA_AKA_Remix)-(DD178)-WEB-2019-AFO
2019-08-25 14:09:35 Aggressive_Act_-_Supreme-(AR005)-WEB-2019-SRG
2019-08-25 14:09:50 Gians-Start_Living_Again-(DYN056)-WEB-2019-AFO
2019-08-25 14:10:06 Nela-Rolling_Truth-(AWEN071)-WEB-2019-AFO
2019-08-25 14:10:20 Andre_Moret-Prospective-(AUD021)-WEB-2019-AFO
2019-08-25 14:10:26 Tote.Maedchen.luegen.nicht.S03E10.German.WebRip.x264-AIDA
2019-08-25 14:10:30 Hakan_Akcan-Melancholy_2019-(EST128)-WEB-2019-AFO
2019-08-25 14:10:59 DJ_Samer-Immortal_Pt._1-(PANG076)-WEB-2019-AFO
2019-08-25 14:11:05 Rafael_Melhem-This_Feeling_EP-(PR2019499)-WEB-2019-AFO
2019-08-25 14:11:22 Va_O.N.E.-Innovatione-(MYC797)-WEB-2019-AFO
2019-08-25 14:11:28 JFR-Infierno_Encantador-(OS018)-SINGLE-WEB-2019-AFO
2019-08-25 14:11:34 Tote.Maedchen.luegen.nicht.S03E11.German.DL.1080p.WebHD.x264-AIDA
2019-08-25 14:11:47 AIO-Melaphorie-(PARQUET202)-WEB-2019-AFO
2019-08-25 14:11:51 Tote.Maedchen.luegen.nicht.S03E11.German.DL.720p.WebHD.x264-AIDA
2019-08-25 14:12:07 Mein.Bester.und.ich.GERMAN.2017.DL.PAL.DVDR-OldsMan
2019-08-25 14:12:08 Tote.Maedchen.luegen.nicht.S03E11.German.WebRip.x264-AIDA
2019-08-25 14:12:20 Tote.Maedchen.luegen.nicht.S03E12.German.DL.1080p.WebHD.x264-AIDA
2019-08-25 14:12:35 Scarlet_Moon-Vision_Remember_Me-(YANA010)-WEB-2019-AFO
2019-08-25 14:12:36 VA-Clinique_Sampler_Pt_203-(CLS203)-WEB-2019-AFO
2019-08-25 14:12:38 Tote.Maedchen.luegen.nicht.S03E12.German.DL.720p.WebHD.x264-AIDA
2019-08-25 14:12:43 Kaspar_Tasane-Desert_Fog__Meridian_Circuits-(276SD)-WEB-2019-AFO
2019-08-25 14:12:49 F-16.S01E01.FLEMISH.1080p.WEB.H264-MERCATOR
2019-08-25 14:12:55 Nygma-From_My_Heart-(RRRNEW047)-WEB-2019-AFO
2019-08-25 14:12:56 Tote.Maedchen.luegen.nicht.S03E12.German.WebRip.x264-AIDA
2019-08-25 14:12:59 Stil_and_Bense-Cheat_Codes-(NYC130)-WEB-2019-AFO
2019-08-25 14:13:04 Paravon-Wave_Of_Freedom-(IE015)-WEB-2019-AFO
2019-08-25 14:13:11 Tote.Maedchen.luegen.nicht.S03E13.German.DL.1080p.WebHD.x264-AIDA
2019-08-25 14:13:13 Bowsie-Kepler-(MIRA129)-WEB-2019-AFO
2019-08-25 14:13:23 Antonello_Coghe_-_Malfunction-(UM_042)-SINGLE-WEB-2019-ZzZz
2019-08-25 14:13:25 Tote.Maedchen.luegen.nicht.S03E13.German.DL.720p.WebHD.x264-AIDA
2019-08-25 14:13:33 NeoTraffic-Jupiter-(3XA386)-WEB-2019-AFO
2019-08-25 14:13:40 Tote.Maedchen.luegen.nicht.S03E13.German.WebRip.x264-AIDA
2019-08-25 14:13:47 Anton_Stelsi-Asteria-(NOIR043)-WEB-2019-AFO
2019-08-25 14:13:49 F-16.S01E01.FLEMISH.720p.WEB.H264-MERCATOR
2019-08-25 14:13:50 Pulsar_and_Liquid_Sound-Liquid_Pulses_Remixes-(RESON8028)-WEB-2019-AFO
2019-08-25 14:13:55 Dave_Blackman-Senses-(MR028)-SINGLE-WEB-2019-AFO
2019-08-25 14:13:57 Sanreys-Summer_Night-(EER606)-WEB-2019-AFO
2019-08-25 14:14:09 Mad-Oblivion_EP-(KTN064)-WEB-2019-AFO
2019-08-25 14:14:12 Aressa-Eternity-(NS078)-WEB-2019-AFO
2019-08-25 14:14:19 Dachs-Fiore_Blu-(PU023)-WEB-2019-AFO
2019-08-25 14:14:20 Iridium_-_Eliminate_EP-(SICKRAGE016)-WEB-2019-SRG
2019-08-25 14:14:29 Diago-Baie_Des_Anges-(4061707198908)-SINGLE-WEB-2019-AFO
2019-08-25 14:14:40 Whiteout-Astragela_(Extended_Mix)-(EA044)-SINGLE-WEB-2019-AFO
2019-08-25 14:15:11 Even_Midnight-Cest_La_Vie_EP-(BML268)-WEB-2019-AFO
2019-08-25 14:15:21 Theya-Exit-(STATICS011)-SINGLE-WEB-2019-AFO
2019-08-25 14:15:27 Science_and_Reason-The_Peter_Street-(3AV162)-WEB-2019-AFO
2019-08-25 14:15:50 VA-Best_Of_AlYf_Recordings_(005)-(ALYF150)-WEB-2019-AFO
2019-08-25 14:18:34 Ogonek_Ft._Angie_-_Embrace_The_Darkness_EP-(SICKRAGE015)-WEB-2019-SRG
2019-08-25 14:18:53 Nae_Tek-Intersubjectivity_(The_Remixes)-(SUPDUB160)-WEB-2019-AFO
2019-08-25 14:19:09 Marc_DePulse-Estrelle_Etepetete-(MTK049)-WEB-2019-AFO
2019-08-25 14:19:31 Pedro_Mercado_and_Karada-The_Genius-(CHROM030)-WEB-2019-AFO
2019-08-25 14:19:35 Gabriel_Batz-Chahal-(ORAR129)-SINGLE-WEB-2019-AFO
2019-08-25 14:19:51 Mondmann-Dream_Sands-(LIN202)-WEB-2019-AFO
2019-08-25 14:20:06 JohnnyV_and_Jason_Orfan_and_Fonsekas_and_MAAND_and_SLP-Vagabond_06_Mykonos-(VAGA06)-WEB-2019-AFO
2019-08-25 14:20:24 Sqalektiq-Seismic_Shift-(EDR078)-WEB-2019-AFO
2019-08-25 14:20:27 Chris_Stoll-Forget_It-(OPAC001)-WEB-2019-AFO
2019-08-25 14:20:47 The.Block.AU.S15E13.720p.HDTV.x264-ORENJI
2019-08-25 14:21:14 The.Block.AU.S15E13.HDTV.x264-FQM
2019-08-25 14:21:28 VA-Progressive_Onrush_III-(SACD007)-WEB-2019-AFO
2019-08-25 14:22:28 Darren_S-Get_Down-SINGLE-WEB-2019-KLIN
2019-08-25 14:23:37 Art_Frequency_-_Existence-(BBD011)-WEB-2019-SRG
2019-08-25 14:24:24 Bundesliga.2019.08.23.FC.Koln.vs.Borussia.Dortmund.720p.WEB.h264-ADMIT
2019-08-25 14:24:46 F-16.S01E02.FLEMISH.1080p.WEB.H264-MERCATOR
2019-08-25 14:25:21 Bundesliga.2019.08.23.FC.Koln.vs.Borussia.Dortmund.WEB.h264-ADMIT
2019-08-25 14:31:36 Up_and_Forward_ft_Eugene_Sender-Believe_In_Yourself-(LEV107)-REPACK-WEB-2019-AFO
2019-08-25 14:32:27 Dragon.Ball.Super.S05E49.DUBBED.1080p.HDTV.x264-CRiMSON
2019-08-25 14:32:31 F-16.S01E02.FLEMISH.720p.WEB.H264-MERCATOR
2019-08-25 14:32:50 Dragon.Ball.Super.S05E49.DUBBED.720p.HDTV.x264-CRiMSON
2019-08-25 14:33:16 Dragon.Ball.Super.S05E49.DUBBED.HDTV.x264-CRiMSON
2019-08-25 14:33:18 72.Stunden.im.Geisterhaus.S04E06.German.Doku.1080p.HDTV.x264-DOKUMANiA
2019-08-25 14:33:41 Live.PD.S03E93.720p.HDTV.x264-CRiMSON
2019-08-25 14:34:04 Live.PD.S03E93.HDTV.x264-CRiMSON
2019-08-25 14:34:09 Erasure-Rock_Me_Gently-CDS-FLAC-1996-AMOK
2019-08-25 14:34:29 72.Stunden.im.Geisterhaus.S04E06.German.Doku.720p.HDTV.x264-DOKUMANiA
2019-08-25 14:34:31 Restaurant.Impossible.S15E05.Saving.a.Familys.Legacy.1080p.HDTV.x264-CRiMSON
2019-08-25 14:35:39 72.Stunden.im.Geisterhaus.S04E06.German.Doku.HDTVRip.x264-DOKUMANiA
2019-08-25 14:36:05 Erasure-Rock_Me_Gently-Czech_Republic_Edition-CDS-FLAC-1996-AMOK
2019-08-25 14:36:47 Borneo.Faszination.Asien.2013.German.DL.Doku.1080p.BluRay.AVC-DOKUMANiA
2019-08-25 14:37:51 Borneo.Faszination.Asien.2013.German.DL.DOKU.1080p.BluRay.x264-DOKUMANiA
2019-08-25 14:39:00 Borneo.Faszination.Asien.2013.German.DL.Doku.2160p.UHD.BluRay.HEVC-DOKUMANiA
2019-08-25 14:39:40 F-16.S01E03.FLEMISH.1080p.WEB.H264-MERCATOR
2019-08-25 14:40:08 Borneo.Faszination.Asien.2013.German.DOKU.720p.BluRay.x264-DOKUMANiA
2019-08-25 14:41:19 Borneo.Faszination.Asien.2013.German.DOKU.BDRip.x264-DOKUMANiA
2019-08-25 14:42:23 Der.dunkle.Diener.Gottes.Die.Verbrechen.des.Tony.Alamo.S01E01.German.DL.DOKU.1080p.HDTV.x264.DiRFiX-DOKUMANiA
2019-08-25 14:43:28 Der.dunkle.Diener.Gottes.Die.Verbrechen.des.Tony.Alamo.S01E01.German.DL.DOKU.720p.HDTV.x264.DiRFiX-DOKUMANiA
2019-08-25 14:44:33 Der.dunkle.Diener.Gottes.Die.Verbrechen.des.Tony.Alamo.S01E01.German.DOKU.HDTVRip.x264.DiRFiX-DOKUMANiA
2019-08-25 14:45:41 Fish.or.Die.Angeltrip.ins.Ungewisse.S01E10.German.Doku.1080p.HDTV.x264-DOKUMANiA
2019-08-25 14:46:49 Fish.or.Die.Angeltrip.ins.Ungewisse.S01E10.German.Doku.720p.HDTV.x264-DOKUMANiA
2019-08-25 14:47:57 Fish.or.Die.Angeltrip.ins.Ungewisse.S01E10.German.Doku.HDTVRip.x264-DOKUMANiA
2019-08-25 14:49:07 Repair.Shop.Kaputt.gibts.nicht.S02E11.German.DOKU.1080p.HDTV.x264-DOKUMANiA
2019-08-25 14:50:14 Repair.Shop.Kaputt.gibts.nicht.S02E11.German.DOKU.720p.HDTV.x264-DOKUMANiA
2019-08-25 14:51:21 Repair.Shop.Kaputt.gibts.nicht.S02E11.German.DOKU.HDTVRip.x264-DOKUMANiA
2019-08-25 14:53:52 F-16.S01E03.FLEMISH.720p.WEB.H264-MERCATOR
2019-08-25 14:55:46 Vorhang.auf.fuer.Cyrano.German.2018.DL.COMPLETE.PAL.DVD9-SAViOUR
2019-08-25 14:56:06 Harry.Potter.and.the.Half-Blood.Prince.NORDiC.SUBPACK.UHD.BluRay-TTD
2019-08-25 15:00:24 45.rpm.S01E01.1080p.WEBRip.X264-PHENOMENAL
2019-08-25 15:01:29 45.rpm.S01E01.WEBRip.X264-PHENOMENAL
2019-08-25 15:01:44 Andrew_Rayel_-_Find_Your_Harmony_169-SAT-08-25-2019-TALiON
2019-08-25 15:01:52 45.rpm.S01E01.720p.WEBRip.X264-PHENOMENAL
2019-08-25 15:02:55 45.rpm.S01E02.1080p.WEBRip.X264-PHENOMENAL
2019-08-25 15:05:21 45.rpm.S01E02.WEBRip.X264-PHENOMENAL
2019-08-25 15:05:46 45.rpm.S01E03.1080p.WEBRip.X264-PHENOMENAL
2019-08-25 15:06:09 Abenteuer.der.Landstrasse.S01E01.Der.Spielteufel.GERMAN.FS.DVDRip.x264-OldsMan
2019-08-25 15:06:15 Promi.Big.Brother.Die.Late.Night.Show.S05E10.GERMAN.HDTVRiP.x264-iNFOTv
2019-08-25 15:06:18 Les.Norton.S01E04.HDTV.x264-W4F
2019-08-25 15:06:40 45.rpm.S01E02.720p.WEBRip.X264-PHENOMENAL
2019-08-25 15:07:08 45.rpm.S01E03.720p.WEBRip.X264-PHENOMENAL
2019-08-25 15:07:12 Promi.Big.Brother.Die.Late.Night.Show.S05E11.GERMAN.HDTVRiP.x264-iNFOTv
2019-08-25 15:07:57 45.rpm.S01E03.WEBRip.X264-PHENOMENAL
2019-08-25 15:08:04 Promi.Big.Brother.Die.Late.Night.Show.S05E13.GERMAN.HDTVRiP.x264-iNFOTv
2019-08-25 15:08:09 Abenteuer.der.Landstrasse.S01E02.Die.Rodeo.Show.GERMAN.FS.DVDRip.x264-OldsMan
2019-08-25 15:08:50 Promi.Big.Brother.Die.Late.Night.Show.S05E14.GERMAN.HDTVRiP.x264-iNFOTv
2019-08-25 15:09:24 45.rpm.S01E04.1080p.WEBRip.X264-PHENOMENAL
2019-08-25 15:09:57 45.rpm.S01E04.720p.WEBRip.X264-PHENOMENAL
2019-08-25 15:10:05 Abenteuer.der.Landstrasse.S01E03.Las.Vegas.GERMAN.FS.DVDRip.x264-OldsMan
2019-08-25 15:10:28 45.rpm.S01E04.WEBRip.X264-PHENOMENAL
2019-08-25 15:10:59 45.rpm.S01E05.1080p.WEBRip.X264-PHENOMENAL
2019-08-25 15:11:49 45.rpm.S01E05.WEBRip.X264-PHENOMENAL
2019-08-25 15:12:06 Abenteuer.der.Landstrasse.S01E04.Heimkehr.GERMAN.FS.DVDRip.x264-OldsMan
2019-08-25 15:12:29 45.rpm.S01E05.720p.WEBRip.X264-PHENOMENAL
2019-08-25 15:13:57 45.rpm.S01E06.1080p.WEBRip.X264-PHENOMENAL
2019-08-25 15:14:10 Abenteuer.der.Landstrasse.S01E05.Das.Kollier.GERMAN.FS.DVDRip.x264-OldsMan
2019-08-25 15:14:51 45.rpm.S01E06.720p.WEBRip.X264-PHENOMENAL
2019-08-25 15:14:58 Manuel_Moreno-Live_at_Fuchs_and_Hase_Festival-SAT-06-21-2019-PTC
2019-08-25 15:15:20 A.D.H.S.-Radio_Butzke-SAT-08-24-2019-PTC
2019-08-25 15:15:23 45.rpm.S01E06.WEBRip.X264-PHENOMENAL
2019-08-25 15:16:07 Abenteuer.der.Landstrasse.S01E06.Der.Oldtimer.GERMAN.FS.DVDRip.x264-OldsMan
2019-08-25 15:16:10 Hover-Radio_Butzke-SAT-08-24-2019-PTC
2019-08-25 15:16:41 45.rpm.S01E07.1080p.WEBRip.X264-PHENOMENAL
2019-08-25 15:17:35 45.rpm.S01E07.720p.WEBRip.X264-PHENOMENAL
2019-08-25 15:18:06 Abenteuer.der.Landstrasse.S01E07.Der.Windhund.GERMAN.FS.DVDRip.x264-OldsMan
2019-08-25 15:18:16 45.rpm.S01E07.WEBRip.X264-PHENOMENAL
2019-08-25 15:19:00 45.rpm.S01E08.1080p.WEBRip.X264-PHENOMENAL
2019-08-25 15:19:59 45.rpm.S01E08.720p.WEBRip.X264-PHENOMENAL
2019-08-25 15:20:23 MotoGP.2019.Great.Britain.Grand.Prix.720p.HDTV.x264-ACES
2019-08-25 15:20:56 45.rpm.S01E08.WEBRip.X264-PHENOMENAL
2019-08-25 15:21:36 Stalingrad.1993.German.1080p.BluRay.x264.iNTERNAL-VideoStar
2019-08-25 15:21:38 45.rpm.S01E09.1080p.WEBRip.X264-PHENOMENAL
2019-08-25 15:21:50 Stalingrad.German.1993.AC3.BDRip.x264.iNTERNAL-VideoStar
2019-08-25 15:22:42 45.rpm.S01E09.WEBRip.X264-PHENOMENAL
2019-08-25 15:23:39 45.rpm.S01E09.720p.WEBRip.X264-PHENOMENAL
2019-08-25 15:23:44 MotoGP.2019.Great.Britain.Grand.Prix.HDTV.x264-ACES
2019-08-25 15:24:47 Sweetbitter.S02E08.FiNAL.FRENCH.WEBRip.x264-BRiNK
2019-08-25 15:25:02 45.rpm.S01E10.WEBRip.X264-PHENOMENAL
2019-08-25 15:25:25 45.rpm.S01E10.1080p.WEBRip.X264-PHENOMENAL
2019-08-25 15:25:27 Sweetbitter.S02E08.FiNAL.FRENCH.720p.WEBRip.x264-BRiNK
2019-08-25 15:26:12 Sweetbitter.S02E08.FiNAL.FRENCH.1080p.WEBRip.x264-BRiNK
2019-08-25 15:26:14 Lowlands.2019.Part02.DUTCH.720p.HDTV.x264-DTOD
2019-08-25 15:26:46 45.rpm.S01E10.720p.WEBRip.X264-PHENOMENAL
2019-08-25 15:28:06 Celebrity.Treasure.Island.2019.S01E02.REPACK.720p.HDTV.x264-FiHTV
2019-08-25 15:28:13 45.rpm.S01E11.1080p.WEBRip.X264-PHENOMENAL
2019-08-25 15:29:01 45.rpm.S01E11.720p.WEBRip.X264-PHENOMENAL
2019-08-25 15:29:53 45.rpm.S01E11.WEBRip.X264-PHENOMENAL
2019-08-25 15:30:20 45.rpm.S01E12.1080p.WEBRip.X264-PHENOMENAL
2019-08-25 15:31:24 45.rpm.S01E12.720p.WEBRip.X264-PHENOMENAL
2019-08-25 15:31:53 Celebrity.Treasure.Island.2019.S01E02.REPACK.HDTV.x264-FiHTV
2019-08-25 15:31:56 The.Spanish.Princess.S01.D1.COMPLETE.BLURAY-DiSRUPTION
2019-08-25 15:31:58 45.rpm.S01E12.WEBRip.X264-PHENOMENAL
2019-08-25 15:32:38 45.rpm.S01E13.1080p.WEBRip.X264-PHENOMENAL
2019-08-25 15:32:42 The.Spanish.Princess.S01.D2.COMPLETE.BLURAY-DiSRUPTION
2019-08-25 15:33:54 F-16.S01E04.FLEMISH.1080p.WEB.H264-MERCATOR
2019-08-25 15:33:56 45.rpm.S01E13.720p.WEBRip.X264-PHENOMENAL
2019-08-25 15:34:44 45.rpm.S01E13.WEBRip.X264-PHENOMENAL
2019-08-25 15:35:28 Les.Norton.S01E04.720p.HDTV.x264-W4F
2019-08-25 15:36:34 F-16.S01E04.FLEMISH.720p.WEB.H264-MERCATOR
2019-08-25 15:37:05 WWE.Main.Event.2019.08.08.720p.WEB.x264-LEViTATE
2019-08-25 15:37:06 Abenteuer.der.Landstrasse.S01E08.Der.Bergrutsch.GERMAN.FS.DVDRip.x264-OldsMan
2019-08-25 15:38:30 WWE.Main.Event.2019.08.08.1080p.WEB.x264-LEViTATE
2019-08-25 15:39:06 Abenteuer.der.Landstrasse.S01E09.Waffenschmuggel.GERMAN.FS.DVDRip.x264-OldsMan
2019-08-25 15:39:53 Celebrity.Treasure.Island.2019.S01E03.REPACK.720p.HDTV.x264-FiHTV
2019-08-25 15:40:26 Access.Password.Get.Pro.v5.2.Read.NFO-PH
2019-08-25 15:41:07 Abenteuer.der.Landstrasse.S01E10.Die.Taetowierung.GERMAN.FS.DVDRip.x264-OldsMan
2019-08-25 15:41:08 WWE.Main.Event.2019.08.08.WEB.x264-LEViTATE
2019-08-25 15:41:17 The_Custodian_Of_Records-Nothing_But_The_Loops-WEB-2019-hbZ
2019-08-25 15:41:45 Fussball.1.Bundesliga.2019-2020.2.Spieltag.FSV.Mainz.05.vs.Borussia.Mgladbach.GERMAN.1080p.HDTV.x264-SKYHD
2019-08-25 15:43:06 Abenteuer.der.Landstrasse.S01E11.Die.Entfuehrung.GERMAN.FS.DVDRip.x264-OldsMan
2019-08-25 15:43:22 Celebrity.Treasure.Island.2019.S01E03.REPACK.HDTV.x264-FiHTV
2019-08-25 15:45:03 Fussball.1.Bundesliga.2019-2020.2.Spieltag.FSV.Mainz.05.vs.Borussia.Mgladbach.GERMAN.720p.HDTV.x264-SKYHD
2019-08-25 15:45:24 Abenteuer.der.Landstrasse.S01E12.Zwei.Frauen.zuviel.GERMAN.FS.DVDRip.x264-OldsMan
2019-08-25 15:46:46 Fussball.1.Bundesliga.2019-2020.2.Spieltag.FSV.Mainz.05.vs.Borussia.Mgladbach.GERMAN.HDTVRiP.x264-SKYHD
2019-08-25 15:47:11 Abenteuer.der.Landstrasse.S01E13.Hochzeitsglocken.GERMAN.FS.DVDRip.x264-OldsMan
2019-08-25 15:49:32 F-16.S01E05.FLEMISH.1080p.WEB.H264-MERCATOR
2019-08-25 15:50:33 Fussball.1.Bundesliga.2019-2020.2.Spieltag.Samstags.Konferenz.GERMAN.1080p.HDTV.x264-SKYHD
2019-08-25 15:51:36 F-16.S01E05.FLEMISH.720p.WEB.H264-MERCATOR
2019-08-25 15:52:06 Live.PD.Police.Patrol.S01E19.GERMAN.1080p.HDTV.x264-REQiT
2019-08-25 15:52:22 Francois_X-Live_at_Wildeburg_Festival-SAT-07-12-2019-PTC
2019-08-25 15:52:36 The.Block.NZ.S08E40.720p.HDTV.x264-FiHTV
2019-08-25 15:52:56 Foreign.Correspondent.S28E15.Ukraine-Motherland.1080p.HDTV.H264-CBFM
2019-08-25 15:52:59 Live.PD.Police.Patrol.S01E19.GERMAN.720p.HDTV.x264-REQiT
2019-08-25 15:53:04 Foreign.Correspondent.S28E15.Ukraine-Motherland.720p.HDTV.x264-CBFM
2019-08-25 15:53:32 Fussball.1.Bundesliga.2019-2020.2.Spieltag.Samstags.Konferenz.GERMAN.720p.HDTV.x264-SKYHD
2019-08-25 15:53:41 Live.PD.Police.Patrol.S01E19.GERMAN.HDTV.x264-REQiT
2019-08-25 15:54:44 Live.PD.Police.Patrol.S01E21.GERMAN.1080p.HDTV.x264-REQiT
2019-08-25 15:55:10 Fussball.1.Bundesliga.2019-2020.2.Spieltag.Samstags.Konferenz.GERMAN.HDTVRiP.x264-SKYHD
2019-08-25 15:55:25 Live.PD.Police.Patrol.S01E21.GERMAN.720p.HDTV.x264-REQiT
2019-08-25 15:55:38 The.Block.NZ.S08E40.HDTV.x264-FiHTV
2019-08-25 15:55:47 Live.PD.Police.Patrol.S01E21.GERMAN.HDTV.x264-REQiT
2019-08-25 15:57:32 Fussball.3.Bundesliga.2019-2020.6.Spieltag.SV.Meppen.vs.FC.Carl.Zeiss.Jena.GERMAN.720p.WebRiP.x264-SKYHD
2019-08-25 15:57:33 Survivor.AU.S06E15.WEB.H264-LiNKLE
2019-08-25 15:59:18 Fussball.3.Bundesliga.2019-2020.6.Spieltag.SV.Meppen.vs.FC.Carl.Zeiss.Jena.GERMAN.WebRiP.x264-SKYHD
2019-08-25 16:01:56 Gabriel_Moraes_and_Nineteen_Sines-Elements_EP-(JM132)-WEB-2019-AFO
2019-08-25 16:01:59 Lowlands.2019.Part02.DUTCH.1080p.HDTV.x264-DTOD
2019-08-25 16:02:04 Promi.Big.Brother.Die.Late.Night.Show.S05E15.GERMAN.HDTVRiP.x264-iNFOTv
2019-08-25 16:03:37 Juan_Soul-Mtna-WEB-2019-KLIN
2019-08-25 16:04:25 Beruf.Koenigin.E01.Letizia.von.Spanien.GERMAN.DOKU.720p.HDTV.x264-BTVG
2019-08-25 16:05:26 Beruf.Koenigin.E01.Letizia.von.Spanien.GERMAN.DOKU.HDTVRiP.x264-BTVG
2019-08-25 16:06:27 Charles.Manson.-.Sektenfuehrer.und.Massenmoerder.GERMAN.DOKU.720p.HDTV.x264-BTVG
2019-08-25 16:07:27 Charles.Manson.-.Sektenfuehrer.und.Massenmoerder.GERMAN.DOKU.HDTVRiP.x264-BTVG
2019-08-25 16:10:29 Celebrity.Treasure.Island.2019.S01E04.720p.HDTV.x264-FiHTV
2019-08-25 16:11:06 Dungeons.of.Legend.Cast.Within.Plus.9.TRAiNER-DARKSiDERS
2019-08-25 16:14:09 Celebrity.Treasure.Island.2019.S01E04.HDTV.x264-FiHTV
2019-08-25 16:16:52 Furze.World.Wonders.S01E01.720p.WEBRip.x264-iNSPiRiT
2019-08-25 16:17:58 Furze.World.Wonders.S01E02.720p.WEBRip.x264-iNSPiRiT
2019-08-25 16:19:02 Furze.World.Wonders.S01E03.720p.WEBRip.x264-iNSPiRiT
2019-08-25 16:20:05 Furze.World.Wonders.S01E04.720p.WEBRip.x264-iNSPiRiT
2019-08-25 16:21:09 Furze.World.Wonders.S01E05.720p.WEBRip.x264-iNSPiRiT
2019-08-25 16:22:16 Furze.World.Wonders.S01E06.720p.WEBRip.x264-iNSPiRiT
2019-08-25 16:23:14 Les.Norton.S01E04.1080p.HDTV.H264-CBFM
2019-08-25 16:23:20 Furze.World.Wonders.S01E07.720p.WEBRip.x264-iNSPiRiT
2019-08-25 16:24:23 Furze.World.Wonders.S01E08.720p.WEBRip.x264-iNSPiRiT
2019-08-25 16:25:29 Furze.World.Wonders.S01E09.720p.WEBRip.x264-iNSPiRiT
2019-08-25 16:26:34 Furze.World.Wonders.S01E10.720p.WEBRip.x264-iNSPiRiT
2019-08-25 16:28:03 Furze.World.Wonders.S01E01.1080p.WEBRip.x264-iNSPiRiT
2019-08-25 16:29:08 Furze.World.Wonders.S01E02.1080p.WEBRip.x264-iNSPiRiT
2019-08-25 16:30:12 Furze.World.Wonders.S01E03.1080p.WEBRip.x264-iNSPiRiT
2019-08-25 16:31:17 Furze.World.Wonders.S01E04.1080p.WEBRip.x264-iNSPiRiT
2019-08-25 16:31:44 DJ_Octopuz_-_Midnight_In_Bagdad-(AR00104WR)-SINGLE-WEB-2019-ZzZz
2019-08-25 16:32:25 Furze.World.Wonders.S01E05.1080p.WEBRip.x264-iNSPiRiT
2019-08-25 16:33:30 Furze.World.Wonders.S01E06.1080p.WEBRip.x264-iNSPiRiT
2019-08-25 16:34:31 MotoGP.2019.Great.Britain.Grand.Prix.1080p.HDTV.x264-ACES
2019-08-25 16:34:35 Furze.World.Wonders.S01E07.1080p.WEBRip.x264-iNSPiRiT
2019-08-25 16:35:17 Iron_Rodd_-_Yde_(Technical_Mix)-(PR041)-SINGLE-WEB-2019-ZzZz
2019-08-25 16:35:41 Furze.World.Wonders.S01E08.1080p.WEBRip.x264-iNSPiRiT
2019-08-25 16:36:48 Furze.World.Wonders.S01E09.1080p.WEBRip.x264-iNSPiRiT
2019-08-25 16:37:52 Furze.World.Wonders.S01E10.1080p.WEBRip.x264-iNSPiRiT
2019-08-25 16:39:17 Furze.World.Wonders.S01E01.2160p.WEBRip.x264-iNSPiRiT
2019-08-25 16:40:21 Furze.World.Wonders.S01E02.2160p.WEBRip.x264-iNSPiRiT
2019-08-25 16:40:34 Prima-Anywhere-SINGLE-WEB-2019-KLIN
2019-08-25 16:40:36 Striptease.German.1996.DL.BDRiP.x264.iNTERNAL-NGE
2019-08-25 16:41:01 Naka.no.Hito.Genome.Jikkyouchuu.E08.SUBFRENCH.1080p.WEB.x264-AMB3R
2019-08-25 16:41:26 Furze.World.Wonders.S01E03.2160p.WEBRip.x264-iNSPiRiT
2019-08-25 16:41:57 Mijangos_-_Somos_Latinos-(HTR209)-SINGLE-WEB-SP-2019-ZzZz
2019-08-25 16:42:31 Furze.World.Wonders.S01E04.2160p.WEBRip.x264-iNSPiRiT
2019-08-25 16:43:35 Furze.World.Wonders.S01E05.2160p.WEBRip.x264-iNSPiRiT
2019-08-25 16:44:41 Furze.World.Wonders.S01E06.2160p.WEBRip.x264-iNSPiRiT
2019-08-25 16:45:45 Furze.World.Wonders.S01E07.2160p.WEBRip.x264-iNSPiRiT
2019-08-25 16:46:49 Furze.World.Wonders.S01E08.2160p.WEBRip.x264-iNSPiRiT
2019-08-25 16:47:47 Jason_Little_Vs._Withecker_-_Nobody_Listen_To_Techno-WEB-2019-SRG
2019-08-25 16:47:55 Furze.World.Wonders.S01E09.2160p.WEBRip.x264-iNSPiRiT
2019-08-25 16:48:03 Luckes_-_Vision_EP-(CSDIG041)-WEB-2019-SRG
2019-08-25 16:48:33 Marco_Avitabile_-_Velo_Que_Bonito-(Switch_Lab_031)-WEB-SP-2019-ZzZz
2019-08-25 16:48:58 Furze.World.Wonders.S01E10.2160p.WEBRip.x264-iNSPiRiT
2019-08-25 16:53:20 Riverdale.S03E01.BDRip.x264-PHASE
2019-08-25 16:53:47 The.Laws.of.Thermodynamics.NORDiC.SUBPACK.BluRay-REQ
2019-08-25 16:53:53 Riverdale.S03E02.BDRip.x264-PHASE
2019-08-25 16:54:05 Riverdale.S03E03.BDRip.x264-PHASE
2019-08-25 16:54:18 Sandra_N-Chameleon-SINGLE-WEB-2019-KLIN
2019-08-25 16:54:25 Riverdale.S03E04.BDRip.x264-PHASE
2019-08-25 16:54:50 Chris_Bates_-_Jumping_Love-(NR004X)-WEB-2008-ZzZz
2019-08-25 16:55:08 Riverdale.S03E05.BDRip.x264-PHASE
2019-08-25 16:55:27 Riverdale.S03E06.BDRip.x264-PHASE
2019-08-25 16:56:01 Riverdale.S03E07.BDRip.x264-PHASE
2019-08-25 16:56:21 Riverdale.S03E08.BDRip.x264-PHASE
2019-08-25 16:56:34 Riverdale.S03E09.BDRip.x264-PHASE
2019-08-25 16:56:50 Riverdale.S03E10.BDRip.x264-PHASE
2019-08-25 16:57:13 Riverdale.S03E11.BDRip.x264-PHASE
2019-08-25 16:57:27 Riverdale.S03E12.BDRip.x264-PHASE
2019-08-25 16:57:42 Riverdale.S03E13.BDRip.x264-PHASE
2019-08-25 16:57:58 Riverdale.S03E14.BDRip.x264-PHASE
2019-08-25 16:58:36 Riverdale.S03E15.BDRip.x264-PHASE
2019-08-25 16:59:00 Riverdale.S03E16.BDRip.x264-PHASE
2019-08-25 16:59:12 Riverdale.S03E17.BDRip.x264-PHASE
2019-08-25 16:59:30 Riverdale.S03E18.BDRip.x264-PHASE
2019-08-25 16:59:53 Riverdale.S03E19.BDRip.x264-PHASE
2019-08-25 17:00:15 Riverdale.S03E20.BDRip.x264-PHASE
2019-08-25 17:00:24 HaneWin.NFS.Server.v1.2.40.German.WinALL.Incl.Keygen-BLiZZARD
2019-08-25 17:00:26 Dirty_Boyz_-_Lick_Me-(NR002X)-WEB-2007-ZzZz
2019-08-25 17:00:39 Riverdale.S03E21.BDRip.x264-PHASE
2019-08-25 17:01:07 Riverdale.S03E22.BDRip.x264-PHASE
2019-08-25 17:01:32 WorkTracer.v5.6.WinALL.Regged-BLiZZARD
2019-08-25 17:02:28 Bigasoft.Video.Downloader.Pro.v3.17.7.7162.Incl.Keymaker-BLiZZARD
2019-08-25 17:04:10 Glitch.S03E01.1080p.HDTV.H264-CBFM
2019-08-25 17:05:37 13.Reasons.Why.S03E01.WEBRip.x264-iNSPiRiT
2019-08-25 17:05:56 13.Reasons.Why.S03E02.WEBRip.x264-iNSPiRiT
2019-08-25 17:06:08 ATKGalleria.19.08.24.Kyler.Quinn.Toys.XXX.1080p.MP4-KTR
2019-08-25 17:06:14 13.Reasons.Why.S03E03.WEBRip.x264-iNSPiRiT
2019-08-25 17:06:33 13.Reasons.Why.S03E04.WEBRip.x264-iNSPiRiT
2019-08-25 17:06:53 13.Reasons.Why.S03E05.WEBRip.x264-iNSPiRiT
2019-08-25 17:07:11 13.Reasons.Why.S03E06.WEBRip.x264-iNSPiRiT
2019-08-25 17:07:31 13.Reasons.Why.S03E07.WEBRip.x264-iNSPiRiT
2019-08-25 17:07:51 13.Reasons.Why.S03E08.WEBRip.x264-iNSPiRiT
2019-08-25 17:08:11 13.Reasons.Why.S03E09.WEBRip.x264-iNSPiRiT
2019-08-25 17:08:29 13.Reasons.Why.S03E10.WEBRip.x264-iNSPiRiT
2019-08-25 17:08:51 13.Reasons.Why.S03E11.WEBRip.x264-iNSPiRiT
2019-08-25 17:09:11 13.Reasons.Why.S03E12.WEBRip.x264-iNSPiRiT
2019-08-25 17:09:32 13.Reasons.Why.S03E13.WEBRip.x264-iNSPiRiT
2019-08-25 17:09:47 Furze.World.Wonders.S01E01.WEBRip.x264-iNSPiRiT
2019-08-25 17:10:11 Furze.World.Wonders.S01E10.WEBRip.x264-iNSPiRiT
2019-08-25 17:10:50 Furze.World.Wonders.S01E01.iNTERNAL.2160p.WEB.VP9-iNSPiRiT
2019-08-25 17:11:56 Furze.World.Wonders.S01E02.iNTERNAL.2160p.WEB.VP9-iNSPiRiT
2019-08-25 17:13:02 Furze.World.Wonders.S01E03.iNTERNAL.2160p.WEB.VP9-iNSPiRiT
2019-08-25 17:14:07 Furze.World.Wonders.S01E04.iNTERNAL.2160p.WEB.VP9-iNSPiRiT
2019-08-25 17:14:35 Miss_N-Traxx_and_Crystal_Age_-_I_Get_Loud-(NR001X)-WEB-2007-ZzZz_iNT
2019-08-25 17:15:13 Furze.World.Wonders.S01E05.iNTERNAL.2160p.WEB.VP9-iNSPiRiT
2019-08-25 17:16:19 Furze.World.Wonders.S01E06.iNTERNAL.2160p.WEB.VP9-iNSPiRiT
2019-08-25 17:17:26 Furze.World.Wonders.S01E07.iNTERNAL.2160p.WEB.VP9-iNSPiRiT
2019-08-25 17:18:31 Furze.World.Wonders.S01E08.iNTERNAL.2160p.WEB.VP9-iNSPiRiT
2019-08-25 17:18:38 ARTE.Reportage.Algerie.Le.Reveil.De.La.Jeunesse.-.Liberia.La.Vie.Apres.Ebola.2019.DOC.FRENCH.720p.WEB.h264-LaoZi
2019-08-25 17:19:05 ARTE.Reportage.Espagne.Vox.Le.Retour.De.L.Extreme.Droite.-.Cambodge.A.L.Ecole.Du.Rebut.2019.DOC.FRENCH.720p.WEB.h264-LaoZi
2019-08-25 17:19:34 ARTE.Reportage.Inde.Cachemire.Les.Visages.De.La.Colere.-.Irak.Le.Jeu.Trouble.Des.Milices.2019.DOC.FRENCH.720p.WEB.h264-LaoZi
2019-08-25 17:19:36 Furze.World.Wonders.S01E09.iNTERNAL.2160p.WEB.VP9-iNSPiRiT
2019-08-25 17:20:01 ARTE.Reportage.Israel.Pauvres.Vieux.-.Cap.Vert.Voleuses.De.Sable.2019.DOC.FRENCH.720p.WEB.h264-LaoZi
2019-08-25 17:20:43 Furze.World.Wonders.S01E10.iNTERNAL.2160p.WEB.VP9-iNSPiRiT
2019-08-25 17:23:31 JacquieEtMichelTV.19.08.25.Country.Map.For.Isabelle.FRENCH.XXX.1080p.MP4-TRASHBIN
2019-08-25 17:24:32 D-Mark.Einheit.Vaterland.Das.schwierige.Erbe.der.Treuhand.GERMAN.DOKU.720p.HDTV.x264-BTVG
2019-08-25 17:24:35 JacquieEtMichelTV.19.08.25.Megane.20.Years.Old.Student.FRENCH.XXX.1080p.MP4-TRASHBIN
2019-08-25 17:25:33 D-Mark.Einheit.Vaterland.Das.schwierige.Erbe.der.Treuhand.GERMAN.DOKU.HDTVRiP.x264-BTVG
2019-08-25 17:27:41 Ruben_de_Ronde_-_The_Sound_of_Holland_404-SAT-08-25-2019-TALiON
2019-08-25 17:28:18 Pompanick_-_Fucking_Sound-(NR003X)-WEB-2008-ZzZz_iNT
2019-08-25 17:30:21 BoobDay.19.08.23.Jasmine.Jae.REMASTERED.XXX.1080p.MP4-KTR
2019-08-25 17:32:36 POV.19.08.25.Tina.Kay.REMASTERED.XXX.1080p.MP4-KTR
2019-08-25 17:34:53 House.S03E23.SPANiSH.BDRip.x264-FERiCE
2019-08-25 17:35:13 House.S03E23.SPANiSH.MULTi.720p.BluRay.x264-FERiCE
2019-08-25 17:35:36 House.S03E23.SPANiSH.MULTi.1080p.BluRay.x264-FERiCE
2019-08-25 17:36:09 Glitch.S03E01.720p.HDTV.x264-CBFM
2019-08-25 17:36:12 House.S03E24.SPANiSH.BDRip.x264-FERiCE
2019-08-25 17:36:33 House.S03E24.SPANiSH.MULTi.720p.BluRay.x264-FERiCE
2019-08-25 17:36:57 House.S03E24.SPANiSH.MULTi.1080p.BluRay.x264-FERiCE
2019-08-25 17:38:46 All.Together.Now.Danmark.S02E01.DANiSH.720p.WEB.x264-DANES
2019-08-25 17:38:59 Furze.World.Wonders.S01E02.WEBRip.x264-iNSPiRiT
2019-08-25 17:39:11 Furze.World.Wonders.S01E03.WEBRip.x264-iNSPiRiT
2019-08-25 17:39:25 Dana_Williams-Do_No_Harm-SINGLE-WEB-2019-KLIN
2019-08-25 17:39:28 Furze.World.Wonders.S01E04.WEBRip.x264-iNSPiRiT
2019-08-25 17:39:38 Furze.World.Wonders.S01E05.WEBRip.x264-iNSPiRiT
2019-08-25 17:41:41 Furze.World.Wonders.S01E06.WEBRip.x264-iNSPiRiT
2019-08-25 17:41:52 Furze.World.Wonders.S01E07.WEBRip.x264-iNSPiRiT
2019-08-25 17:42:05 Furze.World.Wonders.S01E08.WEBRip.x264-iNSPiRiT
2019-08-25 17:42:16 Furze.World.Wonders.S01E09.WEBRip.x264-iNSPiRiT
2019-08-25 17:43:23 Peppermint.2018.NORDiC.SUBPACK.BluRay-REQ
2019-08-25 17:43:42 All.Together.Now.Danmark.S02E01.DANiSH.1080p.WEB.x264-DANES
2019-08-25 17:45:54 Moto3.2019.Great.Britain.iNTERNAL.WEB.x264-VERUM
2019-08-25 17:46:12 Spectral_Voice-Tour_Promo_MMXVIII-TAPE-2018-BELLUM
2019-08-25 17:47:45 Curse_Upon_A_Prayer-The_Three_Woes-CD-FLAC-2018-BELLUM
2019-08-25 17:48:04 Moto3.2019.Great.Britain.iNTERNAL.720p.WEB.x264-VERUM
2019-08-25 17:48:06 Embrace_Of_Disharmony-De_Rervm_Natvra-CD-FLAC-2019-BELLUM
2019-08-25 17:48:07 Kid_Buu-Sauce-SINGLE-WEB-2019-KLIN
2019-08-25 17:48:48 Genfaerd-Genfaerd-CD-FLAC-2015-BELLUM
2019-08-25 17:49:00 Grevlar-Levitating_Phosphorescent_Orbs-CD-FLAC-2018-BELLUM
2019-08-25 17:49:08 Small_Town_Artillery-Dont_Talk_Away_the_Magic-CD-FLAC-2018-MUNDANE
2019-08-25 17:49:10 Kull-Exile-CD-FLAC-2019-BELLUM
2019-08-25 17:49:47 Small_Town_Artillery-Dont_Talk_Away_the_Magic-2018-VULGAR
2019-08-25 17:51:08 Lil_Lano-Fische-SINGLE-WEB-2019-KLIN
2019-08-25 17:51:10 Soran-Soran-CDEP-FLAC-2018-MUNDANE
2019-08-25 17:51:20 Moto3.2019.Great.Britain.1080p.WEB.x264-VERUM
2019-08-25 17:52:14 Soran-Soran-EP-2018-VULGAR
2019-08-25 17:52:15 CopyCat.Killers.S04E19.American.Horror.Story.WEB.x264-UNDERBELLY
2019-08-25 17:53:20 CopyCat.Killers.S04E19.American.Horror.Story.720p.WEB.x264-UNDERBELLY
2019-08-25 17:53:49 MotoGP.2019.Great.Britain.iNTERNAL.WEB.x264-VERUM
2019-08-25 17:54:20 Polona.Ga.Zge.S02E03.MI2.SI.HDTV.x264-RADiOACTiVE
2019-08-25 17:54:21 Polona.Ga.Zge.S02E03.MI2.SI.720p.HDTV.x264-RADiOACTiVE
2019-08-25 17:54:22 Polona.Ga.Zge.S02E03.MI2.SI.1080p.HDTV.H264-RADiOACTiVE
2019-08-25 17:54:31 CopyCat.Killers.S04E19.American.Horror.Story.1080p.WEB.x264-UNDERBELLY
2019-08-25 17:56:16 MotoGP.2019.Great.Britain.iNTERNAL.720p.WEB.x264-VERUM
2019-08-25 17:58:34 Tessa-Okay-SINGLE-WEB-2019-KLIN
2019-08-25 17:59:58 MotoGP.2019.Great.Britain.iNTERNAL.1080p.WEB.x264-VERUM
2019-08-25 18:02:35 Moto2.2019.Great.Britain.WEB.x264-VERUM
2019-08-25 18:04:36 Moto2.2019.Great.Britain.720p.WEB.x264-VERUM
2019-08-25 18:06:08 Brasstracks-Professional-SINGLE-WEB-2019-KLIN
2019-08-25 18:06:47 All.Together.Now.Danmark.S02E01.DIRFIX.DANISH.1080p.WEB.x264-FFD
2019-08-25 18:06:57 All.Together.Now.Danmark.S02E02.DIRFIX.DANISH.1080p.WEB.x264-FFD
2019-08-25 18:07:14 All.Together.Now.Danmark.S02E02.DIRFIX.DANISH.720p.WEB.x264-FFD
2019-08-25 18:08:15 Moto2.2019.Great.Britain.1080p.WEB.x264-VERUM
2019-08-25 18:08:35 RodneyMoore.19.08.15.Marsha.Thick.Big.Boob.Love.XXX.1080p.MP4-KTR
2019-08-25 18:09:15 Moto3.2019.Great.Britain.Warming.Up.WEB.x264-VERUM
2019-08-25 18:09:48 RodneyMoore.19.08.21.Daya.Layne.Pre-Flight.Goo.For.Two.XXX.1080p.MP4-KTR
2019-08-25 18:10:14 Moto3.2019.Great.Britain.Warming.Up.720p.WEB.x264-VERUM
2019-08-25 18:11:23 RodneyMoore.19.08.22.Mandy.Majestic.Award.Winners.XXX.1080p.MP4-KTR
2019-08-25 18:12:03 Moto3.2019.Great.Britain.Warming.Up.1080p.WEB.x264-VERUM
2019-08-25 18:13:05 MotoGP.2019.Great.Britain.Warming.Up.WEB.x264-VERUM
2019-08-25 18:13:29 RodneyMoore.19.08.23.Cindy.Valentine.I.Know.You.Cant.Resist.XXX.1080p.MP4-KTR
2019-08-25 18:13:40 Khepri-Drive_Through_My_Mind-SINGLE-WEB-2019-KLIN
2019-08-25 18:13:57 MotoGP.2019.Great.Britain.Warming.Up.720p.WEB.x264-VERUM
2019-08-25 18:15:11 SweetyX.E60.Elin.Flame.And.Mia.Bandini.Ass.In.Fire.XXX.1080p.MP4-KTR
2019-08-25 18:15:31 MotoGP.2019.Great.Britain.Warming.Up.1080p.WEB.x264-VERUM
2019-08-25 18:15:59 Athena-Altust-TR-CD-FLAC-2014-mwndX
2019-08-25 18:16:29 Moto2.2019.Great.Britain.Warming.Up.WEB.x264-VERUM
2019-08-25 18:17:00 Sperma-Studio.19.08.22.Phoenix.Madina.Take.2.XXX.1080p.MP4-KTR
2019-08-25 18:17:19 Moto2.2019.Great.Britain.Warming.Up.720p.WEB.x264-VERUM
2019-08-25 18:18:23 Atomic_Swing-Walking_My_Devil-CDEP-FLAC-1997-mwndX
2019-08-25 18:18:43 Moto2.2019.Great.Britain.Warming.Up.1080p.WEB.x264-VERUM
2019-08-25 18:18:45 Cool_Sheiks-Cool_Sheiks-CD-FLAC-1991-mwndX
2019-08-25 18:19:05 DWNSTRS-DWNSTRS-CD-FLAC-2009-mwndX
2019-08-25 18:19:27 Hybrid_Children-Bleed_Baby_Bleed-CD-FLAC-1993-mwndX
2019-08-25 18:19:50 Hybrid_Children-Stardom_Is_Here-CD-FLAC-1999-mwndX
2019-08-25 18:20:06 HollandschePassie.19.08.23.Chelsea.DUTCH.XXX.1080p.MP4-KTR
2019-08-25 18:20:12 James_Puhto-Ren-Start_Of_The_Road-FI-EP-FLAC-1990-mwndX
2019-08-25 18:20:32 Orgy-Punk_Statik_Paranoia-CD-FLAC-2004-mwndX
2019-08-25 18:20:53 Radical_Kick-Satsa_Pa_Dej_Sjalv-SE-EP-FLAC-1981-mwndX
2019-08-25 18:21:14 Rebelution-Courage_To_Grow-CD-FLAC-2009-mwndX
2019-08-25 18:21:20 Snk-Kogda_My_Letaem-SINGLE-WEB-2019-KLIN
2019-08-25 18:21:41 Shameless_Voice-Slipping-EP-FLAC-1993-mwndX
2019-08-25 18:21:42 Chicago.Fire.S07E01.FRENCH.720p.HDTV.x264-HuSSLe
2019-08-25 18:22:00 Them_Bird_Things-Wildlike_Wonder-CD-FLAC-2010-mwndX
2019-08-25 18:22:24 The_Beetle_Crushers-Flick_Knife_Jive-EP-FLAC-2001-mwndX
2019-08-25 18:22:41 Duru_Tha_King-Angelic-SINGLE-WEB-2019-KLIN
2019-08-25 18:22:45 The_Lost_Underpants_Of_Paradise-Demonstration-CDEP-FLAC-1998-mwndX
2019-08-25 18:23:04 The_Marshall_Tucker_Band-Fire_On_The_Mountain-CD-FLAC-1999-mwndX
2019-08-25 18:23:31 The_Proclaimers-Im_Gonna_Be_(500_Miles)-EP-FLAC-1988-mwndX
2019-08-25 18:23:49 The_Spirit-The_Spirit-EP-FLAC-1989-mwndX
2019-08-25 18:23:54 Murder.on.CCTV.S05E13.Happy.Birthday.to.Drew.WEB.x264-UNDERBELLY
2019-08-25 18:24:09 VA-Punk-CD-FLAC-1991-mwndX
2019-08-25 18:24:31 Kannan-Sorry-SINGLE-WEB-2019-KLIN
2019-08-25 18:24:36 Wasted-Heroes_Amongst_Thieves-CD-FLAC-2004-mwndX
2019-08-25 18:24:59 Murder.on.CCTV.S05E13.Happy.Birthday.to.Drew.720p.WEB.x264-UNDERBELLY
2019-08-25 18:25:47 Egen_Billnas-Uskokaa_Itteenne-Discon_Ainoa_Rehellinen_Katse-FI-EP-FLAC-1980-mwndX
2019-08-25 18:26:06 Murder.on.CCTV.S05E13.Happy.Birthday.to.Drew.1080p.WEB.x264-UNDERBELLY
2019-08-25 18:26:07 James_Puhto-Ren-Suvas_Albumi-FI-CD-FLAC-2010-mwndX
2019-08-25 18:26:27 James_Puhto-Ren-Two_For_The_Road-FI-CDS-FLAC-1997-mwndX
2019-08-25 18:26:35 FinishHim.19.08.22.Anna.Mae.And.Kristy.May.XXX.1080p.MP4-KTR
2019-08-25 18:26:43 Keinuva_Lahna-Runosielu-FI-MCD-FLAC-1993-mwndX
2019-08-25 18:27:08 Psychoplasma-Until_We_Meet_Again-FI-2CD-FLAC-2001-mwndX
2019-08-25 18:27:22 MYLKED.19.08.21.Jillian.Janson.XXX.1080p.MP4-KTR
2019-08-25 18:27:47 Radiopuhelimet-Maasateilya-FI-CD-FLAC-1995-mwndX
2019-08-25 18:28:17 TeasePOV.19.08.21.Karina.Kaif.XXX.1080p.MP4-KTR
2019-08-25 18:28:44 Lord_Roka-Wavy-SINGLE-WEB-2019-KLIN
2019-08-25 18:30:53 OrgasmAbuse.19.08.23.Naomi.Cums.Again.XXX.1080p.MP4-KTR
2019-08-25 18:31:59 Traffic.Die.Macht.des.Kartells.S01E01.GERMAN.DL.1080P.WEB.H264-WAYNE
2019-08-25 18:32:45 MelenaMariaRya.19.08.25.Riding.You.And.Cumming.For.You.XXX.1080p.MP4-KTR
2019-08-25 18:32:47 Traffic.Die.Macht.des.Kartells.S01E01.GERMAN.DL.720P.WEB.H264-WAYNE
2019-08-25 18:33:36 Traffic.Die.Macht.des.Kartells.S01E02.GERMAN.DL.720P.WEB.H264-WAYNE
2019-08-25 18:34:26 Traffic.Die.Macht.des.Kartells.S01E03.GERMAN.DL.720P.WEB.H264-WAYNE
2019-08-25 18:34:41 MelenaMariaRya.19.08.25.Riding.You.And.Cumming.For.You.XXX.2160p.MP4-KTR
2019-08-25 18:35:08 Traffic.Die.Macht.des.Kartells.S01E02.GERMAN.DL.1080P.WEB.H264-WAYNE
2019-08-25 18:35:56 Traffic.Die.Macht.des.Kartells.S01E03.GERMAN.DL.1080P.WEB.H264-WAYNE
2019-08-25 18:36:03 FamilyHookups.E85.Sarah.Vandella.And.Danni.Rivers.XXX.1080p.MP4-KTR
2019-08-25 18:36:56 KinkySpa.E52.Cali.Carter.XXX.1080p.MP4-KTR
2019-08-25 18:38:02 SheWillCheat.E86.Audrey.Noir.XXX.1080p.MP4-KTR
2019-08-25 18:38:26 Coco_Montoya-Coming_In_Hot-WEB-2019-ENRiCH
2019-08-25 18:39:30 Apache_207-Roller-SINGLE-WEB-2019-KLIN
2019-08-25 18:40:26 Gamma.Racing.Day.2019.DUTCH.720p.HDTV.x264-DTOD
2019-08-25 18:41:58 LANewGirl.19.08.22.Katra.Collins.BTS.XXX.720p.MP4-KTR
2019-08-25 18:42:33 Chicago.Fire.S07E01.FRENCH.HDTV.x264-AMB3R
2019-08-25 18:43:45 Sikker.Og.Soen.S02E11.DANISH.720p.WEB.h264-LSDK
2019-08-25 18:45:11 LANewGirl.19.08.23.Katra.Collins.Naked.Closeup.XXX.2160p.MP4-KTR
2019-08-25 18:45:14 General_Fly-Stepping_Stones-SINGLE-WEB-2019-KLIN
2019-08-25 18:45:27 Sikker.Og.Soen.S02E12.DANISH.720p.WEB.h264-LSDK
2019-08-25 18:46:35 LANewGirl.19.08.24.Katra.Collins.Sex.Talk.XXX.1080p.MP4-KTR
2019-08-25 18:47:48 Who.Is.Donnie.Rudd.Keith.Morrison.Investigates.2018.Part.1.ALTERNATIVE.CUT.WEB.x264-UNDERBELLY
2019-08-25 18:48:17 LANewGirl.19.08.25.Katra.Collins.Shower.XXX.1080p.MP4-KTR
2019-08-25 18:48:57 Who.Is.Donnie.Rudd.Keith.Morrison.Investigates.2018.Part.1.ALTERNATIVE.CUT.720p.WEB.x264-UNDERBELLY
2019-08-25 18:49:16 LittleCapriceDreams.19.08.22.Mia.Casanova.Privat.Snap.Touch.My.Backdoor.XXX.720p.MP4-KTR
2019-08-25 18:50:02 Who.Is.Donnie.Rudd.Keith.Morrison.Investigates.2018.Part.1.ALTERNATIVE.CUT.1080p.WEB.x264-UNDERBELLY
2019-08-25 18:50:48 LittleCapriceDreams.19.08.24.Riley.Anne.And.Kimberly.K.Sex.Meeting.XXX.1080p.MP4-KTR
2019-08-25 18:51:14 Who.Is.Donnie.Rudd.Keith.Morrison.Investigates.2018.Part.2.ALTERNATIVE.CUT.WEB.x264-UNDERBELLY
2019-08-25 18:52:23 Who.Is.Donnie.Rudd.Keith.Morrison.Investigates.2018.Part.2.ALTERNATIVE.CUT.720p.WEB.x264-UNDERBELLY
2019-08-25 18:53:31 Who.Is.Donnie.Rudd.Keith.Morrison.Investigates.2018.Part.2.ALTERNATIVE.CUT.1080p.WEB.x264-UNDERBELLY
2019-08-25 18:54:07 MatureNL.19.08.22.Camille.Hardcore.XXX.1080p.MP4-KTR
2019-08-25 18:54:11 Harry.Potter.and.the.Order.of.the.Phoenix.NORDiC.SUBPACK.UHD.BluRay-TTD
2019-08-25 18:54:52 Murder.Comes.to.Town.S05E03.Hellfire.in.the.Hollow.1080p.WEB.x264-UNDERBELLY
2019-08-25 18:54:59 Gamma.Racing.Day.2019.DUTCH.1080p.HDTV.x264-DTOD
2019-08-25 18:55:12 MatureNL.19.08.23.Andi.James.And.Liza.Billberry.Lesbian.XXX.1080p.MP4-KTR
2019-08-25 18:55:47 Dj_Over_Look-Prendido-SINGLE-WEB-2019-KLIN
2019-08-25 18:55:48 Astronomy_Domine-Im_Trying_To_Break_Your_Red_Moon-(IARLTDCD002)-WEB-2019-ENTANGLE
2019-08-25 18:55:58 Hans_Bouffmyhre-Restructured-(SLEAZE154)-WEB-2019-ENTANGLE
2019-08-25 18:56:09 Illit-Words_EP-(RVK003)-WEB-2019-ENTANGLE
2019-08-25 18:56:20 Mari_Mattham-Atom_EP-(ANA048)-WEB-2019-ENTANGLE
2019-08-25 18:56:25 EFL.Championship.2019.08.25.Swansea.City.vs.Birmingham.City.720p.WEB.H264-LEViTATE
2019-08-25 18:56:32 Michal_Gutkowski-Unborn_EP-(CP088D)-WEB-2019-ENTANGLE
2019-08-25 18:56:45 Michel_Lauriola-Secret_Destroyers-(EMPHATIC036)-WEB-2019-ENTANGLE
2019-08-25 18:57:39 EFL.Championship.2019.08.25.Swansea.City.vs.Birmingham.City.WEB.H264-LEViTATE
2019-08-25 18:58:01 MatureNL.19.08.23.Merce.Hardcore.XXX.1080p.MP4-KTR
2019-08-25 18:58:47 Tickle.S01E07.Shined.Sealed.Delivered.1080p.WEB.x264-GIMINI
2019-08-25 18:59:58 Tickle.S01E08.Drunk.History.1080p.WEB.x264-GIMINI
2019-08-25 19:00:39 Sikker.Og.Soen.S02E13.DANISH.720p.WEB.h264-LSDK
2019-08-25 19:02:20 Sikker.Og.Soen.S02E14.DANISH.720p.WEB.h264-LSDK
2019-08-25 19:03:34 Hollower-I-EP-WEB-2019-UTP
2019-08-25 19:03:59 Sikker.Og.Soen.S02E15.DANISH.720p.WEB.h264-LSDK
2019-08-25 19:05:40 Sikker.Og.Soen.S02E16.DANISH.720p.WEB.h264-LSDK
2019-08-25 19:07:20 Sikker.Og.Soen.S02E17.DANISH.720p.WEB.h264-LSDK
2019-08-25 19:09:00 Sikker.Og.Soen.S02E18.DANISH.720p.WEB.h264-LSDK
2019-08-25 19:10:41 Sikker.Og.Soen.S02E19.DANISH.720p.WEB.h264-LSDK
2019-08-25 19:12:20 Sikker.Og.Soen.S02E20.DANISH.720p.WEB.h264-LSDK
2019-08-25 19:14:11 ManoJob.19.08.23.Carolina.Sweets.Carolinas.Champagne.Room.XXX.1080p.MP4-KTR
2019-08-25 19:15:44 Your.Worst.Nightmare.S02E08.Fight.or.Flight.WEB.x264-UNDERBELLY
2019-08-25 19:16:01 ToughLoveX.19.08.22.Abby.Lee.Brazil.Dog.Gone.Good.XXX.1080p.MP4-KTR
2019-08-25 19:16:50 Your.Worst.Nightmare.S02E08.Fight.or.Flight.720p.WEB.x264-UNDERBELLY
2019-08-25 19:17:56 Your.Worst.Nightmare.S02E08.Fight.or.Flight.1080p.WEB.x264-UNDERBELLY
2019-08-25 19:19:24 UFOs.The.Lost.Evidence.S01E01.Area.52.1080p.WEB.x264-UNDERBELLY
2019-08-25 19:20:04 ToughLoveX.19.08.22.Abby.Lee.Brazil.Dog.Gone.Good.XXX.2160p.MP4-KTR
2019-08-25 19:20:41 J.L._Line-Another_Day_In_Paradise_(The_Only_Version)-12INCH_VINYL-FLAC-1990-LoKET
2019-08-25 19:20:43 504_Boyz-Tight_Whips-Promo_VLS-2002-GCP
2019-08-25 19:21:07 Jinny-Keep_Warm-12INCH_VINYL-FLAC-1991-LoKET
2019-08-25 19:21:20 Leben.im.All.E01.Planetenjaeger.GERMAN.DOKU.720p.HDTV.x264-BTVG
2019-08-25 19:21:31 Close.Encounters.S02E01.Terror.on.the.Ranch.1080p.WEB.x264-UNDERBELLY
2019-08-25 19:22:01 Jinny-Never_Give_Up-12INCH_VINYL-FLAC-1992-LoKET
2019-08-25 19:22:22 Jive_Bunny_And_The_Mastermixers-Thats_What_I_Like-12INCH_VINYL-FLAC-1989-LoKET
2019-08-25 19:22:41 Johnny_Hates_Jazz-Dont_Say_Its_Love-12INCH_VINYL-FLAC-1988-LoKET
2019-08-25 19:22:42 Close.Encounters.S02E02.War.of.the.Worlds.1080p.WEB.x264-UNDERBELLY
2019-08-25 19:22:56 Hitzefrei.19.08.23.Jenny.Berger.The.Early.Bodo.Bangs.The.Bitch.GERMAN.XXX.1080p.MP4-KTR
2019-08-25 19:22:59 Johnny_Hates_Jazz-Heart_Of_Gold-12INCH_VINYL-FLAC-1988-LoKET
2019-08-25 19:23:17 Johnny_Hates_Jazz-I_Dont_Want_To_Be_A_Hero-12INCH_VINYL-FLAC-1987-LoKET
2019-08-25 19:23:38 Johnny_Hates_Jazz-Turn_Back_The_Clock-12INCH_VINYL-FLAC-1987-LoKET
2019-08-25 19:23:48 Kritisch.Reisen.Bulgarien.-.das.neue.Malle.an.der.Schwarzmeerkueste.GERMAN.DOKU.720p.HDTV.x264-BTVG
2019-08-25 19:23:56 Kate.Humble.Off.The.Beaten.Track.S02E01.720p.HDTV.x264-QPEL
2019-08-25 19:24:49 Kritisch.Reisen.Bulgarien.-.das.neue.Malle.an.der.Schwarzmeerkueste.GERMAN.DOKU.HDTVRiP.x264-BTVG
2019-08-25 19:28:15 Ben.10.2016.S02E27.1080p.HDTV.H264-GIMINI
2019-08-25 19:29:29 Ben.10.2016.S02E28.1080p.HDTV.H264-GIMINI
2019-08-25 19:29:36 FallInLovia.19.08.24.Laundry.Day.XXX.1080p.MP4-KTR
2019-08-25 19:30:30 American.Housewife.S03E12.GERMAN.DL.DUBBED.1080p.WEB.h264-VoDTv
2019-08-25 19:30:35 Marvels.Avengers.Assemble.S04E25.1080p.HDTV.H264-GIMINI
2019-08-25 19:30:37 FilthyPOV.19.08.23.Alexa.Vega.XXX.1080p.MP4-KTR
2019-08-25 19:31:45 EPL.2019.08.24.Liverpool.vs.Arsenal.WEB.H264-LEViTATE
2019-08-25 19:31:51 American.Housewife.S03E12.GERMAN.DUBBED.720p.WEB.h264-idTV
2019-08-25 19:32:09 Daniel_Romano-Finally_Free-(NW6445)-CD-FLAC-2018-WRE
2019-08-25 19:32:22 FilthyPOV.19.08.23.Alexa.Vega.XXX.2160p.MP4-KTR
2019-08-25 19:32:57 EPL.2019.08.24.Manchester.United.vs.Crystal.Palace.WEB.H264-LEViTATE
2019-08-25 19:33:10 De_Staat-Bubble_Gum-(7701076)-CD-FLAC-2019-WRE
2019-08-25 19:34:10 EPL.2019.08.24.Norwich.City.vs.Chelsea.WEB.H264-LEViTATE
2019-08-25 19:34:12 Gregory_Porter-One_Night_Only_Live_At_The_Royal_Albert_Hall-(6780169)-CD-FLAC-2018-WRE
2019-08-25 19:35:22 Hama-Houmeissa-(SS-049)-CD-FLAC-2019-WRE
2019-08-25 19:35:41 American.Housewife.S03E12.GERMAN.DUBBED.WEBRiP.x264-idTV
2019-08-25 19:36:07 HeavyOnHotties.19.08.23.Teressa.Bizarre.Vous.Avez.Dit.Bizarre.XXX.1080p.MP4-KTR
2019-08-25 19:36:24 Imperial_Age-The_Legacy_Of_Atlantis-CD-FLAC-2018-WRE
2019-08-25 19:37:23 Aknestik-Aallonmurtaja-FI-CD-FLAC-1998-WiSHLiST
2019-08-25 19:37:26 Kenny_B-Hoe_Dan_Ook-(0602577400131)-NL-CD-FLAC-2019-WRE
2019-08-25 19:38:31 Liela_Moss-My_Name_Is_Safe_In_Your_Mouth-(BELLA842CD)-CD-FLAC-2018-WRE
2019-08-25 19:38:35 Moto3.2019.Great.Britain.Grand.Prix.1080p.HDTV.x264-ACES
2019-08-25 19:38:46 Vargur.2018.iCELANDiC.BDRip.x264-PussyFoot
2019-08-25 19:38:59 Blindspot.S04E16.GERMAN.DUBBED.720p.WEB.h264-idTV
2019-08-25 19:39:10 Aknestik-Aallonmurtaja-FI-1998-WiSHLiST
2019-08-25 19:39:33 PurgatoryX.19.08.23.Kendra.Spade.The.Dentist.Episode.1.XXX.1080p.MP4-KTR
2019-08-25 19:39:43 Novastar-In_The_Cold_Light_Of_Monday-(19075875502)-CD-FLAC-2018-WRE
2019-08-25 19:39:48 Vargur.2018.iCELANDiC.720p.BluRay.x264-PussyFoot
2019-08-25 19:40:25 The.Witch.Subversion.2018.GERMAN.DL.BDRiP.x264-GOREHOUNDS
2019-08-25 19:40:36 Moto2.2019.Great.Britain.Grand.Prix.HDTV.x264-ACES
2019-08-25 19:40:46 Paco_Ventura-Sol_Navajo-(ACD203)-ES-CD-FLAC-2009-WRE
2019-08-25 19:40:56 Vargur.2018.iCELANDiC.1080p.BluRay.x264-PussyFoot
2019-08-25 19:41:11 Absolute.Muay.Thai.38.Blue.Arena.720p.WEB.H264-LEViTATE
2019-08-25 19:41:46 The.Witch.Subversion.2018.GERMAN.DL.720p.BluRay.x264-GOREHOUNDS
2019-08-25 19:41:48 Panda_Bear-Buoys-(WIGCD399)-CD-FLAC-2019-WRE
2019-08-25 19:42:53 Patrick_Doyle-All_Is_True-Original_Motion_Picture_Soundtrack-(19075930552)-OST-CD-FLAC-2019-WRE
2019-08-25 19:43:15 Blindspot.S04E16.GERMAN.DUBBED.1080p.WEB.h264-VoDTv
2019-08-25 19:43:28 Absolute.Muay.Thai.38.Blue.Arena.WEB.H264-LEViTATE
2019-08-25 19:43:54 Restless_Spirits-Restless_Spirits-(FR_CD_953)-CD-FLAC-2019-WRE
2019-08-25 19:44:29 700.Sharks.2018.1080p.BluRay.x264-PussyFoot
2019-08-25 19:44:51 The.Witch.Subversion.2018.GERMAN.DL.1080p.BluRay.x264-GOREHOUNDS
2019-08-25 19:44:56 Rick_De_Leeuw-Zonder_Omweg-(429299)-NL-CD-FLAC-2019-WRE
2019-08-25 19:45:05 Polona.Ga.Zge.S02E04.Okusi.Treh.Dezel.SI.720p.HDTV.x264-RADiOACTiVE
2019-08-25 19:45:06 Polona.Ga.Zge.S02E04.Okusi.Treh.Dezel.SI.HDTV.x264-RADiOACTiVE
2019-08-25 19:45:07 Polona.Ga.Zge.S02E04.Okusi.Treh.Dezel.SI.1080p.HDTV.H264-RADiOACTiVE
2019-08-25 19:45:28 BlackedRaw.19.08.25.Hazel.Moore.XXX.1080p.MP4-KTR
2019-08-25 19:45:31 700.Sharks.2018.720p.BluRay.x264-PussyFoot
2019-08-25 19:46:09 Rosalia-El_Mal_Querer-(19075887962)-ES-CD-FLAC-2018-WRE
2019-08-25 19:46:38 700.Sharks.2018.BDRip.x264-PussyFoot
2019-08-25 19:47:16 Sheppard-Watching_The_Sky-(6726302)-CD-FLAC-2018-WRE
2019-08-25 19:47:50 Blindspot.S04E16.GERMAN.DUBBED.WEBRiP.x264-idTV
2019-08-25 19:48:44 VA-Ghost_Riders_In_The_Sky-(JASMCD_2651)-CD-FLAC-2019-WRE
2019-08-25 19:48:56 Carnival.Cravings.with.Anthony.Anderson.S01E01.Sweet.Carolina.Cravings.WEB.x264-GIMINI
2019-08-25 19:49:47 Slumberland-Sea_Sea_Sea_Drifter-See_See_See_Drifter-(SOUL0122)-CD-FLAC-2019-WRE
2019-08-25 19:49:49 BAMVisions.19.08.22.Kinuski.What.An.Anal.Pro.XXX.1080p.MP4-KTR
2019-08-25 19:50:45 Carnival.Cravings.with.Anthony.Anderson.S01E01.Sweet.Carolina.Cravings.720p.WEB.x264-GIMINI
2019-08-25 19:50:50 Wardrobe-Giving_Up_A_Ghost-(Dox382)-CD-FLAC-2019-WRE
2019-08-25 19:51:52 Watchmen-Nowhere_To_Hide-(ZR0497188)-REISSUE-CD-FLAC-2015-WRE
2019-08-25 19:52:27 BAMVisions.19.08.22.Kinuski.What.An.Anal.Pro.XXX.2160p.MP4-KTR
2019-08-25 19:52:55 Motorhead-Bastards-(GCR_20002-1)-REISSUE-LP-FLAC-2007-WRE
2019-08-25 19:53:41 Carnival.Cravings.with.Anthony.Anderson.S01E01.Sweet.Carolina.Cravings.1080p.WEB.x264-GIMINI
2019-08-25 19:54:05 Northtale-Welcome_To_Paradise-(NB_4883-1)-LP-FLAC-2019-WRE
2019-08-25 19:55:42 Primal_Fear-Primal_Fear-(27361_49754)-REISSUE_LIMITED_EDITION-LP-FLAC-2019-WRE
2019-08-25 19:55:55 Carnival.Cravings.with.Anthony.Anderson.S01E02.Ooey-Gooey.Golden.State.WEB.x264-GIMINI
2019-08-25 19:57:29 JaysPOV.19.08.25.Britney.Amber.Hot.Mom.Demands.Step.Son.To.Fuck.XXX.1080p.MP4-KTR
2019-08-25 19:57:45 Sepultura-Choke-(RR_Promo_371)-PROMO-VINYL-FLAC-1998-WRE
2019-08-25 19:58:11 Carnival.Cravings.with.Anthony.Anderson.S01E02.Ooey-Gooey.Golden.State.720p.WEB.x264-GIMINI
2019-08-25 19:58:59 Skyclad-The_Wayward_Sons_Of_Mother_Earth-(NOISELP034)-REMASTERED_LIMITED_EDITION-LP-FLAC-2017-WRE
2019-08-25 20:00:28 JaysPOV.19.08.25.Britney.Amber.Hot.Mom.Demands.Step.Son.To.Fuck.XXX.2160p.MP4-KTR
2019-08-25 20:00:38 Who_TF_is_Justin_Time-Redneck_Rave_Dot_Com-WEB-2019-ENRAGED
2019-08-25 20:00:48 Zimmill-Elevated-WEB-2019-ENRAGED
2019-08-25 20:01:01 The_Artist_(Formerly_Known_As_Prince)-Ultimate_Rave-(19075925402)-2CD-FLAC-2019-WRE
2019-08-25 20:01:10 Carnival.Cravings.with.Anthony.Anderson.S01E02.Ooey-Gooey.Golden.State.1080p.WEB.x264-GIMINI
2019-08-25 20:02:56 BlackedRaw.19.08.25.Hazel.Moore.XXX.2160p.MP4-KTR
2019-08-25 20:02:58 The_Neal_Morse_Band-The_Great_Adventure_By_The_Neal_Morse_Band-(3984-15626-2)-2CD-FLAC-2019-WRE
2019-08-25 20:03:21 Carnival.Cravings.with.Anthony.Anderson.S01E04.Bacon-Wrapped.Heartland.WEB.x264-GIMINI
2019-08-25 20:04:44 VA-Back_To_Mine__Nightmares_On_Wax-(BTMCD001)-2CD-FLAC-2019-WRE
2019-08-25 20:05:27 Carnival.Cravings.with.Anthony.Anderson.S01E04.Bacon-Wrapped.Heartland.720p.WEB.x264-GIMINI
2019-08-25 20:06:35 Bill_Haley_and_His_Comets-The_Legend_Lives_On-(GSS_5625)-REMASTERED-3CD-FLAC-2009-WRE
2019-08-25 20:06:46 Parlamentet.S31E02.SWEDiSH.720p.WEB.x264-NORUSH
2019-08-25 20:07:50 Thy_Primordial-Blackend_Years-(DISS019CD)-4CD-FLAC-2018-WRE
2019-08-25 20:08:00 Carnival.Cravings.with.Anthony.Anderson.S01E04.Bacon-Wrapped.Heartland.1080p.WEB.x264-GIMINI
2019-08-25 20:08:22 VA-Bravo_Hits_106-NFOFIX-2CD-FLAC-2019-VOLDiES
2019-08-25 20:09:21 Supah.Ninjas.S01E01.GERMAN.DL.1080P.WEB.H264-WAYNE
2019-08-25 20:09:43 Supah.Ninjas.S01E01.GERMAN.DL.720P.WEB.H264-WAYNE
2019-08-25 20:10:27 Garth_Brooks-Blame_It_All_On_My_Roots__Five_Decades_Of_Influences-(85420-6001-24-4)-BOXSET-6CD-FLAC-2013-WRE
2019-08-25 20:10:43 Supah.Ninjas.S01E02.GERMAN.DL.1080P.WEB.H264-WAYNE
2019-08-25 20:11:29 Supah.Ninjas.S01E03.GERMAN.DL.1080P.WEB.H264-WAYNE
2019-08-25 20:11:38 DR1.Dokumentaren.En.Stille.Forsvinden.E03.DANiSH.720p.WEB.h264-DANES
2019-08-25 20:11:55 Supah.Ninjas.S01E04.GERMAN.DL.1080P.WEB.H264-WAYNE
2019-08-25 20:12:29 Supah.Ninjas.S01E05.GERMAN.DL.1080P.WEB.H264-WAYNE
2019-08-25 20:12:31 Parlamentet.S31E02.SWEDiSH.1080p.WEB.x264-NORUSH
2019-08-25 20:12:51 Supah.Ninjas.S01E06.GERMAN.DL.1080P.WEB.H264-WAYNE
2019-08-25 20:13:22 Supah.Ninjas.S01E07.GERMAN.DL.1080P.WEB.H264-WAYNE
2019-08-25 20:13:44 La.Destruccion.De.La.Memoria.2016.SPANiSH.DOC.1080p.HDTV.x264-4FiRE
2019-08-25 20:13:51 Supah.Ninjas.S01E08.GERMAN.DL.1080P.WEB.H264-WAYNE
2019-08-25 20:13:56 The_Flaming_Lips-Seeing_The_Unseeable__The_Complete_Studio_Recordings_1986-1990-REMASTERED_BOXSET-6CD-FLAC-2018-WRE
2019-08-25 20:14:03 The.Yorkshire.Dales.and.the.Lakes.S01E06.HDTV.x264-UNDERBELLY
2019-08-25 20:14:14 La.Destruccion.De.La.Memoria.2016.SPANiSH.DOC.720p.HDTV.x264-4FiRE
2019-08-25 20:14:31 Supah.Ninjas.S01E09.GERMAN.DL.1080P.WEB.H264-WAYNE
2019-08-25 20:14:41 La.Destruccion.De.La.Memoria.2016.SPANiSH.DOC.HDTV.x264-4FiRE
2019-08-25 20:15:05 Supah.Ninjas.S01E10.GERMAN.DL.1080P.WEB.H264-WAYNE
2019-08-25 20:15:12 The.Yorkshire.Dales.and.the.Lakes.S01E06.720p.HDTV.x264-UNDERBELLY
2019-08-25 20:15:13 Dave_Brubeck-This_Is_Jazz-1996-GCP
2019-08-25 20:15:43 Supah.Ninjas.S01E11.GERMAN.DL.1080P.WEB.H264-WAYNE
2019-08-25 20:16:05 Supah.Ninjas.S01E12.GERMAN.DL.1080P.WEB.H264-WAYNE
2019-08-25 20:16:17 The.Yorkshire.Dales.and.the.Lakes.S01E06.1080p.HDTV.H264-UNDERBELLY
2019-08-25 20:16:35 Supah.Ninjas.S01E13.GERMAN.DL.1080P.WEB.H264-WAYNE
2019-08-25 20:17:06 Supah.Ninjas.S01E14.GERMAN.DL.1080P.WEB.H264-WAYNE
2019-08-25 20:17:41 Supah.Ninjas.S01E15.GERMAN.DL.1080P.WEB.H264-WAYNE
2019-08-25 20:17:43 VA-Heavenly_Stars-LP-1971-GCP
2019-08-25 20:17:57 Wilson_Pickett-The_Complete_Atlantic_Albums_Collection-(081227933685)-REMASTERED_BOXSET-10CD-FLAC-2017-WRE
2019-08-25 20:18:05 Supah.Ninjas.S01E16.GERMAN.DL.1080P.WEB.H264-WAYNE
2019-08-25 20:18:16 Murphys.Boxing.2019.08.23.720p.WEB.H264-LEViTATE
2019-08-25 20:18:32 Supah.Ninjas.S01E17.GERMAN.DL.1080P.WEB.H264-WAYNE
2019-08-25 20:19:16 Supah.Ninjas.S01E18.GERMAN.DL.1080P.WEB.H264-WAYNE
2019-08-25 20:19:23 Murphys.Boxing.2019.08.23.WEB.H264-LEViTATE
2019-08-25 20:20:25 Supah.Ninjas.S01E19.GERMAN.DL.1080P.WEB.H264-WAYNE
2019-08-25 20:20:32 Roy.Jones.Jr.Boxing.43.720p.WEB.H264-LEViTATE
2019-08-25 20:20:45 Roy.Jones.Jr.Boxing.2019.08.24.Connor.vs.Rafael.720p.WEB.h264-ADMIT
2019-08-25 20:20:52 Supah.Ninjas.S01E20.GERMAN.DL.1080P.WEB.H264-WAYNE
2019-08-25 20:21:17 VA-Rockabilly_Red_Hot_and_Rare_Volume_2-(RTRCDBOX10)-REMASTERED_BOXSET-10CD-FLAC-2019-WRE
2019-08-25 20:21:29 Roy.Jones.Jr.Boxing.2019.08.24.Connor.vs.Rafael.WEB.h264-ADMIT
2019-08-25 20:21:30 Supah.Ninjas.S01E21.GERMAN.DL.1080P.WEB.H264-WAYNE
2019-08-25 20:21:38 Roy.Jones.Jr.Boxing.43.WEB.H264-LEViTATE
2019-08-25 20:22:01 Supah.Ninjas.S01E22.GERMAN.DL.1080P.WEB.H264-WAYNE
2019-08-25 20:22:26 Supah.Ninjas.S01E23.GERMAN.DL.1080P.WEB.H264-WAYNE
2019-08-25 20:22:49 Supah.Ninjas.S01E24.GERMAN.DL.1080P.WEB.H264-WAYNE
2019-08-25 20:23:15 Supah.Ninjas.S01E25.GERMAN.DL.1080P.WEB.H264-WAYNE
2019-08-25 20:23:45 Supah.Ninjas.S01E26.GERMAN.DL.1080P.WEB.H264-WAYNE
2019-08-25 20:24:31 Supah.Ninjas.S01E02.GERMAN.DL.720P.WEB.H264-WAYNE
2019-08-25 20:24:54 Supah.Ninjas.S01E03.GERMAN.DL.720P.WEB.H264-WAYNE
2019-08-25 20:25:01 Veronika.proste.Nika.1980.CZECH.PDTV.x264-I_KnoW
2019-08-25 20:25:20 Supah.Ninjas.S01E04.GERMAN.DL.720P.WEB.H264-WAYNE
2019-08-25 20:25:47 Supah.Ninjas.S01E05.GERMAN.DL.720P.WEB.H264-WAYNE
2019-08-25 20:26:16 Supah.Ninjas.S01E06.GERMAN.DL.720P.WEB.H264-WAYNE
2019-08-25 20:26:29 Vanden_Plas-The_Epic_Works_1991-2015-(FR_BS_965)-LIMITED_EDITION_BOXSET-11CD-FLAC-2019-WRE
2019-08-25 20:26:37 Supah.Ninjas.S01E07.GERMAN.DL.720P.WEB.H264-WAYNE
2019-08-25 20:27:06 Supah.Ninjas.S01E08.GERMAN.DL.720P.WEB.H264-WAYNE
2019-08-25 20:30:10 Supah.Ninjas.S01E09.GERMAN.DL.720P.WEB.H264-WAYNE
2019-08-25 20:30:36 Supah.Ninjas.S01E10.GERMAN.DL.720P.WEB.H264-WAYNE
2019-08-25 20:31:02 Supah.Ninjas.S01E11.GERMAN.DL.720P.WEB.H264-WAYNE
2019-08-25 20:31:27 Supah.Ninjas.S01E12.GERMAN.DL.720P.WEB.H264-WAYNE
2019-08-25 20:31:43 Toppen.Af.Poppen.S09E03.DANISH.720p.WEB.h264-FFD
2019-08-25 20:31:45 Supah.Ninjas.S01E13.GERMAN.DL.720P.WEB.H264-WAYNE
2019-08-25 20:32:12 Supah.Ninjas.S01E14.GERMAN.DL.720P.WEB.H264-WAYNE
2019-08-25 20:32:44 Supah.Ninjas.S01E15.GERMAN.DL.720P.WEB.H264-WAYNE
2019-08-25 20:32:46 Leisure-On_My_Mind-SINGLE-WEB-2019-KLIN
2019-08-25 20:33:16 Supah.Ninjas.S01E16.GERMAN.DL.720P.WEB.H264-WAYNE
2019-08-25 20:33:21 Landmand.Soeger.Kaerlighed.Den.Unge.Landmand.S01E01.DANISH.720p.WEB.h264-FFD
2019-08-25 20:33:34 Elephant_Heart-The_Digital-SINGLE-WEB-2019-KLIN
2019-08-25 20:33:44 Supah.Ninjas.S01E17.GERMAN.DL.720P.WEB.H264-WAYNE
2019-08-25 20:34:08 Supah.Ninjas.S01E18.GERMAN.DL.720P.WEB.H264-WAYNE
2019-08-25 20:34:34 Supah.Ninjas.S01E19.GERMAN.DL.720P.WEB.H264-WAYNE
2019-08-25 20:34:57 Landmand.Soeger.Kaerlighed.Den.Unge.Landmand.S01E02.DANISH.720p.WEB.h264-FFD
2019-08-25 20:35:04 Supah.Ninjas.S01E20.GERMAN.DL.720P.WEB.H264-WAYNE
2019-08-25 20:35:57 Supah.Ninjas.S01E21.GERMAN.DL.720P.WEB.H264-WAYNE
2019-08-25 20:36:13 Supah.Ninjas.S01E22.GERMAN.DL.720P.WEB.H264-WAYNE
2019-08-25 20:36:15 3.Op.Reis.S13E01.DUTCH.720p.HDTV.x264-DTOD
2019-08-25 20:37:03 Karate_Boogaloo-Juicy_Fruit-SINGLE-WEB-2019-KLIN
2019-08-25 20:37:33 Tiger.2016.HDTV.x264-RADiOACTiVE
2019-08-25 20:37:35 Tiger.2016.720p.HDTV.x264-RADiOACTiVE
2019-08-25 20:37:36 Tiger.2016.1080p.HDTV.H264-RADiOACTiVE
2019-08-25 20:38:54 Big.Fish.Audio.Cinematic.EDM.KONTAKT-EXPANSION
2019-08-25 20:41:20 Cykling.La.Vuelta.2019.Stage.2.DANISH.720p.WEB.h264-INDKAST
2019-08-25 20:41:45 Supah.Ninjas.S01E23.GERMAN.DL.720P.WEB.H264-WAYNE
2019-08-25 20:42:03 Supah.Ninjas.S01E24.GERMAN.DL.720P.WEB.H264-WAYNE
2019-08-25 20:42:30 Supah.Ninjas.S01E25.GERMAN.DL.720P.WEB.H264-WAYNE
2019-08-25 20:43:03 Supah.Ninjas.S01E26.GERMAN.DL.720P.WEB.H264-WAYNE
2019-08-25 20:47:09 Big.Fish.Audio.Cinematic.EDM.MULTiFORMAT-EXPANSION
2019-08-25 20:47:31 Trued_Temple-Baila_Pegadito-SINGLE-WEB-2019-KLIN
2019-08-25 20:48:09 Naomi_Banks-Hearts-SINGLE-WEB-2019-KLIN
2019-08-25 20:49:55 Albert_Tales-I_Wanna_Know-SINGLE-WEB-2019-KLIN
2019-08-25 20:50:51 Postnord.Danmark.Rundt.2019.5.Etape.DANISH.720p.WEB.h264-INDKAST
2019-08-25 20:51:57 Morena_-_Enigma-(ARM_297)-WEB-2019-ZzZz
2019-08-25 20:56:01 Erasure-Rock_Me_Gently-DIRFIX-CZ_Retail-CDS-FLAC-1996-AMOK
2019-08-25 21:00:28 BL_Double-Blitz-WEB-2019-ENRAGED
2019-08-25 21:00:39 Big_Poncho-Flexxin_WITH_Nothing-WEB-2019-ENRAGED
2019-08-25 21:00:50 Doodat600-Block_Shit-WEB-2018-ENRAGED
2019-08-25 21:01:02 Doodat600-Block_Shit_Part_2-WEB-2019-ENRAGED
2019-08-25 21:01:12 Doodat600-The_Dangle-WEB-2019-ENRAGED
2019-08-25 21:01:23 El_Kay-State_vs_ElKay-WEB-2019-ENRAGED
2019-08-25 21:01:35 Emmavie-Honeymoon-WEB-2019-ENRAGED
2019-08-25 21:01:46 Gallant-Sleep_On_It-SINGLE-WEB-2019-ENRAGED
2019-08-25 21:01:58 Illy_Westside-Money_Talk_(feat_Kt_Foreign)-SINGLE-WEB-2019-ENRAGED
2019-08-25 21:02:10 Kayta-Never_Crumble-WEB-2019-ENRAGED
2019-08-25 21:02:21 LBAF-LBAF_or_Get_Ate_3-WEB-2019-ENRAGED
2019-08-25 21:02:31 Marky_D-Boring-SINGLE-WEB-2019-ENRAGED
2019-08-25 21:02:43 Marky_D-Cuda_Cat-SINGLE-WEB-2017-ENRAGED
2019-08-25 21:02:45 3.Op.Reis.S13E01.DUTCH.1080p.HDTV.x264-DTOD
2019-08-25 21:02:55 Marky_D-Im_Busy-SINGLE-WEB-2019-ENRAGED
2019-08-25 21:03:06 Marky_D_Feat_E-40-Everybody-SINGLE-WEB-2019-ENRAGED
2019-08-25 21:03:17 Scram_Jones-Friday_(feat_Jadakiss_and_Xander)-SINGLE-WEB-2019-ENRAGED
2019-08-25 21:03:40 TriState_X_DirtyDiggs-Illustrious_Tablets-WEB-2019-ENRAGED
2019-08-25 21:03:52 Twisted_Insane-Night_Train-SINGLE-WEB-2019-ENRAGED
2019-08-25 21:04:04 iLLy_WestSide-WestSide_3-WEB-2018-ENRAGED
2019-08-25 21:04:29 Layton_Greene-I_Love_You-SINGLE-WEB-2019-KLIN
2019-08-25 21:04:43 Playa.Del.Sol.S03E01.SWEDiSH.1080p.WEB.x264-NORUSH
2019-08-25 21:04:48 Playa.Del.Sol.S03E01.SWEDiSH.720p.WEB.x264-NORUSH
2019-08-25 21:07:44 Injustice.with.Nancy.Grace.S01E07.Robbed.Of.Justice.1080p.WEB.x264-LiGATE
2019-08-25 21:08:29 Injustice.with.Nancy.Grace.S01E07.Robbed.Of.Justice.720p.WEB.x264-LiGATE
2019-08-25 21:09:17 Injustice.with.Nancy.Grace.S01E07.Robbed.Of.Justice.WEB.x264-LiGATE
2019-08-25 21:10:13 Playa.Del.Sol.S03E02.SWEDiSH.720p.WEB.x264-NORUSH
2019-08-25 21:12:48 Matt_Farmer-Pure-(VAU071)-PROPER-READNFO-WEB-2019-AFO
2019-08-25 21:12:59 Playa.Del.Sol.S03E02.SWEDiSH.1080p.WEB.x264-NORUSH
2019-08-25 21:13:11 Sandro_Mireno_and_Genio_ft_Elle-Ave_Maria-(AASC017)-PROPER-READNFO-WEB-2019-AFO
2019-08-25 21:13:24 Aimoon-Skyfox-(FO140R061)-PROPER-READNFO-WEB-2019-AFO
2019-08-25 21:14:05 Saturday.Kitchen.2019.08.24.720p.WEB.h264-LiGATE
2019-08-25 21:14:17 Klassfesten.S03E02.SWEDiSH.720p.HDTV.x264-CCCAM
2019-08-25 21:14:37 Saturday.Kitchen.2019.08.24.WEB.h264-LiGATE
2019-08-25 21:14:45 Edge.of.Alaska.S01E01.Winters.Grip.1080p.WEB.x264-UNDERBELLY
2019-08-25 21:15:01 Tiger_Stripes-Into_Desolation-(DC209)-WEB-2019-AFO_INT
2019-08-25 21:15:15 Toppen.Af.Poppen.S09E02.DANiSH.HDTV.x264-RCDiVX
2019-08-25 21:15:36 EastEnders.2019.08.23.720p.WEB.h264-LiGATE
2019-08-25 21:15:50 Edge.of.Alaska.S01E02.Last.Days.of.Winter.1080p.WEB.x264-UNDERBELLY
2019-08-25 21:16:14 EastEnders.2019.08.23.WEB.h264-LiGATE
2019-08-25 21:16:47 W_and_W_-_Rave_Culture_Radio_034__Incl_Andrew_Rayel_Guestmix-SAT-08-25-2019-TALiON
2019-08-25 21:16:56 Edge.of.Alaska.S01E03.The.Thaw.1080p.WEB.x264-UNDERBELLY
2019-08-25 21:18:03 Edge.of.Alaska.S01E04.The.Road.1080p.WEB.x264-UNDERBELLY
2019-08-25 21:19:07 Edge.of.Alaska.S01E05.Bear.Attack.1080p.WEB.x264-UNDERBELLY
2019-08-25 21:20:13 Edge.of.Alaska.S01E06.The.Motherlode.1080p.WEB.x264-UNDERBELLY
2019-08-25 21:21:18 Edge.of.Alaska.S01E07.McCarthy.Rising.1080p.WEB.x264-UNDERBELLY
2019-08-25 21:22:26 Edge.of.Alaska.S01E08.The.Last.Stand.1080p.WEB.x264-UNDERBELLY
2019-08-25 21:27:00 EPL.2019.08.25.Wolves.vs.Burnley.720p.WEB.H264-LEViTATE
2019-08-25 21:28:14 EPL.2019.08.25.Wolves.vs.Burnley.WEB.H264-LEViTATE
2019-08-25 21:28:43 MrVoltox30_-_Dark_Sky_Impro-(39797)-SINGLE-WEB-2019-ZzZz
2019-08-25 21:29:32 Stack_Bundles-Library_of_a_Rockstar_Chapter_5_-_Mr_Monday_Night_Pt_2-WEB-2019-ENRAGED
2019-08-25 21:29:49 Stack_Bundles-Library_of_a_Rockstar_Chapter_6_-_Mr_Monday_Night_Pt_3-WEB-2019-ENRAGED
2019-08-25 21:30:50 The.Son.S02E10.FiNAL.FRENCH.720p.HDTV.x264-SH0W
2019-08-25 21:32:00 CJ_Kovalev_-_Fast_Control-(BTR221)-SINGLE-WEB-2019-ZzZz
2019-08-25 21:32:02 Edge.of.Alaska.S02E01.Wolves.at.the.Door.1080p.WEB.x264-UNDERBELLY
2019-08-25 21:33:07 Edge.of.Alaska.S02E02.Starvation.Country.1080p.WEB.x264-UNDERBELLY
2019-08-25 21:33:20 Sergey_Srost-Moon_Cat-SINGLE-WEB-2019-KLIN
2019-08-25 21:34:12 Edge.of.Alaska.S02E03.Defend.the.Frontier.1080p.WEB.x264-UNDERBELLY
2019-08-25 21:35:17 Edge.of.Alaska.S02E04.Dying.Days.of.Winter.1080p.WEB.x264-UNDERBELLY
2019-08-25 21:35:56 Micky.Maus.S05E13.Der.romantische.Mond.GERMAN.DL.WebRip.x264-TVP
2019-08-25 21:36:33 Micky.Maus.S05E13.Der.romantische.Mond.GERMAN.DL.720p.HDTV.x264-TVP
2019-08-25 21:37:15 Castion_-_Swaggin_(Radio_Edit)-(5059033757103)-SINGLE-WEB-2019-ZzZz
2019-08-25 21:37:49 Fox_Drum_In-Cognitive_Chip-SINGLE-WEB-2019-KLIN
2019-08-25 21:38:06 SEAL.Team.S02E13.FRENCH.WEB.H264-AMB3R
2019-08-25 21:39:31 Gutta.Paa.Tur.S10E01.NORWEGiAN.720p.HDTV.x264-NORPiLT
2019-08-25 21:40:41 Micky.Maus.S05E13.Der.romantische.Mond.GERMAN.DL.1080p.HDTV.x264-TVP
2019-08-25 21:40:49 Prodigal_Filio-Perpetual_Night_Party-SINGLE-WEB-2019-KLIN
2019-08-25 21:41:06 Ikke.Spoer.Om.Det.S01E01.NORWEGiAN.720p.WEB.x264-KOMPOST
2019-08-25 21:41:39 Ikke.Spoer.Om.Det.S01E02.NORWEGiAN.720p.WEB.x264-KOMPOST
2019-08-25 21:42:29 Ikke.Spoer.Om.Det.S02E01.NORWEGiAN.720p.WEB.x264-KOMPOST
2019-08-25 21:42:49 Rafael_Hassegawa_-_Beautiful_Horizon-(KPR093)-WEB-2016-ZzZz
2019-08-25 21:43:11 EPL.2019.08.25.Wolves.vs.Burnley.1080p.WEB.H264-LEViTATE
2019-08-25 21:44:08 Ringve-Fugl.Foenix.2018.NORWEGiAN.720p.WEB.x264-KOMPOST
2019-08-25 21:44:23 MLS.2019.08.24.New.England.Revolution.vs.Chicago.Fire.720p.WEB.H264-LEViTATE
2019-08-25 21:44:35 Promi.Big.Brother.Die.Late.Night.Show.S05E10.GERMAN.HDTV.720p.x264-iNFOTv
2019-08-25 21:45:39 MLS.2019.08.24.New.England.Revolution.vs.Chicago.Fire.WEB.H264-LEViTATE
2019-08-25 21:46:56 MLS.2019.08.24.Philadelphia.Union.vs.D.C.United.720p.WEB.H264-LEViTATE
2019-08-25 21:47:09 Macrovision-Moonbiturate-(BP8672019)-READNFO-WEB-2019-AFO_INT
2019-08-25 21:48:14 MLS.2019.08.24.Philadelphia.Union.vs.D.C.United.WEB.H264-LEViTATE
2019-08-25 21:49:34 SEAL.Team.S02E14.FRENCH.WEB.H264-AMB3R
2019-08-25 21:49:41 Cosmic_Gate_-_20_Years_(Forward_Ever_Backward_Never)_(The_Extended_Mixes)-WEB-2019-JUSTiFY_iNT
2019-08-25 21:49:47 Killerbounce_-_Thunderball-(EDM099)-WEB-2002-JUSTiFY_iNT
2019-08-25 21:49:52 Springworld_-_Labyrinth-(EDM110)-WEB-2014-JUSTiFY_iNT
2019-08-25 21:50:27 Kameleoni-Beatlesi.Nekdanje.Jugoslavije.2019.SI.HDTV.x264-RADiOACTiVE
2019-08-25 21:50:32 Kameleoni-Beatlesi.Nekdanje.Jugoslavije.2019.SI.720p.HDTV.x264-RADiOACTiVE
2019-08-25 21:50:45 Kameleoni-Beatlesi.Nekdanje.Jugoslavije.2019.SI.1080p.HDTV.H264-RADiOACTiVE
2019-08-25 21:51:48 Le.Temps.Est.Assassin.S01E01.FRENCH.720p.HDTV.x264-HuSSLe
2019-08-25 21:53:07 Promi.Big.Brother.Die.Late.Night.Show.S05E11.GERMAN.HDTV.720p.x264-iNFOTv
2019-08-25 21:53:59 D11Land-Yo_Soy-SINGLE-WEB-2019-KLIN
2019-08-25 21:54:26 Promi.Big.Brother.Die.Late.Night.Show.S05E13.GERMAN.HDTV.720p.x264-iNFOTv
2019-08-25 21:54:39 New.Amsterdam.2018.S01E03.FRENCH.720p.HDTV.x264-HuSSLe
2019-08-25 21:55:52 The.Son.S02E10.FiNAL.FRENCH.HDTV.x264-AMB3R
2019-08-25 21:56:12 MLS.2019.08.24.Toronto.FC.vs.Montreal.Impact.720p.WEB.H264-LEViTATE
2019-08-25 21:56:29 Promi.Big.Brother.Die.Late.Night.Show.S05E14.GERMAN.HDTV.720p.x264-iNFOTv
2019-08-25 21:57:22 MLS.2019.08.24.Toronto.FC.vs.Montreal.Impact.WEB.H264-LEViTATE
2019-08-25 21:57:42 Promi.Big.Brother.Die.Late.Night.Show.S05E15.GERMAN.HDTV.720p.x264-iNFOTv
2019-08-25 21:58:51 Vorhang.auf.fuer.Cyrano.2018.German.AC3D.DL.720p.BluRay.x264-CLASSiCALHD
2019-08-25 21:59:32 Bitchin.Rides.S02E03.Clean.Up.on.Aisle.32.WEB.x264-GIMINI
2019-08-25 22:00:40 Bitchin.Rides.S02E03.Clean.Up.on.Aisle.32.1080p.WEB.x264-GIMINI
2019-08-25 22:01:01 Vorhang.auf.fuer.Cyrano.2018.German.AC3D.DL.1080p.BluRay.x264-CLASSiCALHD
2019-08-25 22:01:18 The.Mangler.1995.REMASTERED.720p.BluRay.x264-PHASE
2019-08-25 22:04:00 The.Mangler.1995.REMASTERED.BDRip.x264-PHASE
2019-08-25 22:04:26 Colecciones.Robadas.2014.SPANiSH.DOC.1080p.HDTV.x264-4FiRE
2019-08-25 22:04:48 Colecciones.Robadas.2014.SPANiSH.DOC.720p.HDTV.x264-4FiRE
2019-08-25 22:05:08 Colecciones.Robadas.2014.SPANiSH.DOC.HDTV.x264-4FiRE
2019-08-25 22:05:09 The.Mangler.1995.REMASTERED.1080p.BluRay.x264-PHASE
2019-08-25 22:06:08 Tulipani.2017.NLSUBBED.1080p.WEB.h264-ADRENALiNE
2019-08-25 22:07:59 Babels.Lashorna.S01E01.SWEDiSH.720p.WEB.h264-NORUSH
2019-08-25 22:08:17 Vorhang.auf.fuer.Cyrano.2018.German.AC3D.DL.1080p.BluRay.AVC-CLASSiCALHD
2019-08-25 22:09:02 Dragons.Den.S17E03.720p.HDTV.x264-LiNKLE
2019-08-25 22:09:45 Ma.2019.REPACK.MULTi.1080p.BluRay.x264-NTK
2019-08-25 22:09:48 Dragons.Den.S17E03.HDTV.x264-LiNKLE
2019-08-25 22:10:03 Secret.History.S15E02.Prince.Philip.The.Plot.to.Make.a.King.1080p.HDTV.H264-UNDERBELLY
2019-08-25 22:10:29 Brunch.At.Bobbys.S01E09.Slumber.Party.720p.HDTV.x264-W4F
2019-08-25 22:10:32 Brunch.At.Bobbys.S01E09.Slumber.Party.HDTV.x264-W4F
2019-08-25 22:10:47 Diners.Drive.Ins.And.Dives.S30E11.Loaded.Stuffed.and.Fried.720p.HDTV.x264-W4F
2019-08-25 22:10:50 Diners.Drive.Ins.And.Dives.S30E11.Loaded.Stuffed.and.Fried.HDTV.x264-W4F
2019-08-25 22:11:05 Expedition.Unknown.S08E02.Treasure.of.the.Copper.Scroll.720p.HDTV.x264-W4F
2019-08-25 22:11:08 Expedition.Unknown.S08E02.Treasure.of.the.Copper.Scroll.HDTV.x264-W4F
2019-08-25 22:11:29 Rachael.Ray.2019.08.19.Laundry.720p.HDTV.x264-W4F
2019-08-25 22:11:33 Rachael.Ray.2019.08.19.Laundry.HDTV.x264-W4F
2019-08-25 22:11:47 Rachael.Ray.2019.08.21.Ever.Get.Yourself.720p.HDTV.x264-W4F
2019-08-25 22:11:49 Rachael.Ray.2019.08.21.Ever.Get.Yourself.HDTV.x264-W4F
2019-08-25 22:12:08 The.Kitchen.S22E02.Fun.Family.Favorites.720p.HDTV.x264-W4F
2019-08-25 22:12:11 The.Kitchen.S22E02.Fun.Family.Favorites.HDTV.x264-W4F
2019-08-25 22:14:24 Babel.S30E01.SWEDiSH.720p.WEB.h264-NORUSH
2019-08-25 22:20:14 Poldark.2015.S05E07.1080p.HDTV.H264-LiNKLE
2019-08-25 22:21:21 Dragons.Den.S17E03.1080p.HDTV.H264-PLUTONiUM
2019-08-25 22:21:30 Evil.Lives.Here.S06E07.I.Have.To.Do.The.Right.Thing.720p.WEBRip.x264-CAFFEiNE
2019-08-25 22:22:59 Evil.Lives.Here.S06E07.I.Have.To.Do.The.Right.Thing.WEBRip.x264-CAFFEiNE
2019-08-25 22:24:30 Paranormal.Emergency.S01E04.Theres.No.Training.for.This.720p.WEBRip.x264-CAFFEiNE
2019-08-25 22:24:37 New.Amsterdam.2018.S01E03.FRENCH.HDTV.x264-AMB3R
2019-08-25 22:25:58 Paranormal.Emergency.S01E04.Theres.No.Training.for.This.WEBRip.x264-CAFFEiNE
2019-08-25 22:26:56 Poldark.2015.S05E07.HDTV.x264-LiNKLE
2019-08-25 22:27:30 Barnwood.Builders.S09E04.Bank.Barn.Brawl.720p.WEBRip.x264-CAFFEiNE
2019-08-25 22:29:00 Barnwood.Builders.S09E04.Bank.Barn.Brawl.WEBRip.x264-CAFFEiNE
2019-08-25 22:29:11 The.Queens.Lost.Family.S01E03.The.New.Family.Firm.720p.HDTV.x264-UNDERBELLY
2019-08-25 22:30:17 Arrow.S07D03.COMPLETE.BLURAY-o0o
2019-08-25 22:30:54 Family.Guy.S16E07.Petey.IV.GERMAN.DL.1080p.WEBRiP.x264-OCA
2019-08-25 22:31:13 Keyboard.Killers-ALiAS
2019-08-25 22:31:19 Family.Guy.S16E07.Petey.IV.GERMAN.DL.720p.WEBRiP.x264-OCA
2019-08-25 22:31:41 Family.Guy.S16E07.Petey.IV.GERMAN.DL.WEBRiP.x264-OCA
2019-08-25 22:33:53 The.Flash.2014.S05D03.COMPLETE.BLURAY-o0o
2019-08-25 22:34:57 Gamma_Sector-Sanctum_Of_Vivisection-WEB-2019-UTP
2019-08-25 22:36:16 The.Queens.Lost.Family.S01E03.1080p.HDTV.H264-LiNKLE
2019-08-25 22:39:24 Who.Wants.To.Be.A.Millionaire.S33E02.HDTV.x264-PLUTONiUM
2019-08-25 22:40:50 New.Amsterdam.2018.S01E04.FRENCH.720p.HDTV.x264-HuSSLe
2019-08-25 22:41:53 The.Queens.Lost.Family.S01E03.The.New.Family.Firm.HDTV.x264-UNDERBELLY
2019-08-25 22:43:09 Le.Temps.Est.Assassin.S01E02.FRENCH.720p.HDTV.x264-HuSSLe
2019-08-25 22:43:26 VA-Dance_To_The_House_Issue_8-(GSRCD079A)-WEB-2019-BF
2019-08-25 22:44:11 The.Son.S02E10.FiNAL.FRENCH.1080p.HDTV.H264-HYBRiS
2019-08-25 22:44:28 VA-Groove_Collection_Vol_1-(VBR147)-WEB-2019-BF
2019-08-25 22:45:19 VA-Soft_Deep_And_Dark_3-(7VV019)-WEB-2019-BF
2019-08-25 22:46:07 VA-The_Cumbersme_Collection_Vol_1_(Compiled_By_British_SA)-(CB128)-WEB-2019-BF
2019-08-25 22:51:26 Woodstock.1970.iNTERNAL.DOC.SUBFRENCH.1080p.HDTV.H264-SH0W
2019-08-25 22:52:12 Poldark.2015.S05E07.720p.HDTV.x264-LiNKLE
2019-08-25 22:53:08 Men.in.Black.International.2019.REPACK.MULTi.1080p.BluRay.x264-NTK
2019-08-25 22:57:34 The.Kitchen.S22E03.Hot.New.Trends.and.Tricks.720p.HDTV.x264-W4F
2019-08-25 22:57:36 The.Kitchen.S22E03.Hot.New.Trends.and.Tricks.HDTV.x264-W4F
2019-08-25 22:58:08 Peaky.Blinders.S05E01.720p.HDTV.x264-BRISK
2019-08-25 22:58:29 Peaky.Blinders.S05E01.1080p.HDTV.x264-BRISK
2019-08-25 22:59:31 Peaky.Blinders.S05E01.HDTV.x264-BRISK
2019-08-25 22:59:53 Who.Wants.To.Be.A.Millionaire.S33E02.720p.HDTV.x264-PLUTONiUM
2019-08-25 23:00:24 Aladdin.2019.FRENCH.720p.BluRay.x264-VENUE
2019-08-25 23:01:37 Peaky.Blinders.S05E01.1080p.HDTV.H264-MTB
2019-08-25 23:02:37 Peaky.Blinders.S05E01.720p.HDTV.x264-MTB
2019-08-25 23:04:27 Aladdin.2019.FRENCH.BDRip.x264-VENUE
2019-08-25 23:04:54 Aladdin.2019.MULTi.1080p.BluRay.x264-VENUE
2019-08-25 23:06:59 New.Amsterdam.2018.S01E04.FRENCH.HDTV.x264-AMB3R
2019-08-25 23:07:20 Grenslanders.S01E01E02.DUTCH.720p.HDTV.x264-DTOD
2019-08-25 23:08:16 Al.Murrays.Great.British.Pub.Quiz.S01E19.WEB.x264-BREXiT
2019-08-25 23:08:23 Peaky.Blinders.S05E01.Black.Tuesday.1080p.HDTV.x264-LiNKLE
2019-08-25 23:08:27 Al.Murrays.Great.British.Pub.Quiz.S01E19.720p.WEB.x264-BREXiT
2019-08-25 23:10:26 Al.Murrays.Great.British.Pub.Quiz.S01E19.1080p.WEB.x264-BREXiT
2019-08-25 23:10:39 Sanditon.S01E01.1080p.HDTV.H264-MTB
2019-08-25 23:10:50 Skyler_-_Something-(ODY_16)-SINGLE-WEB-2019-ZzZz
2019-08-25 23:12:01 Fodboldmagasinet.2019.08.25.DANiSH.720p.WEB.h264-DANES
2019-08-25 23:12:42 Murder.by.the.Lake.S01E07.MULTi.1080p.HDTV.H264-SH0W
2019-08-25 23:14:16 Little_Sound_Dj_v6.9.0_GB-VENOM
2019-08-25 23:14:57 Murder.by.the.Lake.S01E07.FiNAL.FRENCH.HDTV.x264-AMB3R
2019-08-25 23:15:13 Bundesliga.2019.08.24.FSV.Mainz.05.vs.Borussia.Monchengladbach.720p.WEB.h264-ADMIT
2019-08-25 23:15:50 The.Whoopee.Boys.1986.GERMAN.AC3.DUBBED.DVDRiP.x264-LAW
2019-08-25 23:15:56 Bundesliga.2019.08.24.FSV.Mainz.05.vs.Borussia.Monchengladbach.WEB.h264-ADMIT
2019-08-25 23:19:07 A.Black.and.White.Killing.The.Case.That.Shook.America.S01E01.1080p.HDTV.H264-UNDERBELLY
2019-08-25 23:20:33 Diamond_Dealer_-_Lagom-(BCMEDIA_017)-SINGLE-WEB-2019-ZzZz
2019-08-25 23:22:25 Gegege.no.Kitarou.2018.E70.SUBFRENCH.1080p.WEBRip.X264-SLEEPINGFOREST
2019-08-25 23:22:40 Hakata.Mentai.Pirikarako-chan.E08.SUBFRENCH.1080p.WEBRip.X264-SLEEPINGFOREST
2019-08-25 23:23:04 Monster.Strike.Third.Season.E49.SUBFRENCH.1080p.WEBRip.X264-SLEEPINGFOREST
2019-08-25 23:23:06 Sanditon.S01E01.720p.HDTV.x264-MTB
2019-08-25 23:23:14 Senki.Zesshou.Symphogear.Fifth.Season.E08.SUBFRENCH.1080p.WEBRip.X264-SLEEPINGFOREST
2019-08-25 23:23:32 Senki.Zesshou.Symphogear.Fourth.Season.E10.SUBFRENCH.1080p.WEBRip.X264-SLEEPINGFOREST
2019-08-25 23:24:05 Yamishibai.Japanese.Ghost.Stories.Seventh.Season.E08.SUBFRENCH.1080p.WEBRip.X264-SLEEPINGFOREST
2019-08-25 23:26:13 50.Festival.Narodno-Zabavne.Glasbe.Slovenije.Ptuj.2019.1.Del.SI.HDTV.x264-RADiOACTiVE
2019-08-25 23:26:14 50.Festival.Narodno-Zabavne.Glasbe.Slovenije.Ptuj.2019.1.Del.SI.720p.HDTV.x264-RADiOACTiVE
2019-08-25 23:29:13 Murder.by.the.Lake.S01E07.FRENCH.720p.HDTV.x264-SH0W
2019-08-25 23:31:32 Los.Doctores.Del.Gen.2017.SPANiSH.DOC.1080p.HDTV.x264-4FiRE
2019-08-25 23:31:54 Los.Doctores.Del.Gen.2017.SPANiSH.DOC.720p.HDTV.x264-4FiRE
2019-08-25 23:32:13 The.Handmaids.Tale.S03E12.HDTV.x264-RiVER
2019-08-25 23:32:15 Los.Doctores.Del.Gen.2017.SPANiSH.DOC.HDTV.x264-4FiRE
2019-08-25 23:32:33 Sanditon.S01E01.HDTV.x264-MTB
2019-08-25 23:32:36 Suncorp.Super.Netball.2019.Round.14.Magpies.vs.Vixens.720p.HDTV.x264-WiNNiNG
2019-08-25 23:38:01 Hierro.S01E01.FRENCH.720p.HDTV.x264-HuSSLe
2019-08-25 23:39:46 Pasquale_Rotella_-_Night_Owl_Radio_210__EDC_Korea_Mega_Mix-SAT-08-23-2019-TALiON
2019-08-25 23:40:47 Paul_van_Dyk_-_VONYC_Sessions_668__Incl_Cosmic_Gate_Guestmix-SAT-08-25-2019-TALiON
2019-08-25 23:41:47 Cosmic_Gate_-_Wake_Your_Mind_Radio_281-SAT-08-25-2019-TALiON
2019-08-25 23:42:19 Promi.Big.Brother.S07E09.GERMAN.HDTV.720p.x264-iNFOTv
2019-08-25 23:42:44 Suncorp.Super.Netball.2019.Round.14.Magpies.vs.Vixens.1080p.HDTV.x264-WiNNiNG
2019-08-25 23:42:47 Anden_-_Anjunabeats_Worldwide_639-SAT-08-25-2019-TALiON
2019-08-25 23:43:48 Roger_Shah_-_Magic_Island_588-SAT-08-25-2019-TALiON
2019-08-25 23:44:05 Promi.Big.Brother.S07E10.GERMAN.HDTV.720p.x264-iNFOTv
2019-08-25 23:44:40 A.Black.and.White.Killing.The.Case.That.Shook.America.S01E01.720p.HDTV.x264-UNDERBELLY
2019-08-25 23:44:47 Inhalt_Der_Nacht_-_Slam_Radio_359-SAT-08-25-2019-TALiON
2019-08-25 23:45:46 VA_-_Spinnin_Sessions_328__Incl_Marten_Hrger_Guestmix-SAT-08-25-2019-TALiON
2019-08-25 23:46:47 Boris_-_Transmissions_295-SAT-08-25-2019-TALiON
2019-08-25 23:47:47 Christian_Smith_-_Tronic_369__Incl_Sleepy_and_Boo_Guestmix-SAT-08-25-2019-TALiON
2019-08-25 23:47:51 A.Black.and.White.Killing.The.Case.That.Shook.America.S01E01.HDTV.x264-UNDERBELLY
2019-08-25 23:48:31 Tote.Maedchen.luegen.nicht.S03E07.GERMAN.2160p.WEBRiP.x265-CODY
2019-08-25 23:48:47 Offaiah_-_Traxsource_Live_238-SAT-08-25-2019-TALiON
2019-08-25 23:51:23 Deadline.2019.08.25.DANiSH.720p.WEB.h264-DANES
2019-08-25 23:51:29 Tote.Maedchen.luegen.nicht.S03E08.GERMAN.2160p.WEBRiP.x265-CODY
2019-08-25 23:53:31 Leben.im.All.E02.Unterwegs.zu.einem.neuen.Planeten.GERMAN.DOKU.720p.HDTV.x264-BTVG
2019-08-25 23:54:15 Tote.Maedchen.luegen.nicht.S03E09.GERMAN.2160p.WEBRiP.x265-CODY
2019-08-25 23:54:32 Leben.im.All.E03.Auf.der.Suche.nach.Ausserirdischem.GERMAN.DOKU.720p.HDTV.x264-BTVG
2019-08-25 23:54:33 Promi.Big.Brother.S07E11.GERMAN.HDTV.720p.x264-iNFOTv
2019-08-25 23:55:33 Leben.im.All.E04.Der.erste.Kontakt.GERMAN.DOKU.720p.HDTV.x264-BTVG
2019-08-25 23:55:51 La.Vuelta.2019.Stage.1.Highlights.1080p.HDTV.x264-WiNNiNG
2019-08-25 23:56:13 Promi.Big.Brother.S07E12.GERMAN.HDTV.720p.x264-iNFOTv
2019-08-25 23:57:30 Promi.Big.Brother.S07E13.GERMAN.HDTV.720p.x264-iNFOTv
2019-08-25 23:58:39 Le.Temps.Est.Assassin.S01E01.FRENCH.HDTV.x264-AMB3R
2019-08-25 23:58:45 Le.Temps.Est.Assassin.S01E02.FRENCH.HDTV.x264-AMB3R